Darstellungsparameter: Aktuell verwendete Einstellungen:
Skalierung der Graphiken ... ?
xyx+y,   Skalierungsfaktor:      Skalierung: Modus: x, Faktor: 1
Darstellungszeitraum ... ?
Vom - - bis: - -   Zeitraum: 23.12.2019 - 05.01.2020
Min/Max/Avg-Anzeige ... ?
Zeige MMA aktuell
Zeige MMA Monat
Zeige MMA alles
Zeige --A aktuell
Zeige --A Monat
Zeige --A alles
Keine MMA-Anzeige
MMA:
Average (ber die Originaldaten)
MMA-Basis: 23.12.2019 - 05.01.2020
Quicknavigation für Darstellung... ?
Tage:      1T, 2T, 3T, 5T -1T -2T -3T -5T +1T +2T +3T +5T
Wochen: 1W, 2W, 3W -1W -2W -3W +1W +2W +3W
Monate: 1M, 3M, 6M -1M -3M -6M +1M +3M +6M
Jahre:    1J, 3J, 5J, 10J -1J -3J -5J -10J +1J +3J +5J +10J
Nutze für die Darstellung ... ?
Originaldaten oder Mittelwerte auf ...
Stundenbasis Tagesbasis Wochenbasis
Monatsbasis Jahresbasis      Datenbasis: Original-Daten
Darstellen als:
Statistik (Auto) Statistik J:M      Darstellung:
Zur Graphik,    zurück zur Übersicht aller Sensoren.
 
Tabellarische Datenbersicht: ?
 
Sensor: Nr:Datum:Temp:Feuchte:
Aussen-T/F 1 23-12-2019 00:02:17 6.6 C 32 %
2 23-12-2019 00:12:17 6.5 C 31 %
3 23-12-2019 00:22:17 6.4 C 32 %
4 23-12-2019 00:32:17 6.6 C 31 %
5 23-12-2019 00:42:17 7 C 30 %
6 23-12-2019 00:52:17 6.9 C 30 %
7 23-12-2019 01:02:17 6.8 C 30 %
8 23-12-2019 01:12:17 7.1 C 28 %
9 23-12-2019 01:22:17 7 C 28 %
10 23-12-2019 01:32:17 7.1 C 28 %
11 23-12-2019 01:42:17 7.4 C 27 %
12 23-12-2019 01:52:17 7.4 C 27 %
13 23-12-2019 02:02:17 6.8 C 29 %
14 23-12-2019 02:12:17 6.5 C 30 %
15 23-12-2019 02:22:17 6.8 C 29 %
16 23-12-2019 02:32:17 6.9 C 29 %
17 23-12-2019 02:42:17 7.3 C 28 %
18 23-12-2019 02:52:17 6.9 C 30 %
19 23-12-2019 03:02:17 6.8 C 31 %
20 23-12-2019 03:12:17 6.4 C 31 %
21 23-12-2019 03:22:17 6.5 C 30 %
22 23-12-2019 03:32:17 7 C 28 %
23 23-12-2019 03:42:17 6.6 C 29 %
24 23-12-2019 03:52:17 7 C 28 %
25 23-12-2019 04:02:17 6.9 C 30 %
Sensor: Nr:Datum:Temp:Feuchte:
Aussen-T/F 26 23-12-2019 04:12:17 7.1 C 28 %
27 23-12-2019 04:22:17 6.8 C 30 %
28 23-12-2019 04:32:17 6.9 C 31 %
29 23-12-2019 04:42:17 6.5 C 31 %
30 23-12-2019 04:52:17 6.1 C 31 %
31 23-12-2019 05:02:17 6.4 C 32 %
32 23-12-2019 05:12:17 7 C 30 %
33 23-12-2019 05:22:17 7.1 C 30 %
34 23-12-2019 05:32:17 7 C 30 %
35 23-12-2019 05:42:17 6.8 C 31 %
36 23-12-2019 05:52:17 6.3 C 32 %
37 23-12-2019 06:02:18 6.3 C 34 %
38 23-12-2019 06:12:18 6.6 C 33 %
39 23-12-2019 06:22:17 6.9 C 31 %
40 23-12-2019 06:32:18 7.1 C 30 %
41 23-12-2019 06:42:18 6.9 C 31 %
42 23-12-2019 06:52:17 6.9 C 31 %
43 23-12-2019 07:02:17 6.8 C 32 %
44 23-12-2019 07:12:17 6.8 C 34 %
45 23-12-2019 07:22:17 6.8 C 32 %
46 23-12-2019 07:32:17 7.1 C 30 %
47 23-12-2019 07:42:17 7.4 C 29 %
48 23-12-2019 07:52:17 7.1 C 30 %
49 23-12-2019 08:02:17 7.3 C 30 %
50 23-12-2019 08:12:17 7.4 C 28 %
Sensor: Nr:Datum:Temp:Feuchte:
Aussen-T/F 51 23-12-2019 08:22:17 7.5 C 28 %
52 23-12-2019 08:32:18 7.5 C 28 %
53 23-12-2019 08:42:18 7.6 C 28 %
54 23-12-2019 08:52:17 7.6 C 27 %
55 23-12-2019 09:02:17 7.6 C 27 %
56 23-12-2019 09:12:18 7.7 C 27 %
57 23-12-2019 09:22:17 7.8 C 27 %
58 23-12-2019 09:32:18 7.8 C 27 %
59 23-12-2019 09:42:18 7.8 C 27 %
60 23-12-2019 09:52:18 7.9 C 26 %
61 23-12-2019 10:02:17 7.3 C 30 %
62 23-12-2019 10:12:18 7 C 33 %
63 23-12-2019 10:22:17 7 C 35 %
64 23-12-2019 10:32:18 6.8 C 35 %
65 23-12-2019 10:42:18 6.9 C 34 %
66 23-12-2019 10:52:17 7.4 C 30 %
67 23-12-2019 11:02:18 7.8 C 28 %
68 23-12-2019 11:12:18 8.1 C 28 %
69 23-12-2019 11:22:17 8.4 C 26 %
70 23-12-2019 11:32:18 8.3 C 26 %
71 23-12-2019 11:42:18 8.6 C 26 %
72 23-12-2019 11:52:17 8.9 C 25 %
73 23-12-2019 12:02:18 9.1 C 25 %
74 23-12-2019 12:12:18 9.1 C 25 %
75 23-12-2019 12:22:17 8.9 C 25 %
Sensor: Nr:Datum:Temp:Feuchte:
Aussen-T/F 76 23-12-2019 12:32:17 9 C 25 %
77 23-12-2019 12:42:17 9.3 C 25 %
78 23-12-2019 12:52:17 8.4 C 26 %
79 23-12-2019 13:02:17 8.4 C 26 %
80 23-12-2019 13:12:17 8.3 C 27 %
81 23-12-2019 13:22:17 8.2 C 27 %
82 23-12-2019 13:32:18 8.1 C 29 %
83 23-12-2019 13:42:18 8.2 C 28 %
84 23-12-2019 13:52:17 8.5 C 28 %
85 23-12-2019 14:02:17 8.9 C 27 %
86 23-12-2019 14:12:17 8.9 C 26 %
87 23-12-2019 14:22:18 9 C 25 %
88 23-12-2019 14:32:17 9.1 C 25 %
89 23-12-2019 14:42:17 9.1 C 25 %
90 23-12-2019 14:52:17 8.9 C 25 %
91 23-12-2019 15:02:18 8.7 C 26 %
92 23-12-2019 15:12:18 9.1 C 25 %
93 23-12-2019 15:22:17 9.1 C 25 %
94 23-12-2019 15:32:17 9 C 25 %
95 23-12-2019 15:42:17 9 C 25 %
96 23-12-2019 15:52:17 8.8 C 25 %
97 23-12-2019 16:02:17 8.8 C 25 %
98 23-12-2019 16:12:17 8.6 C 26 %
99 23-12-2019 16:22:18 8.5 C 25 %
100 23-12-2019 16:32:17 8.4 C 25 %
Sensor: Nr:Datum:Temp:Feuchte:
Aussen-T/F 101 23-12-2019 16:42:17 8.5 C 25 %
102 23-12-2019 16:52:18 8.5 C 25 %
103 23-12-2019 17:02:17 8.2 C 25 %
104 23-12-2019 17:12:17 8.4 C 25 %
105 23-12-2019 17:22:17 8 C 25 %
106 23-12-2019 17:32:17 7.9 C 25 %
107 23-12-2019 17:42:18 7.8 C 25 %
108 23-12-2019 17:52:17 7.8 C 25 %
109 23-12-2019 18:02:17 7.9 C 25 %
110 23-12-2019 18:12:17 8 C 23 %
111 23-12-2019 18:22:17 7.9 C 23 %
112 23-12-2019 18:32:17 7.9 C 25 %
113 23-12-2019 18:42:17 7.6 C 25 %
114 23-12-2019 18:52:17 7.5 C 26 %
115 23-12-2019 19:02:17 7.3 C 26 %
116 23-12-2019 19:12:17 6.7 C 29 %
117 23-12-2019 19:22:17 6.4 C 30 %
118 23-12-2019 19:32:17 7.4 C 26 %
119 23-12-2019 19:42:17 7 C 26 %
120 23-12-2019 19:52:17 7 C 27 %
121 23-12-2019 20:02:17 7 C 28 %
122 23-12-2019 20:12:17 6.5 C 30 %
123 23-12-2019 20:22:17 6.8 C 30 %
124 23-12-2019 20:32:18 6.8 C 30 %
125 23-12-2019 20:42:18 6.9 C 30 %
Sensor: Nr:Datum:Temp:Feuchte:
Aussen-T/F 126 23-12-2019 20:52:17 6.9 C 30 %
127 23-12-2019 21:02:18 6.7 C 30 %
128 23-12-2019 21:12:18 7.1 C 28 %
129 23-12-2019 21:22:17 7 C 28 %
130 23-12-2019 21:32:17 6.7 C 31 %
131 23-12-2019 21:42:17 6.5 C 31 %
132 23-12-2019 21:52:17 6.5 C 32 %
133 23-12-2019 22:02:18 6.4 C 31 %
134 23-12-2019 22:12:18 5.8 C 32 %
135 23-12-2019 22:22:17 5.4 C 37 %
136 23-12-2019 22:32:17 5.7 C 33 %
137 23-12-2019 22:42:17 5.3 C 34 %
138 23-12-2019 22:52:17 5.5 C 34 %
139 23-12-2019 23:02:17 5.4 C 33 %
140 23-12-2019 23:12:17 5.5 C 32 %
141 23-12-2019 23:22:18 5.4 C 30 %
142 23-12-2019 23:32:17 5.8 C 30 %
143 23-12-2019 23:42:17 4.8 C 33 %
144 23-12-2019 23:52:17 4.8 C 36 %
145 24-12-2019 00:02:17 5.6 C 35 %
146 24-12-2019 00:12:17 5.8 C 32 %
147 24-12-2019 00:22:17 5.7 C 32 %
148 24-12-2019 00:32:18 6 C 32 %
149 24-12-2019 00:42:18 6.1 C 31 %
150 24-12-2019 00:52:17 6.3 C 31 %
Sensor: Nr:Datum:Temp:Feuchte:
Aussen-T/F 151 24-12-2019 01:02:17 5.6 C 32 %
152 24-12-2019 01:12:17 5.9 C 32 %
153 24-12-2019 01:22:17 6.1 C 30 %
154 24-12-2019 01:32:17 6.3 C 30 %
155 24-12-2019 01:42:17 5.9 C 31 %
156 24-12-2019 01:52:17 5.7 C 33 %
157 24-12-2019 02:02:17 5.7 C 35 %
158 24-12-2019 02:12:17 5.8 C 35 %
159 24-12-2019 02:22:17 5.6 C 35 %
160 24-12-2019 02:32:18 5.5 C 36 %
161 24-12-2019 02:42:18 5.5 C 36 %
162 24-12-2019 02:52:17 6.6 C 30 %
163 24-12-2019 03:02:18 6.7 C 29 %
164 24-12-2019 03:12:18 6.3 C 30 %
165 24-12-2019 03:22:17 5.7 C 31 %
166 24-12-2019 03:32:17 5.5 C 31 %
167 24-12-2019 03:42:17 5.7 C 31 %
168 24-12-2019 03:52:17 5 C 32 %
169 24-12-2019 04:02:17 5 C 38 %
170 24-12-2019 04:12:17 5.2 C 37 %
171 24-12-2019 04:22:17 5.2 C 36 %
172 24-12-2019 04:32:17 4.8 C 37 %
173 24-12-2019 04:42:17 4.8 C 39 %
174 24-12-2019 04:52:17 5.3 C 38 %
175 24-12-2019 05:02:18 5.4 C 35 %
Sensor: Nr:Datum:Temp:Feuchte:
Aussen-T/F 176 24-12-2019 05:12:18 5.2 C 35 %
177 24-12-2019 05:22:17 4.7 C 37 %
178 24-12-2019 05:32:18 5 C 37 %
179 24-12-2019 05:42:18 4.6 C 36 %
180 24-12-2019 05:52:17 4.9 C 37 %
181 24-12-2019 06:02:18 4.3 C 36 %
182 24-12-2019 06:12:18 4.6 C 39 %
183 24-12-2019 06:22:17 4.6 C 38 %
184 24-12-2019 06:32:17 4.6 C 39 %
185 24-12-2019 06:42:17 4.5 C 38 %
186 24-12-2019 06:52:17 4.5 C 39 %
187 24-12-2019 07:02:17 4.8 C 37 %
188 24-12-2019 07:12:17 5 C 36 %
189 24-12-2019 07:22:17 5.4 C 34 %
190 24-12-2019 07:32:17 5.6 C 33 %
191 24-12-2019 07:42:17 5.6 C 32 %
192 24-12-2019 07:52:17 5.8 C 32 %
193 24-12-2019 08:02:17 5.8 C 31 %
194 24-12-2019 08:12:17 6 C 30 %
195 24-12-2019 08:22:17 6.2 C 29 %
196 24-12-2019 08:32:17 6.2 C 30 %
197 24-12-2019 08:42:17 6.3 C 30 %
198 24-12-2019 08:52:18 6.4 C 30 %
199 24-12-2019 09:02:17 6.5 C 29 %
200 24-12-2019 09:12:17 6.8 C 29 %
Sensor: Nr:Datum:Temp:Feuchte:
Aussen-T/F 201 24-12-2019 09:22:17 6.8 C 28 %
202 24-12-2019 09:32:17 6.8 C 29 %
203 24-12-2019 09:42:17 6.8 C 28 %
204 24-12-2019 09:52:17 6.5 C 30 %
205 24-12-2019 10:02:17 6.4 C 30 %
206 24-12-2019 10:12:17 6.2 C 31 %
207 24-12-2019 10:22:17 6.2 C 33 %
208 24-12-2019 10:32:17 6.3 C 37 %
209 24-12-2019 10:42:17 6.8 C 37 %
210 24-12-2019 10:52:17 6.7 C 33 %
211 24-12-2019 11:02:17 6.8 C 35 %
212 24-12-2019 11:12:17 6.9 C 34 %
213 24-12-2019 11:22:17 7.5 C 32 %
214 24-12-2019 11:32:17 8 C 30 %
215 24-12-2019 11:42:17 8.2 C 29 %
216 24-12-2019 11:52:18 8 C 29 %
217 24-12-2019 12:02:17 7.8 C 30 %
218 24-12-2019 12:12:17 7.6 C 30 %
219 24-12-2019 12:22:17 8 C 28 %
220 24-12-2019 12:32:17 8.2 C 27 %
221 24-12-2019 12:42:17 8.4 C 27 %
222 24-12-2019 12:52:18 8.9 C 27 %
223 24-12-2019 13:02:17 9.2 C 25 %
224 24-12-2019 13:12:17 9.3 C 25 %
225 24-12-2019 13:22:17 9.3 C 25 %
Sensor: Nr:Datum:Temp:Feuchte:
Aussen-T/F 226 24-12-2019 13:32:17 9.2 C 26 %
227 24-12-2019 13:42:17 9.3 C 26 %
228 24-12-2019 13:52:17 9.3 C 26 %
229 24-12-2019 14:02:18 9.4 C 25 %
230 24-12-2019 14:12:18 9.5 C 25 %
231 24-12-2019 14:22:17 9.6 C 25 %
232 24-12-2019 14:32:18 9.7 C 25 %
233 24-12-2019 14:42:18 9.3 C 26 %
234 24-12-2019 14:52:17 9.2 C 27 %
235 24-12-2019 15:02:18 9.1 C 27 %
236 24-12-2019 15:12:18 9.5 C 26 %
237 24-12-2019 15:22:17 9.8 C 25 %
238 24-12-2019 15:32:17 10 C 22 %
239 24-12-2019 15:42:17 10.1 C 20 %
240 24-12-2019 15:52:17 10.5 C 20 %
241 24-12-2019 16:02:17 10.1 C 20 %
242 24-12-2019 16:12:17 10 C 20 %
243 24-12-2019 16:22:17 10.2 C 20 %
244 24-12-2019 16:32:17 9.8 C 20 %
245 24-12-2019 16:42:17 9.7 C 21 %
246 24-12-2019 16:52:17 10.1 C 20 %
247 24-12-2019 17:02:17 9.8 C 20 %
248 24-12-2019 17:12:17 9.4 C 20 %
249 24-12-2019 17:22:18 9.6 C 20 %
250 24-12-2019 17:32:17 8.8 C 20 %
Sensor: Nr:Datum:Temp:Feuchte:
Aussen-T/F 251 24-12-2019 17:42:17 9.1 C 20 %
252 24-12-2019 17:52:17 9.3 C 20 %
253 24-12-2019 18:02:17 9 C 20 %
254 24-12-2019 18:12:17 8.5 C 26 %
255 24-12-2019 18:22:17 8.9 C 25 %
256 24-12-2019 18:32:17 8.2 C 28 %
257 24-12-2019 18:42:17 7.8 C 31 %
258 24-12-2019 18:52:17 7.5 C 35 %
259 24-12-2019 19:02:17 7.6 C 31 %
260 24-12-2019 19:12:17 7.3 C 31 %
261 24-12-2019 19:22:17 6.7 C 35 %
262 24-12-2019 19:32:17 6.5 C 40 %
263 24-12-2019 19:42:17 6.5 C 36 %
264 24-12-2019 19:52:17 6.2 C 36 %
265 24-12-2019 20:02:17 6.7 C 35 %
266 24-12-2019 20:12:17 7.3 C 30 %
267 24-12-2019 20:22:17 7.2 C 32 %
268 24-12-2019 20:32:18 7.1 C 30 %
269 24-12-2019 20:42:18 7.3 C 31 %
270 24-12-2019 20:52:17 7.3 C 30 %
271 24-12-2019 21:02:17 7.1 C 31 %
272 24-12-2019 21:12:17 7.7 C 30 %
273 24-12-2019 21:22:17 7.4 C 30 %
274 24-12-2019 21:32:17 7.6 C 30 %
275 24-12-2019 21:42:17 7.9 C 29 %
Sensor: Nr:Datum:Temp:Feuchte:
Aussen-T/F 276 24-12-2019 21:52:17 8.1 C 28 %
277 24-12-2019 22:02:17 8.6 C 26 %
278 24-12-2019 22:12:17 8.5 C 26 %
279 24-12-2019 22:22:17 8.3 C 26 %
280 24-12-2019 22:32:17 8.4 C 26 %
281 24-12-2019 22:42:17 8.2 C 27 %
282 24-12-2019 22:52:17 8 C 28 %
283 24-12-2019 23:02:17 8.4 C 27 %
284 24-12-2019 23:12:17 8.4 C 27 %
285 24-12-2019 23:22:17 8.4 C 27 %
286 24-12-2019 23:32:17 8.5 C 27 %
287 24-12-2019 23:42:17 8.5 C 27 %
288 24-12-2019 23:52:17 8.4 C 27 %
289 25-12-2019 00:02:17 8.4 C 27 %
290 25-12-2019 00:12:17 8.4 C 27 %
291 25-12-2019 00:22:17 8.4 C 28 %
292 25-12-2019 00:32:17 8.3 C 28 %
293 25-12-2019 00:42:18 8.2 C 29 %
294 25-12-2019 00:52:17 8.2 C 29 %
295 25-12-2019 01:02:17 7.8 C 32 %
296 25-12-2019 01:12:17 7.7 C 33 %
297 25-12-2019 01:22:17 7.5 C 35 %
298 25-12-2019 01:32:18 7.3 C 35 %
299 25-12-2019 01:42:18 7.5 C 35 %
300 25-12-2019 01:52:17 7.6 C 33 %
Sensor: Nr:Datum:Temp:Feuchte:
Aussen-T/F 301 25-12-2019 02:02:17 7.7 C 32 %
302 25-12-2019 02:12:17 8 C 31 %
303 25-12-2019 02:22:17 7.9 C 31 %
304 25-12-2019 02:32:18 7.9 C 31 %
305 25-12-2019 02:42:18 7.9 C 31 %
306 25-12-2019 02:52:17 7.9 C 31 %
307 25-12-2019 03:02:17 7.8 C 31 %
308 25-12-2019 03:12:17 7.9 C 32 %
309 25-12-2019 03:22:17 8.1 C 31 %
310 25-12-2019 03:32:17 8.3 C 30 %
311 25-12-2019 03:42:17 8.2 C 30 %
312 25-12-2019 03:52:18 8.2 C 30 %
313 25-12-2019 04:02:17 7.9 C 34 %
314 25-12-2019 04:12:17 8 C 34 %
315 25-12-2019 04:22:18 7.9 C 35 %
316 25-12-2019 04:32:17 7.9 C 36 %
317 25-12-2019 04:42:17 7.9 C 38 %
318 25-12-2019 04:52:17 7.9 C 36 %
319 25-12-2019 05:02:17 7.9 C 37 %
320 25-12-2019 05:12:17 7.8 C 37 %
321 25-12-2019 05:22:18 7.6 C 38 %
322 25-12-2019 05:32:17 8 C 36 %
323 25-12-2019 05:42:17 7.9 C 35 %
324 25-12-2019 05:52:17 7.5 C 35 %
325 25-12-2019 06:02:18 7.5 C 35 %
Sensor: Nr:Datum:Temp:Feuchte:
Aussen-T/F 326 25-12-2019 06:12:18 7.2 C 36 %
327 25-12-2019 06:22:17 7.2 C 37 %
328 25-12-2019 06:32:18 7.3 C 37 %
329 25-12-2019 06:42:18 7.3 C 36 %
330 25-12-2019 06:52:17 7.1 C 39 %
331 25-12-2019 07:02:18 7.3 C 33 %
332 25-12-2019 07:12:18 7.1 C 32 %
333 25-12-2019 07:22:17 6.9 C 35 %
334 25-12-2019 07:32:18 6.8 C 38 %
335 25-12-2019 07:42:18 6.9 C 38 %
336 25-12-2019 07:52:17 7 C 35 %
337 25-12-2019 08:02:18 6.8 C 32 %
338 25-12-2019 08:12:18 6.4 C 32 %
339 25-12-2019 08:22:17 6.2 C 33 %
340 25-12-2019 08:32:17 6.2 C 32 %
341 25-12-2019 08:42:17 6.5 C 32 %
342 25-12-2019 08:52:17 6.7 C 31 %
343 25-12-2019 09:02:17 6.9 C 30 %
344 25-12-2019 09:12:17 6.9 C 30 %
345 25-12-2019 09:22:18 6.8 C 30 %
346 25-12-2019 09:32:17 7.3 C 28 %
347 25-12-2019 09:42:17 7.3 C 27 %
348 25-12-2019 09:52:17 7.3 C 27 %
349 25-12-2019 10:02:17 7.1 C 29 %
350 25-12-2019 10:12:17 7.3 C 27 %
Sensor: Nr:Datum:Temp:Feuchte:
Aussen-T/F 351 25-12-2019 10:22:18 7.6 C 26 %
352 25-12-2019 10:32:17 7.7 C 26 %
353 25-12-2019 10:42:17 7.8 C 25 %
354 25-12-2019 10:52:17 7.5 C 26 %
355 25-12-2019 11:02:17 7.5 C 26 %
356 25-12-2019 11:12:17 7.5 C 26 %
357 25-12-2019 11:22:17 7.7 C 26 %
358 25-12-2019 11:32:17 7.4 C 26 %
359 25-12-2019 11:42:17 7.4 C 27 %
360 25-12-2019 11:52:18 7.1 C 28 %
361 25-12-2019 12:02:17 7.1 C 29 %
362 25-12-2019 12:12:17 7.6 C 27 %
363 25-12-2019 12:22:17 7.6 C 27 %
364 25-12-2019 12:32:17 7.7 C 27 %
365 25-12-2019 12:42:17 7.8 C 27 %
366 25-12-2019 12:52:18 7.6 C 27 %
367 25-12-2019 13:02:17 7.1 C 29 %
368 25-12-2019 13:12:17 7 C 31 %
369 25-12-2019 13:22:18 6.9 C 31 %
370 25-12-2019 13:32:17 7.1 C 30 %
371 25-12-2019 13:42:17 7 C 30 %
372 25-12-2019 13:52:17 6.9 C 30 %
373 25-12-2019 14:02:17 7.1 C 30 %
374 25-12-2019 14:12:17 7.4 C 29 %
375 25-12-2019 14:22:18 7.6 C 28 %
Sensor: Nr:Datum:Temp:Feuchte:
Aussen-T/F 376 25-12-2019 14:32:17 7.7 C 29 %
377 25-12-2019 14:42:17 7.6 C 29 %
378 25-12-2019 14:52:17 7.1 C 31 %
379 25-12-2019 15:02:17 7.1 C 32 %
380 25-12-2019 15:12:17 7.1 C 30 %
381 25-12-2019 15:22:18 7.1 C 31 %
382 25-12-2019 15:32:17 7.4 C 30 %
383 25-12-2019 15:42:17 7.3 C 31 %
384 25-12-2019 15:52:17 7.2 C 30 %
385 25-12-2019 16:02:17 7.2 C 30 %
386 25-12-2019 16:12:17 6.9 C 31 %
387 25-12-2019 16:22:17 6.8 C 32 %
388 25-12-2019 16:32:17 6.7 C 35 %
389 25-12-2019 16:42:17 6.9 C 32 %
390 25-12-2019 16:52:17 6.9 C 31 %
391 25-12-2019 17:02:17 6.8 C 30 %
392 25-12-2019 17:12:17 6.7 C 30 %
393 25-12-2019 17:22:18 6.6 C 31 %
394 25-12-2019 17:32:17 6.2 C 31 %
395 25-12-2019 17:42:17 5.7 C 35 %
396 25-12-2019 17:52:18 5.9 C 35 %
397 25-12-2019 18:02:17 6 C 33 %
398 25-12-2019 18:12:17 6.1 C 32 %
399 25-12-2019 18:22:17 6.2 C 33 %
400 25-12-2019 18:32:17 6.2 C 33 %
Sensor: Nr:Datum:Temp:Feuchte:
Aussen-T/F 401 25-12-2019 18:42:17 6.2 C 32 %
402 25-12-2019 18:52:17 6.2 C 32 %
403 25-12-2019 19:02:17 6 C 33 %
404 25-12-2019 19:12:17 5.9 C 33 %
405 25-12-2019 19:22:17 6.1 C 32 %
406 25-12-2019 19:32:18 6.1 C 32 %
407 25-12-2019 19:42:18 6 C 33 %
408 25-12-2019 19:52:17 5.9 C 33 %
409 25-12-2019 20:02:17 5.8 C 35 %
410 25-12-2019 20:12:17 5.9 C 35 %
411 25-12-2019 20:22:18 5.9 C 34 %
412 25-12-2019 20:32:17 5.8 C 34 %
413 25-12-2019 20:42:17 5.6 C 37 %
414 25-12-2019 20:52:17 5.5 C 38 %
415 25-12-2019 21:02:18 5.5 C 38 %
416 25-12-2019 21:12:18 5.4 C 40 %
417 25-12-2019 21:22:17 5.3 C 41 %
418 25-12-2019 21:32:17 5.3 C 43 %
419 25-12-2019 21:42:17 5.3 C 42 %
420 25-12-2019 21:52:17 5.2 C 42 %
421 25-12-2019 22:02:18 5.2 C 42 %
422 25-12-2019 22:12:18 5.1 C 43 %
423 25-12-2019 22:22:17 5.2 C 42 %
424 25-12-2019 22:32:18 5.1 C 41 %
425 25-12-2019 22:42:18 5.1 C 42 %
Sensor: Nr:Datum:Temp:Feuchte:
Aussen-T/F 426 25-12-2019 22:52:17 5.2 C 42 %
427 25-12-2019 23:02:18 5.2 C 42 %
428 25-12-2019 23:12:18 5.2 C 42 %
429 25-12-2019 23:22:17 5.2 C 42 %
430 25-12-2019 23:32:17 5.1 C 42 %
431 25-12-2019 23:42:17 4.7 C 42 %
432 25-12-2019 23:52:17 4.5 C 42 %
433 26-12-2019 00:02:17 4.6 C 43 %
434 26-12-2019 00:12:18 4 C 42 %
435 26-12-2019 00:22:17 3.6 C 42 %
436 26-12-2019 00:32:18 3.9 C 44 %
437 26-12-2019 00:42:18 3.9 C 44 %
438 26-12-2019 00:52:17 4.1 C 43 %
439 26-12-2019 01:02:18 4.4 C 43 %
440 26-12-2019 01:12:18 4.3 C 43 %
441 26-12-2019 01:22:17 4.3 C 43 %
442 26-12-2019 01:32:17 4.4 C 43 %
443 26-12-2019 01:42:17 4.4 C 43 %
444 26-12-2019 01:52:17 4.3 C 42 %
445 26-12-2019 02:02:18 4.3 C 42 %
446 26-12-2019 02:12:18 4.4 C 42 %
447 26-12-2019 02:22:17 4.2 C 42 %
448 26-12-2019 02:32:17 4 C 42 %
449 26-12-2019 02:42:17 4 C 42 %
450 26-12-2019 02:52:17 4.2 C 42 %
Sensor: Nr:Datum:Temp:Feuchte:
Aussen-T/F 451 26-12-2019 03:02:18 4.2 C 42 %
452 26-12-2019 03:12:18 4.1 C 42 %
453 26-12-2019 03:22:17 4.1 C 42 %
454 26-12-2019 03:32:17 4.1 C 42 %
455 26-12-2019 03:42:17 4.1 C 42 %
456 26-12-2019 03:52:17 3.9 C 43 %
457 26-12-2019 04:02:17 3.6 C 42 %
458 26-12-2019 04:12:17 3.6 C 42 %
459 26-12-2019 04:22:18 3.4 C 42 %
460 26-12-2019 04:32:17 3 C 42 %
461 26-12-2019 04:42:17 3.1 C 42 %
462 26-12-2019 04:52:17 3.1 C 43 %
463 26-12-2019 05:02:17 3.3 C 43 %
464 26-12-2019 05:12:17 3.5 C 43 %
465 26-12-2019 05:22:17 3.4 C 43 %
466 26-12-2019 05:32:18 3.5 C 43 %
467 26-12-2019 05:42:18 3.4 C 43 %
468 26-12-2019 05:52:17 3.5 C 43 %
469 26-12-2019 06:02:17 3.6 C 43 %
470 26-12-2019 06:12:18 3.6 C 43 %
471 26-12-2019 06:22:17 3.5 C 43 %
472 26-12-2019 06:32:18 3.6 C 43 %
473 26-12-2019 06:42:18 3.5 C 43 %
474 26-12-2019 06:52:17 3.5 C 43 %
475 26-12-2019 07:02:18 3.5 C 43 %
Sensor: Nr:Datum:Temp:Feuchte:
Aussen-T/F 476 26-12-2019 07:12:18 3.5 C 43 %
477 26-12-2019 07:22:17 3.4 C 43 %
478 26-12-2019 07:32:17 3.4 C 43 %
479 26-12-2019 07:42:17 3.4 C 43 %
480 26-12-2019 07:52:17 3.4 C 43 %
481 26-12-2019 08:02:18 3.4 C 43 %
482 26-12-2019 08:12:18 3.4 C 43 %
483 26-12-2019 08:22:17 3.5 C 43 %
484 26-12-2019 08:32:17 3.4 C 43 %
485 26-12-2019 08:42:17 3.4 C 43 %
486 26-12-2019 08:52:17 3.5 C 43 %
487 26-12-2019 09:02:17 3.5 C 43 %
488 26-12-2019 09:12:17 3.5 C 43 %
489 26-12-2019 09:22:17 3.4 C 42 %
490 26-12-2019 09:32:17 3.5 C 43 %
491 26-12-2019 09:42:17 3.6 C 42 %
492 26-12-2019 09:52:18 3.6 C 42 %
493 26-12-2019 10:02:17 3.6 C 42 %
494 26-12-2019 10:12:17 3.6 C 42 %
495 26-12-2019 10:22:18 3.8 C 42 %
496 26-12-2019 10:32:17 4 C 41 %
497 26-12-2019 10:42:17 4.3 C 41 %
498 26-12-2019 10:52:18 4.5 C 41 %
499 26-12-2019 11:02:17 4.7 C 41 %
500 26-12-2019 11:12:17 4.8 C 41 %
Sensor: Nr:Datum:Temp:Feuchte:
Aussen-T/F 501 26-12-2019 11:22:17 5 C 40 %
502 26-12-2019 11:32:17 5.4 C 40 %
503 26-12-2019 11:42:17 5.5 C 39 %
504 26-12-2019 11:52:17 5.6 C 37 %
505 26-12-2019 12:02:17 5.7 C 36 %
506 26-12-2019 12:12:17 5.7 C 36 %
507 26-12-2019 12:22:17 5.7 C 35 %
508 26-12-2019 12:32:18 5.9 C 35 %
509 26-12-2019 12:42:18 6 C 35 %
510 26-12-2019 12:52:17 6 C 36 %
511 26-12-2019 13:02:18 5.9 C 36 %
512 26-12-2019 13:12:18 5.9 C 37 %
513 26-12-2019 13:22:17 5.8 C 36 %
514 26-12-2019 13:32:18 5.8 C 36 %
515 26-12-2019 13:42:18 5.7 C 36 %
516 26-12-2019 13:52:17 5.7 C 36 %
517 26-12-2019 14:02:18 5.7 C 36 %
518 26-12-2019 14:12:18 5.8 C 35 %
519 26-12-2019 14:22:17 6 C 35 %
520 26-12-2019 14:32:17 6 C 35 %
521 26-12-2019 14:42:17 5.7 C 35 %
522 26-12-2019 14:52:17 5.6 C 36 %
523 26-12-2019 15:02:17 5.5 C 36 %
524 26-12-2019 15:12:17 5.4 C 36 %
525 26-12-2019 15:22:17 5.1 C 38 %
Sensor: Nr:Datum:Temp:Feuchte:
Aussen-T/F 526 26-12-2019 15:32:17 5 C 37 %
527 26-12-2019 15:42:17 4.8 C 39 %
528 26-12-2019 15:52:18 4.8 C 39 %
529 26-12-2019 16:02:17 4.7 C 38 %
530 26-12-2019 16:12:17 4.6 C 39 %
531 26-12-2019 16:22:17 4.5 C 40 %
532 26-12-2019 16:32:17 4.4 C 41 %
533 26-12-2019 16:42:18 4.4 C 40 %
534 26-12-2019 16:53:17 4.3 C 41 %
535 26-12-2019 17:02:17 4.4 C 40 %
536 26-12-2019 17:12:17 4.3 C 40 %
537 26-12-2019 17:22:17 4.3 C 40 %
538 26-12-2019 17:32:17 4.4 C 40 %
539 26-12-2019 17:42:17 4.1 C 40 %
540 26-12-2019 17:52:17 4.1 C 40 %
541 26-12-2019 18:02:17 4 C 40 %
542 26-12-2019 18:12:17 4 C 41 %
543 26-12-2019 18:22:17 4.1 C 41 %
544 26-12-2019 18:32:17 4.1 C 41 %
545 26-12-2019 18:42:18 4.1 C 40 %
546 26-12-2019 18:53:17 4.1 C 40 %
547 26-12-2019 19:02:17 4 C 40 %
548 26-12-2019 19:12:17 4 C 41 %
549 26-12-2019 19:23:17 4 C 41 %
550 26-12-2019 19:32:17 3.8 C 41 %
Sensor: Nr:Datum:Temp:Feuchte:
Aussen-T/F 551 26-12-2019 19:42:17 4 C 41 %
552 26-12-2019 19:53:17 3.8 C 41 %
553 26-12-2019 20:02:17 3.8 C 42 %
554 26-12-2019 20:12:17 3.9 C 42 %
555 26-12-2019 20:23:17 4 C 41 %
556 26-12-2019 20:32:17 4.1 C 40 %
557 26-12-2019 20:42:17 4.2 C 39 %
558 26-12-2019 20:53:17 4.1 C 38 %
559 26-12-2019 21:02:17 4.3 C 37 %
560 26-12-2019 21:12:17 4.2 C 38 %
561 26-12-2019 21:23:17 4.1 C 38 %
562 26-12-2019 21:32:18 4.1 C 38 %
563 26-12-2019 21:42:18 4.2 C 37 %
564 26-12-2019 21:52:17 4.3 C 37 %
565 26-12-2019 22:02:18 4.1 C 39 %
566 26-12-2019 22:12:18 4.1 C 41 %
567 26-12-2019 22:22:17 4.1 C 41 %
568 26-12-2019 22:33:17 4.1 C 41 %
569 26-12-2019 22:43:17 4.1 C 42 %
570 26-12-2019 22:52:17 4.1 C 42 %
571 26-12-2019 23:03:17 4.1 C 43 %
572 26-12-2019 23:13:17 4.1 C 43 %
573 26-12-2019 23:23:17 4 C 43 %
574 26-12-2019 23:32:17 4 C 43 %
575 26-12-2019 23:42:17 4 C 42 %
Sensor: Nr:Datum:Temp:Feuchte:
Aussen-T/F 576 26-12-2019 23:53:17 4 C 42 %
577 27-12-2019 00:02:17 4 C 42 %
578 27-12-2019 00:12:17 4 C 42 %
579 27-12-2019 00:23:17 4 C 42 %
580 27-12-2019 00:32:17 4 C 42 %
581 27-12-2019 00:42:18 4.1 C 42 %
582 27-12-2019 00:53:17 4.1 C 42 %
583 27-12-2019 01:03:18 4.1 C 42 %
584 27-12-2019 01:13:18 4.1 C 42 %
585 27-12-2019 01:23:17 4.1 C 42 %
586 27-12-2019 01:33:17 4.1 C 42 %
587 27-12-2019 01:43:17 4.1 C 42 %
588 27-12-2019 01:53:18 4.1 C 42 %
589 27-12-2019 02:03:17 4.1 C 42 %
590 27-12-2019 02:13:17 4.1 C 42 %
591 27-12-2019 02:23:17 4.1 C 42 %
592 27-12-2019 02:33:18 4.1 C 42 %
593 27-12-2019 02:43:19 4.1 C 42 %
594 27-12-2019 02:53:17 4.2 C 42 %
595 27-12-2019 03:03:17 4.3 C 42 %
596 27-12-2019 03:13:17 4.2 C 42 %
597 27-12-2019 03:23:17 4.3 C 42 %
598 27-12-2019 03:33:17 4.3 C 42 %
599 27-12-2019 03:43:18 4.3 C 42 %
600 27-12-2019 03:53:17 4.3 C 42 %
Sensor: Nr:Datum:Temp:Feuchte:
Aussen-T/F 601 27-12-2019 04:03:17 4.3 C 42 %
602 27-12-2019 04:13:17 4.3 C 42 %
603 27-12-2019 04:23:17 4.3 C 42 %
604 27-12-2019 04:33:17 4.3 C 42 %
605 27-12-2019 04:43:17 4.3 C 42 %
606 27-12-2019 04:53:18 4.4 C 42 %
607 27-12-2019 05:03:17 4.4 C 42 %
608 27-12-2019 05:13:17 4.4 C 42 %
609 27-12-2019 05:23:17 4.4 C 42 %
610 27-12-2019 05:33:17 4.3 C 42 %
611 27-12-2019 05:43:17 4.4 C 42 %
612 27-12-2019 05:53:17 4.4 C 42 %
613 27-12-2019 06:03:17 4.4 C 42 %
614 27-12-2019 06:13:17 4.4 C 42 %
615 27-12-2019 06:23:17 4.4 C 42 %
616 27-12-2019 06:33:17 4.4 C 42 %
617 27-12-2019 06:43:17 4.4 C 42 %
618 27-12-2019 06:53:17 4.4 C 42 %
619 27-12-2019 07:03:17 4.5 C 42 %
620 27-12-2019 07:13:17 4.4 C 42 %
621 27-12-2019 07:23:18 4.4 C 42 %
622 27-12-2019 07:33:17 4.4 C 42 %
623 27-12-2019 07:43:17 4.4 C 42 %
624 27-12-2019 07:53:17 4.3 C 42 %
625 27-12-2019 08:03:17 4.3 C 42 %
Sensor: Nr:Datum:Temp:Feuchte:
Aussen-T/F 626 27-12-2019 08:13:17 4.3 C 42 %
627 27-12-2019 08:23:17 4.3 C 42 %
628 27-12-2019 08:33:17 4.3 C 42 %
629 27-12-2019 08:43:17 4.3 C 42 %
630 27-12-2019 08:53:18 4.3 C 42 %
631 27-12-2019 09:03:17 4.4 C 42 %
632 27-12-2019 09:13:17 4.4 C 42 %
633 27-12-2019 09:23:17 4.3 C 42 %
634 27-12-2019 09:33:17 4.5 C 42 %
635 27-12-2019 09:43:17 4.6 C 42 %
636 27-12-2019 09:53:17 4.8 C 41 %
637 27-12-2019 10:03:17 4.9 C 41 %
638 27-12-2019 10:13:17 4.8 C 40 %
639 27-12-2019 10:23:17 4.8 C 40 %
640 27-12-2019 10:33:18 4.9 C 40 %
641 27-12-2019 10:43:18 4.9 C 40 %
642 27-12-2019 10:53:17 5 C 38 %
643 27-12-2019 11:03:18 5 C 38 %
644 27-12-2019 11:13:18 5.1 C 37 %
645 27-12-2019 11:23:17 5.1 C 37 %
646 27-12-2019 11:33:17 5.2 C 36 %
647 27-12-2019 11:43:17 5.7 C 33 %
648 27-12-2019 11:53:17 6 C 31 %
649 27-12-2019 12:03:17 6.1 C 31 %
650 27-12-2019 12:13:17 5.9 C 31 %
Sensor: Nr:Datum:Temp:Feuchte:
Aussen-T/F 651 27-12-2019 12:23:17 5.9 C 31 %
652 27-12-2019 12:33:17 6 C 31 %
653 27-12-2019 12:43:17 6 C 31 %
654 27-12-2019 12:53:17 5.9 C 31 %
655 27-12-2019 13:03:17 5.7 C 31 %
656 27-12-2019 13:13:17 5.7 C 31 %
657 27-12-2019 13:23:17 5.6 C 31 %
658 27-12-2019 13:33:17 5.7 C 31 %
659 27-12-2019 13:43:17 5.7 C 30 %
660 27-12-2019 13:53:17 5.8 C 30 %
661 27-12-2019 14:03:18 5.9 C 30 %
662 27-12-2019 14:13:18 6.1 C 29 %
663 27-12-2019 14:23:18 5.9 C 29 %
664 27-12-2019 14:33:17 6 C 30 %
665 27-12-2019 14:43:17 5.9 C 28 %
666 27-12-2019 14:53:18 5.8 C 26 %
667 27-12-2019 15:03:17 5.7 C 27 %
668 27-12-2019 15:13:17 5.7 C 28 %
669 27-12-2019 15:23:18 5.6 C 29 %
670 27-12-2019 15:33:17 5.6 C 29 %
671 27-12-2019 15:43:17 5.4 C 30 %
672 27-12-2019 15:53:17 5.3 C 31 %
673 27-12-2019 16:03:17 5.1 C 33 %
674 27-12-2019 16:13:17 4.9 C 33 %
675 27-12-2019 16:23:17 4.9 C 33 %
Sensor: Nr:Datum:Temp:Feuchte:
Aussen-T/F 676 27-12-2019 16:33:17 4.8 C 34 %
677 27-12-2019 16:43:17 4.7 C 33 %
678 27-12-2019 16:53:17 4.6 C 34 %
679 27-12-2019 17:03:17 4.5 C 34 %
680 27-12-2019 17:13:17 4.5 C 35 %
681 27-12-2019 17:23:17 4.5 C 33 %
682 27-12-2019 17:33:18 4.5 C 34 %
683 27-12-2019 17:43:18 4.5 C 34 %
684 27-12-2019 17:53:17 4.4 C 34 %
685 27-12-2019 18:03:18 4.4 C 33 %
686 27-12-2019 18:13:18 4.4 C 33 %
687 27-12-2019 18:23:17 4.4 C 32 %
688 27-12-2019 18:33:18 4.4 C 34 %
689 27-12-2019 18:43:18 4.3 C 34 %
690 27-12-2019 18:53:17 4.2 C 33 %
691 27-12-2019 19:03:17 4.2 C 33 %
692 27-12-2019 19:13:17 4.2 C 33 %
693 27-12-2019 19:23:17 4.3 C 32 %
694 27-12-2019 19:33:17 4.2 C 33 %
695 27-12-2019 19:43:17 4.1 C 34 %
696 27-12-2019 19:53:18 3.9 C 35 %
697 27-12-2019 20:03:17 3.8 C 34 %
698 27-12-2019 20:13:17 4 C 32 %
699 27-12-2019 20:23:17 4 C 32 %
700 27-12-2019 20:33:18 4 C 32 %
Sensor: Nr:Datum:Temp:Feuchte:
Aussen-T/F 701 27-12-2019 20:43:18 4 C 31 %
702 27-12-2019 20:53:17 4.1 C 31 %
703 27-12-2019 21:03:18 4.1 C 31 %
704 27-12-2019 21:13:18 4 C 31 %
705 27-12-2019 21:23:17 4 C 31 %
706 27-12-2019 21:33:18 3.9 C 33 %
707 27-12-2019 21:43:18 3.9 C 32 %
708 27-12-2019 21:53:17 3.7 C 32 %
709 27-12-2019 22:03:17 3.6 C 32 %
710 27-12-2019 22:13:17 3.3 C 32 %
711 27-12-2019 22:23:17 3.2 C 32 %
712 27-12-2019 22:33:17 2.7 C 33 %
713 27-12-2019 22:43:17 2.2 C 34 %
714 27-12-2019 22:53:17 2 C 35 %
715 27-12-2019 23:03:18 1.7 C 38 %
716 27-12-2019 23:13:18 1.3 C 39 %
717 27-12-2019 23:23:17 1.2 C 41 %
718 27-12-2019 23:33:17 0.9 C 42 %
719 27-12-2019 23:43:17 0.8 C 41 %
720 27-12-2019 23:53:17 0.7 C 41 %
721 28-12-2019 00:03:17 0.5 C 40 %
722 28-12-2019 00:13:17 0.4 C 41 %
723 28-12-2019 00:23:18 0.4 C 41 %
724 28-12-2019 00:33:17 0.3 C 41 %
725 28-12-2019 00:43:17 0.3 C 41 %
Sensor: Nr:Datum:Temp:Feuchte:
Aussen-T/F 726 28-12-2019 00:53:17 0.2 C 40 %
727 28-12-2019 01:03:17 0.1 C 40 %
728 28-12-2019 01:13:17 -0.2 C 43 %
729 28-12-2019 01:23:17 -0.5 C 43 %
730 28-12-2019 01:33:17 -0.3 C 44 %
731 28-12-2019 01:43:17 -0.7 C 42 %
732 28-12-2019 01:53:17 -1.1 C 43 %
733 28-12-2019 02:03:17 -1.3 C 45 %
734 28-12-2019 02:13:17 -1.5 C 44 %
735 28-12-2019 02:23:17 -1.7 C 44 %
736 28-12-2019 02:33:18 -1.5 C 45 %
737 28-12-2019 02:43:18 -1.5 C 45 %
738 28-12-2019 02:53:17 -1.6 C 45 %
739 28-12-2019 03:03:17 -1.9 C 45 %
740 28-12-2019 03:13:18 -1.7 C 45 %
741 28-12-2019 03:23:17 -2.1 C 45 %
742 28-12-2019 03:33:17 -2.1 C 45 %
743 28-12-2019 03:43:17 -2.1 C 45 %
744 28-12-2019 03:53:18 -2.4 C 45 %
745 28-12-2019 04:03:17 -2.4 C 45 %
746 28-12-2019 04:13:17 -2.4 C 45 %
747 28-12-2019 04:23:17 -2.3 C 45 %
748 28-12-2019 04:33:17 -2.4 C 45 %
749 28-12-2019 04:43:18 -2.3 C 45 %
750 28-12-2019 04:53:17 -2.4 C 45 %
Sensor: Nr:Datum:Temp:Feuchte:
Aussen-T/F 751 28-12-2019 05:03:18 -2.6 C 44 %
752 28-12-2019 05:13:18 -2.7 C 44 %
753 28-12-2019 05:23:17 -2.5 C 45 %
754 28-12-2019 05:33:18 -2.5 C 45 %
755 28-12-2019 05:43:18 -2.1 C 45 %
756 28-12-2019 05:53:17 -2.3 C 45 %
757 28-12-2019 06:03:17 -1.8 C 45 %
758 28-12-2019 06:13:18 -2.1 C 44 %
759 28-12-2019 06:23:17 -2.2 C 43 %
760 28-12-2019 06:33:17 -2 C 44 %
761 28-12-2019 06:43:18 -1.9 C 44 %
762 28-12-2019 06:53:17 -2.1 C 43 %
763 28-12-2019 07:03:18 -2 C 43 %
764 28-12-2019 07:13:18 -2.3 C 43 %
765 28-12-2019 07:23:17 -2.8 C 42 %
766 28-12-2019 07:33:17 -2.3 C 43 %
767 28-12-2019 07:43:17 -2.4 C 43 %
768 28-12-2019 07:53:17 -2.2 C 44 %
769 28-12-2019 08:03:17 -2.6 C 43 %
770 28-12-2019 08:13:17 -3 C 42 %
771 28-12-2019 08:23:18 -3.1 C 42 %
772 28-12-2019 08:33:17 -3.2 C 42 %
773 28-12-2019 08:43:17 -3.2 C 42 %
774 28-12-2019 08:53:17 -2.9 C 43 %
775 28-12-2019 09:03:18 -2.9 C 43 %
Sensor: Nr:Datum:Temp:Feuchte:
Aussen-T/F 776 28-12-2019 09:13:18 -2.8 C 43 %
777 28-12-2019 09:23:17 -2.7 C 43 %
778 28-12-2019 09:33:17 -2.5 C 43 %
779 28-12-2019 09:43:17 -1.9 C 45 %
780 28-12-2019 09:53:17 -1.7 C 45 %
781 28-12-2019 10:03:17 -1.6 C 45 %
782 28-12-2019 10:13:17 -1.4 C 45 %
783 28-12-2019 10:23:17 -1.5 C 45 %
784 28-12-2019 10:33:18 -1.3 C 45 %
785 28-12-2019 10:43:18 -1.3 C 45 %
786 28-12-2019 10:53:17 -1.1 C 45 %
787 28-12-2019 11:03:18 -1 C 44 %
788 28-12-2019 11:13:18 -0.9 C 44 %
789 28-12-2019 11:23:17 -0.6 C 44 %
790 28-12-2019 11:33:17 -0.5 C 43 %
791 28-12-2019 11:43:18 -0.3 C 42 %
792 28-12-2019 11:53:17 -0.2 C 42 %
793 28-12-2019 12:03:17 -0.2 C 41 %
794 28-12-2019 12:13:17 0 C 41 %
795 28-12-2019 12:23:17 0.2 C 41 %
796 28-12-2019 12:33:17 0.3 C 41 %
797 28-12-2019 12:43:18 0.4 C 40 %
798 28-12-2019 12:53:17 0.5 C 40 %
799 28-12-2019 13:03:18 0.7 C 40 %
800 28-12-2019 13:13:18 0.8 C 40 %
Sensor: Nr:Datum:Temp:Feuchte:
Aussen-T/F 801 28-12-2019 13:23:17 0.8 C 40 %
802 28-12-2019 13:33:17 0.9 C 40 %
803 28-12-2019 13:43:17 0.8 C 40 %
804 28-12-2019 13:53:17 0.6 C 40 %
805 28-12-2019 14:03:17 0.6 C 41 %
806 28-12-2019 14:13:17 0.7 C 41 %
807 28-12-2019 14:23:17 0.8 C 40 %
808 28-12-2019 14:33:17 0.7 C 40 %
809 28-12-2019 14:43:17 0.6 C 40 %
810 28-12-2019 14:53:17 0.5 C 40 %
811 28-12-2019 15:03:17 0.5 C 40 %
812 28-12-2019 15:13:18 0.5 C 40 %
813 28-12-2019 15:23:17 0.2 C 40 %
814 28-12-2019 15:33:17 0.4 C 40 %
815 28-12-2019 15:43:17 0.3 C 39 %
816 28-12-2019 15:53:18 0.4 C 39 %
817 28-12-2019 16:03:17 0.3 C 38 %
818 28-12-2019 16:13:17 0.2 C 38 %
819 28-12-2019 16:23:17 0 C 39 %
820 28-12-2019 16:33:17 0 C 39 %
821 28-12-2019 16:43:17 -0.1 C 38 %
822 28-12-2019 16:53:17 -0.3 C 39 %
823 28-12-2019 17:03:17 -0.4 C 39 %
824 28-12-2019 17:13:17 -0.4 C 40 %
825 28-12-2019 17:23:17 -0.5 C 40 %
Sensor: Nr:Datum:Temp:Feuchte:
Aussen-T/F 826 28-12-2019 17:33:18 -0.6 C 40 %
827 28-12-2019 17:43:18 -0.7 C 41 %
828 28-12-2019 17:53:17 -1.3 C 41 %
829 28-12-2019 18:03:17 -1.2 C 44 %
830 28-12-2019 18:13:17 -1.1 C 43 %
831 28-12-2019 18:23:17 -1.1 C 43 %
832 28-12-2019 18:33:17 -0.9 C 43 %
833 28-12-2019 18:43:17 -1.2 C 43 %
834 28-12-2019 18:53:17 -0.9 C 43 %
835 28-12-2019 19:03:17 -1.2 C 42 %
836 28-12-2019 19:13:18 -1.7 C 42 %
837 28-12-2019 19:23:17 -1.9 C 43 %
838 28-12-2019 19:33:18 -1.9 C 44 %
839 28-12-2019 19:43:18 -1.9 C 44 %
840 28-12-2019 19:53:17 -1.8 C 44 %
841 28-12-2019 20:03:17 -1.9 C 44 %
842 28-12-2019 20:13:17 -1.7 C 45 %
843 28-12-2019 20:23:17 -1.2 C 45 %
844 28-12-2019 20:33:18 -1.2 C 43 %
845 28-12-2019 20:43:18 -1.4 C 43 %
846 28-12-2019 20:53:18 -1.2 C 44 %
847 28-12-2019 21:03:17 -1.6 C 43 %
848 28-12-2019 21:13:17 -1.3 C 44 %
849 28-12-2019 21:23:17 -1.4 C 41 %
850 28-12-2019 21:33:17 -1.8 C 41 %
Sensor: Nr:Datum:Temp:Feuchte:
Aussen-T/F 851 28-12-2019 21:43:18 -1.6 C 43 %
852 28-12-2019 21:53:17 -1.7 C 42 %
853 28-12-2019 22:03:18 -1.7 C 42 %
854 28-12-2019 22:13:18 -2.2 C 41 %
855 28-12-2019 22:23:17 -2.3 C 42 %
856 28-12-2019 22:33:17 -2.3 C 42 %
857 28-12-2019 22:43:17 -2.5 C 42 %
858 28-12-2019 22:53:17 -2.2 C 43 %
859 28-12-2019 23:03:17 -2.5 C 42 %
860 28-12-2019 23:13:17 -2.3 C 43 %
861 28-12-2019 23:23:17 -2.3 C 43 %
862 28-12-2019 23:33:17 -2.7 C 42 %
863 28-12-2019 23:43:17 -2.6 C 43 %
864 28-12-2019 23:53:17 -2.9 C 42 %
865 29-12-2019 00:03:18 -2.6 C 43 %
866 29-12-2019 00:13:18 -2.9 C 43 %
867 29-12-2019 00:23:17 -3.1 C 42 %
868 29-12-2019 00:33:17 -3.2 C 43 %
869 29-12-2019 00:43:17 -3.1 C 43 %
870 29-12-2019 00:53:17 -3.1 C 43 %
871 29-12-2019 01:03:17 -3.3 C 42 %
872 29-12-2019 01:13:17 -3.3 C 43 %
873 29-12-2019 01:23:17 -3.5 C 42 %
874 29-12-2019 01:33:17 -3.7 C 42 %
875 29-12-2019 01:43:17 -3 C 44 %
Sensor: Nr:Datum:Temp:Feuchte:
Aussen-T/F 876 29-12-2019 01:53:17 -3.5 C 42 %
877 29-12-2019 02:03:17 -3.7 C 41 %
878 29-12-2019 02:13:17 -3.8 C 42 %
879 29-12-2019 02:23:17 -3.3 C 43 %
880 29-12-2019 02:33:17 -3.7 C 41 %
881 29-12-2019 02:43:17 -3.7 C 42 %
882 29-12-2019 02:53:18 -3.8 C 41 %
883 29-12-2019 03:03:17 -4 C 41 %
884 29-12-2019 03:13:17 -4 C 42 %
885 29-12-2019 03:23:17 -4 C 41 %
886 29-12-2019 03:33:17 -4.1 C 41 %
887 29-12-2019 03:43:17 -4.1 C 41 %
888 29-12-2019 03:53:18 -4 C 42 %
889 29-12-2019 04:03:17 -4.2 C 41 %
890 29-12-2019 04:13:17 -3.9 C 42 %
891 29-12-2019 04:23:17 -4.1 C 41 %
892 29-12-2019 04:33:17 -4.1 C 41 %
893 29-12-2019 04:43:17 -4.4 C 41 %
894 29-12-2019 04:53:17 -4.2 C 41 %
895 29-12-2019 05:03:17 -4.3 C 41 %
896 29-12-2019 05:13:17 -4.5 C 41 %
897 29-12-2019 05:23:17 -4.5 C 41 %
898 29-12-2019 05:33:18 -4.4 C 41 %
899 29-12-2019 05:43:18 -4.5 C 41 %
900 29-12-2019 05:53:17 -4.7 C 41 %
Sensor: Nr:Datum:Temp:Feuchte:
Aussen-T/F 901 29-12-2019 06:03:17 -4.6 C 41 %
902 29-12-2019 06:13:17 -4.7 C 41 %
903 29-12-2019 06:23:17 -4.8 C 41 %
904 29-12-2019 06:33:17 -4.8 C 41 %
905 29-12-2019 06:43:17 -4.8 C 41 %
906 29-12-2019 06:53:17 -4.8 C 41 %
907 29-12-2019 07:03:17 -4.9 C 41 %
908 29-12-2019 07:13:17 -4.9 C 41 %
909 29-12-2019 07:23:17 -5 C 41 %
910 29-12-2019 07:33:17 -4.5 C 42 %
911 29-12-2019 07:43:17 -4.7 C 41 %
912 29-12-2019 07:53:17 -4.7 C 41 %
913 29-12-2019 08:03:17 -4.4 C 42 %
914 29-12-2019 08:13:17 -4.3 C 42 %
915 29-12-2019 08:23:18 -3.9 C 43 %
916 29-12-2019 08:33:17 -4.1 C 41 %
917 29-12-2019 08:43:17 -4.3 C 41 %
918 29-12-2019 08:53:17 -4.5 C 40 %
919 29-12-2019 09:03:17 -4.1 C 42 %
920 29-12-2019 09:13:17 -3.9 C 42 %
921 29-12-2019 09:23:18 -4 C 41 %
922 29-12-2019 09:33:17 -4.1 C 41 %
923 29-12-2019 09:43:17 -4 C 41 %
924 29-12-2019 09:53:17 -4 C 41 %
925 29-12-2019 10:03:18 -4 C 40 %
Sensor: Nr:Datum:Temp:Feuchte:
Aussen-T/F 926 29-12-2019 10:13:18 -3.9 C 41 %
927 29-12-2019 10:23:17 -3.5 C 42 %
928 29-12-2019 10:33:17 -3.3 C 42 %
929 29-12-2019 10:43:17 -3.1 C 42 %
930 29-12-2019 10:53:17 -2.6 C 43 %
931 29-12-2019 11:03:17 -2.1 C 43 %
932 29-12-2019 11:13:17 -1.8 C 42 %
933 29-12-2019 11:23:17 -1.4 C 43 %
934 29-12-2019 11:33:17 -1.3 C 42 %
935 29-12-2019 11:43:18 -0.8 C 43 %
936 29-12-2019 11:53:17 -0.4 C 42 %
937 29-12-2019 12:03:18 -0.5 C 41 %
938 29-12-2019 12:13:18 -0.3 C 41 %
939 29-12-2019 12:23:17 0.1 C 40 %
940 29-12-2019 12:33:17 0.3 C 40 %
941 29-12-2019 12:43:17 0.5 C 40 %
942 29-12-2019 12:53:17 0.4 C 40 %
943 29-12-2019 13:03:17 0.7 C 38 %
944 29-12-2019 13:13:17 1 C 37 %
945 29-12-2019 13:23:17 1 C 37 %
946 29-12-2019 13:33:18 1.4 C 36 %
947 29-12-2019 13:43:18 1.4 C 38 %
948 29-12-2019 13:53:17 1.5 C 37 %
949 29-12-2019 14:03:17 1.5 C 36 %
950 29-12-2019 14:13:17 1.4 C 37 %
Sensor: Nr:Datum:Temp:Feuchte:
Aussen-T/F 951 29-12-2019 14:23:17 1.7 C 36 %
952 29-12-2019 14:33:18 1.9 C 36 %
953 29-12-2019 14:43:18 2.2 C 34 %
954 29-12-2019 14:53:17 2.1 C 33 %
955 29-12-2019 15:03:17 1.9 C 34 %
956 29-12-2019 15:13:18 2 C 31 %
957 29-12-2019 15:23:17 2 C 27 %
958 29-12-2019 15:33:17 1.9 C 30 %
959 29-12-2019 15:43:17 1.5 C 32 %
960 29-12-2019 15:53:18 1.1 C 32 %
961 29-12-2019 16:03:17 0.5 C 35 %
962 29-12-2019 16:13:17 0.2 C 38 %
963 29-12-2019 16:23:17 0.2 C 39 %
964 29-12-2019 16:33:18 -0.3 C 39 %
965 29-12-2019 16:43:18 -0.1 C 40 %
966 29-12-2019 16:53:17 -0.2 C 40 %
967 29-12-2019 17:03:17 -0.2 C 40 %
968 29-12-2019 17:13:17 -0.3 C 39 %
969 29-12-2019 17:23:17 -0.3 C 37 %
970 29-12-2019 17:33:17 -0.3 C 37 %
971 29-12-2019 17:43:17 -0.1 C 36 %
972 29-12-2019 17:53:17 -0.2 C 38 %
973 29-12-2019 18:03:17 -0.1 C 37 %
974 29-12-2019 18:13:17 0.1 C 37 %
975 29-12-2019 18:23:17 0.2 C 36 %
Sensor: Nr:Datum:Temp:Feuchte:
Aussen-T/F 976 29-12-2019 18:33:17 -0.2 C 38 %
977 29-12-2019 18:43:17 -0.5 C 40 %
978 29-12-2019 18:53:17 -0.8 C 40 %
979 29-12-2019 19:03:17 -0.5 C 41 %
980 29-12-2019 19:13:17 -0.7 C 38 %
981 29-12-2019 19:23:18 -0.6 C 37 %
982 29-12-2019 19:33:18 -0.6 C 35 %
983 29-12-2019 19:43:18 -1 C 35 %
984 29-12-2019 19:53:17 -1.1 C 36 %
985 29-12-2019 20:03:18 -0.9 C 34 %
986 29-12-2019 20:13:18 -1.2 C 36 %
987 29-12-2019 20:23:17 -0.7 C 35 %
988 29-12-2019 20:33:17 -1.3 C 37 %
989 29-12-2019 20:43:17 -0.9 C 39 %
990 29-12-2019 20:53:17 -1.5 C 39 %
991 29-12-2019 21:03:17 -1.2 C 38 %
992 29-12-2019 21:13:17 -1.8 C 37 %
993 29-12-2019 21:23:17 -1.8 C 40 %
994 29-12-2019 21:33:18 -1.8 C 41 %
995 29-12-2019 21:43:18 -2.1 C 42 %
996 29-12-2019 21:53:17 -2.3 C 42 %
997 29-12-2019 22:03:17 -2.2 C 43 %
998 29-12-2019 22:13:17 -2.1 C 43 %
999 29-12-2019 22:23:17 -2.4 C 42 %
1000 29-12-2019 22:33:17 -2.7 C 42 %
Sensor: Nr:Datum:Temp:Feuchte:
Aussen-T/F 1001 29-12-2019 22:43:18 -2.7 C 43 %
1002 29-12-2019 22:53:17 -2.7 C 43 %
1003 29-12-2019 23:03:17 -2.8 C 43 %
1004 29-12-2019 23:13:17 -2.7 C 44 %
1005 29-12-2019 23:23:17 -2.8 C 43 %
1006 29-12-2019 23:33:18 -3 C 43 %
1007 29-12-2019 23:43:18 -3 C 43 %
1008 29-12-2019 23:53:17 -3 C 42 %
1009 30-12-2019 00:03:17 -3 C 42 %
1010 30-12-2019 00:13:17 -3.1 C 41 %
1011 30-12-2019 00:23:17 -3.1 C 41 %
1012 30-12-2019 00:33:17 -3 C 42 %
1013 30-12-2019 00:43:17 -3.2 C 42 %
1014 30-12-2019 00:53:17 -3.2 C 42 %
1015 30-12-2019 01:03:17 -3.2 C 42 %
1016 30-12-2019 01:13:18 -3.1 C 44 %
1017 30-12-2019 01:23:17 -3.1 C 43 %
1018 30-12-2019 01:33:18 -3.2 C 42 %
1019 30-12-2019 01:43:18 -3.4 C 42 %
1020 30-12-2019 01:53:17 -3.5 C 42 %
1021 30-12-2019 02:03:17 -3.2 C 43 %
1022 30-12-2019 02:13:17 -3.4 C 43 %
1023 30-12-2019 02:23:17 -3.4 C 43 %
1024 30-12-2019 02:33:18 -3.4 C 43 %
1025 30-12-2019 02:43:18 -3.4 C 43 %
Sensor: Nr:Datum:Temp:Feuchte:
Aussen-T/F 1026 30-12-2019 02:53:17 -3.4 C 43 %
1027 30-12-2019 03:03:17 -3.3 C 43 %
1028 30-12-2019 03:13:17 -3.4 C 43 %
1029 30-12-2019 03:23:17 -3.1 C 43 %
1030 30-12-2019 03:33:18 -3.2 C 43 %
1031 30-12-2019 03:43:18 -3.3 C 43 %
1032 30-12-2019 03:53:17 -3.5 C 43 %
1033 30-12-2019 04:03:17 -3.7 C 42 %
1034 30-12-2019 04:13:17 -3.8 C 42 %
1035 30-12-2019 04:23:17 -3.8 C 42 %
1036 30-12-2019 04:33:17 -3.9 C 42 %
1037 30-12-2019 04:43:17 -3.9 C 42 %
1038 30-12-2019 04:53:17 -4 C 42 %
1039 30-12-2019 05:03:17 -3.9 C 42 %
1040 30-12-2019 05:13:17 -3.8 C 42 %
1041 30-12-2019 05:23:17 -3.9 C 42 %
1042 30-12-2019 05:33:17 -3.7 C 43 %
1043 30-12-2019 05:43:17 -3.8 C 43 %
1044 30-12-2019 05:53:18 -4 C 42 %
1045 30-12-2019 06:03:17 -4 C 42 %
1046 30-12-2019 06:13:17 -4 C 42 %
1047 30-12-2019 06:23:17 -3.9 C 42 %
1048 30-12-2019 06:33:17 -3.7 C 43 %
1049 30-12-2019 06:43:17 -3.9 C 42 %
1050 30-12-2019 06:53:17 -4 C 42 %
Sensor: Nr:Datum:Temp:Feuchte:
Aussen-T/F 1051 30-12-2019 07:03:17 -4 C 42 %
1052 30-12-2019 07:13:17 -4.2 C 41 %
1053 30-12-2019 07:23:17 -4.4 C 42 %
1054 30-12-2019 07:33:18 -4.4 C 41 %
1055 30-12-2019 07:43:18 -4.4 C 42 %
1056 30-12-2019 07:53:17 -4.2 C 42 %
1057 30-12-2019 08:03:17 -4.4 C 41 %
1058 30-12-2019 08:13:17 -4.3 C 42 %
1059 30-12-2019 08:23:17 -4.4 C 42 %
1060 30-12-2019 08:33:17 -4.5 C 41 %
1061 30-12-2019 08:43:17 -4 C 43 %
1062 30-12-2019 08:53:17 -4.2 C 41 %
1063 30-12-2019 09:03:18 -4.1 C 42 %
1064 30-12-2019 09:13:18 -3.9 C 42 %
1065 30-12-2019 09:23:17 -3.8 C 42 %
1066 30-12-2019 09:33:17 -3.6 C 43 %
1067 30-12-2019 09:43:17 -3.7 C 42 %
1068 30-12-2019 09:53:17 -3.7 C 42 %
1069 30-12-2019 10:03:17 -3.5 C 42 %
1070 30-12-2019 10:13:17 -3.3 C 43 %
1071 30-12-2019 10:23:17 -3.3 C 42 %
1072 30-12-2019 10:33:17 -3.3 C 42 %
1073 30-12-2019 10:43:17 -3 C 43 %
1074 30-12-2019 10:53:17 -2.9 C 42 %
1075 30-12-2019 11:03:17 -2.9 C 42 %
Sensor: Nr:Datum:Temp:Feuchte:
Aussen-T/F 1076 30-12-2019 11:13:17 -2.8 C 42 %
1077 30-12-2019 11:23:17 -2.4 C 43 %
1078 30-12-2019 11:33:17 -2.1 C 42 %
1079 30-12-2019 11:43:17 -2 C 41 %
1080 30-12-2019 11:53:18 -2.1 C 40 %
1081 30-12-2019 12:03:17 -1.7 C 41 %
1082 30-12-2019 12:13:17 -1.5 C 40 %
1083 30-12-2019 12:23:17 -1.6 C 40 %
1084 30-12-2019 12:33:17 -1.4 C 41 %
1085 30-12-2019 12:43:17 -0.7 C 39 %
1086 30-12-2019 12:53:17 -0.8 C 39 %
1087 30-12-2019 13:03:17 -0.8 C 38 %
1088 30-12-2019 13:13:17 -1 C 40 %
1089 30-12-2019 13:23:17 -1 C 41 %
1090 30-12-2019 13:33:17 -1 C 42 %
1091 30-12-2019 13:43:17 -0.6 C 42 %
1092 30-12-2019 13:53:17 -0.2 C 41 %
1093 30-12-2019 14:03:17 0.3 C 37 %
1094 30-12-2019 14:13:17 0.1 C 35 %
1095 30-12-2019 14:23:17 0.6 C 35 %
1096 30-12-2019 14:33:17 0.5 C 35 %
1097 30-12-2019 14:43:17 1 C 32 %
1098 30-12-2019 14:53:17 0.6 C 35 %
1099 30-12-2019 15:03:17 0.9 C 36 %
1100 30-12-2019 15:13:17 1.1 C 33 %
Sensor: Nr:Datum:Temp:Feuchte:
Aussen-T/F 1101 30-12-2019 15:23:17 0.6 C 35 %
1102 30-12-2019 15:33:18 0.6 C 36 %
1103 30-12-2019 15:43:18 0.7 C 35 %
1104 30-12-2019 15:53:17 1.6 C 32 %
1105 30-12-2019 16:03:18 1.7 C 32 %
1106 30-12-2019 16:13:18 1.9 C 31 %
1107 30-12-2019 16:23:18 1.6 C 33 %
1108 30-12-2019 16:33:17 1.1 C 35 %
1109 30-12-2019 16:43:17 0.8 C 37 %
1110 30-12-2019 16:53:17 0.6 C 40 %
1111 30-12-2019 17:03:17 0.7 C 40 %
1112 30-12-2019 17:13:17 0.7 C 40 %
1113 30-12-2019 17:23:18 0.6 C 40 %
1114 30-12-2019 17:33:17 0.5 C 40 %
1115 30-12-2019 17:43:17 0.5 C 40 %
1116 30-12-2019 17:53:17 0.5 C 37 %
1117 30-12-2019 18:03:17 0.3 C 36 %
1118 30-12-2019 18:13:17 -0.3 C 36 %
1119 30-12-2019 18:23:18 -0.7 C 37 %
1120 30-12-2019 18:33:18 -0.4 C 36 %
1121 30-12-2019 18:43:18 -0.2 C 36 %
1122 30-12-2019 18:53:17 -0.6 C 34 %
1123 30-12-2019 19:03:17 -1.3 C 36 %
1124 30-12-2019 19:13:17 -1 C 36 %
1125 30-12-2019 19:23:18 -1.4 C 36 %
Sensor: Nr:Datum:Temp:Feuchte:
Aussen-T/F 1126 30-12-2019 19:33:17 -1.4 C 39 %
1127 30-12-2019 19:43:17 -0.4 C 33 %
1128 30-12-2019 19:53:18 0 C 32 %
1129 30-12-2019 20:03:17 -0.3 C 31 %
1130 30-12-2019 20:13:17 -1.2 C 32 %
1131 30-12-2019 20:23:17 -1.6 C 35 %
1132 30-12-2019 20:33:17 -1.6 C 36 %
1133 30-12-2019 20:43:17 -1.7 C 36 %
1134 30-12-2019 20:53:17 -1.5 C 37 %
1135 30-12-2019 21:03:17 -1.9 C 37 %
1136 30-12-2019 21:13:17 -0.8 C 35 %
1137 30-12-2019 21:23:17 -1.1 C 35 %
1138 30-12-2019 21:33:17 -0.9 C 35 %
1139 30-12-2019 21:43:17 -0.8 C 36 %
1140 30-12-2019 21:53:17 -1.1 C 33 %
1141 30-12-2019 22:03:17 -1.5 C 35 %
1142 30-12-2019 22:13:17 -1.7 C 35 %
1143 30-12-2019 22:23:17 -1.7 C 35 %
1144 30-12-2019 22:33:17 -2.3 C 35 %
1145 30-12-2019 22:43:17 -1.8 C 35 %
1146 30-12-2019 22:53:17 -2 C 36 %
1147 30-12-2019 23:03:17 -2.3 C 36 %
1148 30-12-2019 23:13:17 -1.5 C 36 %
1149 30-12-2019 23:23:17 -0.9 C 32 %
1150 30-12-2019 23:33:17 -0.3 C 31 %
Sensor: Nr:Datum:Temp:Feuchte:
Aussen-T/F 1151 30-12-2019 23:43:17 -0.9 C 31 %
1152 30-12-2019 23:53:17 -1 C 31 %
1153 31-12-2019 00:03:17 -1.2 C 32 %
1154 31-12-2019 00:13:18 -1.4 C 34 %
1155 31-12-2019 00:23:17 -1.6 C 36 %
1156 31-12-2019 00:33:18 -1.2 C 35 %
1157 31-12-2019 00:43:18 -1.5 C 35 %
1158 31-12-2019 00:53:17 -1.5 C 36 %
1159 31-12-2019 01:03:17 -1.5 C 36 %
1160 31-12-2019 01:13:17 -0.8 C 34 %
1161 31-12-2019 01:23:18 -1.3 C 34 %
1162 31-12-2019 01:33:17 -1.6 C 37 %
1163 31-12-2019 01:43:17 -2 C 37 %
1164 31-12-2019 01:53:17 -2.3 C 38 %
1165 31-12-2019 02:03:17 -2.5 C 40 %
1166 31-12-2019 02:13:17 -2.7 C 40 %
1167 31-12-2019 02:23:18 -2.8 C 41 %
1168 31-12-2019 02:33:17 -3 C 41 %
1169 31-12-2019 02:43:17 -2.9 C 43 %
1170 31-12-2019 02:53:17 -2 C 45 %
1171 31-12-2019 03:03:17 -1.7 C 42 %
1172 31-12-2019 03:13:18 -2 C 40 %
1173 31-12-2019 03:23:17 -2.4 C 40 %
1174 31-12-2019 03:33:18 -2.5 C 41 %
1175 31-12-2019 03:43:18 -2.9 C 41 %
Sensor: Nr:Datum:Temp:Feuchte:
Aussen-T/F 1176 31-12-2019 03:53:17 -2.8 C 42 %
1177 31-12-2019 04:03:17 -2.6 C 43 %
1178 31-12-2019 04:13:17 -3.1 C 42 %
1179 31-12-2019 04:23:17 -3.2 C 42 %
1180 31-12-2019 04:33:17 -3.3 C 42 %
1181 31-12-2019 04:43:18 -3.3 C 42 %
1182 31-12-2019 04:53:17 -3.2 C 43 %
1183 31-12-2019 05:03:17 -3.3 C 42 %
1184 31-12-2019 05:13:17 -3.6 C 42 %
1185 31-12-2019 05:23:17 -3.4 C 43 %
1186 31-12-2019 05:33:17 -3.1 C 44 %
1187 31-12-2019 05:43:17 -3 C 44 %
1188 31-12-2019 05:53:17 -2.9 C 44 %
1189 31-12-2019 06:03:17 -3.1 C 43 %
1190 31-12-2019 06:13:17 -3.3 C 43 %
1191 31-12-2019 06:23:17 -3.2 C 43 %
1192 31-12-2019 06:33:17 -3.3 C 43 %
1193 31-12-2019 06:43:17 -3.4 C 43 %
1194 31-12-2019 06:53:18 -3.2 C 44 %
1195 31-12-2019 07:03:17 -3.2 C 44 %
1196 31-12-2019 07:13:17 -3 C 44 %
1197 31-12-2019 07:23:17 -3.1 C 44 %
1198 31-12-2019 07:33:17 -3 C 44 %
1199 31-12-2019 07:43:17 -2.6 C 45 %
1200 31-12-2019 07:53:18 -2.1 C 45 %
Sensor: Nr:Datum:Temp:Feuchte:
Aussen-T/F 1201 31-12-2019 08:03:17 -2 C 45 %
1202 31-12-2019 08:13:17 -2 C 45 %
1203 31-12-2019 08:23:17 -1.3 C 45 %
1204 31-12-2019 08:33:17 -1 C 44 %
1205 31-12-2019 08:43:17 -1 C 43 %
1206 31-12-2019 08:53:17 -1.1 C 42 %
1207 31-12-2019 09:03:17 -1 C 43 %
1208 31-12-2019 09:13:17 -0.9 C 44 %
1209 31-12-2019 09:23:17 -1.1 C 42 %
1210 31-12-2019 09:33:17 -1.1 C 42 %
1211 31-12-2019 09:43:17 -1.1 C 42 %
1212 31-12-2019 09:53:17 -0.9 C 43 %
1213 31-12-2019 10:03:17 -0.6 C 44 %
1214 31-12-2019 10:13:17 -0.2 C 43 %
1215 31-12-2019 10:23:17 0.1 C 41 %
1216 31-12-2019 10:33:17 0.3 C 40 %
1217 31-12-2019 10:43:17 0.3 C 38 %
1218 31-12-2019 10:53:18 0.5 C 40 %
1219 31-12-2019 11:03:17 0.8 C 41 %
1220 31-12-2019 11:13:17 0.7 C 41 %
1221 31-12-2019 11:23:17 1.2 C 40 %
1222 31-12-2019 11:33:17 1.1 C 38 %
1223 31-12-2019 11:43:17 1.5 C 40 %
1224 31-12-2019 11:53:17 1.5 C 40 %
1225 31-12-2019 12:03:18 1.8 C 31 %
Sensor: Nr:Datum:Temp:Feuchte:
Aussen-T/F 1226 31-12-2019 12:13:18 2.4 C 35 %
1227 31-12-2019 12:23:17 2.6 C 33 %
1228 31-12-2019 12:33:18 2.4 C 32 %
1229 31-12-2019 12:43:18 2.8 C 30 %
1230 31-12-2019 12:53:17 2.3 C 29 %
1231 31-12-2019 13:03:18 2.4 C 28 %
1232 31-12-2019 13:13:18 2.4 C 27 %
1233 31-12-2019 13:23:17 2.8 C 27 %
1234 31-12-2019 13:33:17 2.8 C 26 %
1235 31-12-2019 13:43:17 3.3 C 26 %
1236 31-12-2019 13:53:17 2.9 C 26 %
1237 31-12-2019 14:03:18 2.7 C 27 %
1238 31-12-2019 14:13:18 2.9 C 27 %
1239 31-12-2019 14:23:17 3.1 C 26 %
1240 31-12-2019 14:33:17 3.4 C 26 %
1241 31-12-2019 14:43:17 3.2 C 26 %
1242 31-12-2019 14:53:17 3 C 26 %
1243 31-12-2019 15:03:17 2.8 C 27 %
1244 31-12-2019 15:13:17 2.9 C 27 %
1245 31-12-2019 15:23:18 3 C 27 %
1246 31-12-2019 15:33:17 3 C 27 %
1247 31-12-2019 15:43:17 2.9 C 28 %
1248 31-12-2019 15:53:17 2.7 C 29 %
1249 31-12-2019 16:03:17 2.1 C 30 %
1250 31-12-2019 16:13:17 0.9 C 35 %
Sensor: Nr:Datum:Temp:Feuchte:
Aussen-T/F 1251 31-12-2019 16:23:18 0.6 C 38 %
1252 31-12-2019 16:33:17 0.3 C 40 %
1253 31-12-2019 16:43:17 0.2 C 39 %
1254 31-12-2019 16:53:18 0.2 C 40 %
1255 31-12-2019 17:03:17 -0.1 C 41 %
1256 31-12-2019 17:13:17 -0.4 C 41 %
1257 31-12-2019 17:23:17 -0.3 C 40 %
1258 31-12-2019 17:33:17 -0.3 C 41 %
1259 31-12-2019 17:43:17 -0.6 C 43 %
1260 31-12-2019 17:53:18 -0.7 C 43 %
1261 31-12-2019 18:03:17 -1.1 C 43 %
1262 31-12-2019 18:13:17 -1.2 C 45 %
1263 31-12-2019 18:23:17 -0.9 C 45 %
1264 31-12-2019 18:33:17 -0.8 C 45 %
1265 31-12-2019 18:43:17 -0.4 C 46 %
1266 31-12-2019 18:53:18 -0.4 C 46 %
1267 31-12-2019 19:03:17 -0.3 C 45 %
1268 31-12-2019 19:13:17 -0.1 C 46 %
1269 31-12-2019 19:23:18 0 C 45 %
1270 31-12-2019 19:33:17 0.1 C 45 %
1271 31-12-2019 19:43:17 0.2 C 45 %
1272 31-12-2019 19:53:17 0.4 C 45 %
1273 31-12-2019 20:03:18 0.5 C 45 %
1274 31-12-2019 20:13:18 0.5 C 45 %
1275 31-12-2019 20:23:17 0.4 C 45 %
Sensor: Nr:Datum:Temp:Feuchte:
Aussen-T/F 1276 31-12-2019 20:33:17 0.4 C 45 %
1277 31-12-2019 20:43:17 0.3 C 43 %
1278 31-12-2019 20:53:17 0.2 C 43 %
1279 31-12-2019 21:03:17 0.2 C 43 %
1280 31-12-2019 21:13:17 0.4 C 44 %
1281 31-12-2019 21:23:18 0.4 C 44 %
1282 31-12-2019 21:33:17 0.5 C 44 %
1283 31-12-2019 21:43:17 0.6 C 43 %
1284 31-12-2019 21:53:17 0.5 C 43 %
1285 31-12-2019 22:03:17 0.6 C 42 %
1286 31-12-2019 22:13:17 0.5 C 42 %
1287 31-12-2019 22:23:18 0.2 C 41 %
1288 31-12-2019 22:33:17 0 C 41 %
1289 31-12-2019 22:43:17 -0.2 C 42 %
1290 31-12-2019 22:53:17 -0.4 C 43 %
1291 31-12-2019 23:03:17 -0.3 C 44 %
1292 31-12-2019 23:13:17 -0.1 C 45 %
1293 31-12-2019 23:23:18 0 C 45 %
1294 31-12-2019 23:33:17 0 C 45 %
1295 31-12-2019 23:43:17 0.4 C 45 %
1296 31-12-2019 23:53:18 0.3 C 45 %
1297 01-01-2020 00:03:17 0.4 C 45 %
1298 01-01-2020 00:13:17 0.4 C 45 %
1299 01-01-2020 00:23:17 0.3 C 45 %
1300 01-01-2020 00:33:17 -0.9 C 41 %
Sensor: Nr:Datum:Temp:Feuchte:
Aussen-T/F 1301 01-01-2020 00:43:17 -0.3 C 45 %
1302 01-01-2020 00:53:18 -0.5 C 44 %
1303 01-01-2020 01:03:17 -0.5 C 44 %
1304 01-01-2020 01:13:17 -0.6 C 44 %
1305 01-01-2020 01:23:17 -0.6 C 45 %
1306 01-01-2020 01:33:17 -0.7 C 45 %
1307 01-01-2020 01:43:17 -1.1 C 44 %
1308 01-01-2020 01:53:18 -0.9 C 45 %
1309 01-01-2020 02:03:17 -0.9 C 45 %
1310 01-01-2020 02:13:17 -0.5 C 46 %
1311 01-01-2020 02:23:17 -0.2 C 45 %
1312 01-01-2020 02:33:18 -0.1 C 45 %
1313 01-01-2020 02:43:18 0 C 45 %
1314 01-01-2020 02:53:17 0.1 C 45 %
1315 01-01-2020 03:03:17 0.1 C 45 %
1316 01-01-2020 03:13:18 0.1 C 45 %
1317 01-01-2020 03:23:17 0.2 C 45 %
1318 01-01-2020 03:33:18 0.1 C 45 %
1319 01-01-2020 03:43:18 0.1 C 45 %
1320 01-01-2020 03:53:17 0.1 C 45 %
1321 01-01-2020 04:03:18 0.2 C 45 %
1322 01-01-2020 04:13:18 0.2 C 45 %
1323 01-01-2020 04:23:17 0.3 C 45 %
1324 01-01-2020 04:33:18 0.3 C 45 %
1325 01-01-2020 04:43:18 0.3 C 44 %
Sensor: Nr:Datum:Temp:Feuchte:
Aussen-T/F 1326 01-01-2020 04:53:17 0.3 C 44 %
1327 01-01-2020 05:03:18 0.4 C 44 %
1328 01-01-2020 05:13:18 0.5 C 44 %
1329 01-01-2020 05:23:17 0.4 C 44 %
1330 01-01-2020 05:33:18 0.4 C 44 %
1331 01-01-2020 05:43:18 0.4 C 44 %
1332 01-01-2020 05:53:17 0.4 C 43 %
1333 01-01-2020 06:03:17 0.4 C 43 %
1334 01-01-2020 06:13:17 0.5 C 43 %
1335 01-01-2020 06:23:17 0.4 C 42 %
1336 01-01-2020 06:33:17 0.6 C 42 %
1337 01-01-2020 06:43:17 0.6 C 42 %
1338 01-01-2020 06:53:17 0.6 C 42 %
1339 01-01-2020 07:03:18 0.6 C 41 %
1340 01-01-2020 07:13:18 0.6 C 41 %
1341 01-01-2020 07:23:17 0.6 C 41 %
1342 01-01-2020 07:33:17 0.6 C 41 %
1343 01-01-2020 07:43:17 0.6 C 41 %
1344 01-01-2020 07:53:17 0.6 C 41 %
1345 01-01-2020 08:03:17 0.6 C 41 %
1346 01-01-2020 08:13:17 0.6 C 41 %
1347 01-01-2020 08:23:18 0.7 C 40 %
1348 01-01-2020 08:33:17 0.7 C 40 %
1349 01-01-2020 08:43:17 0.7 C 40 %
1350 01-01-2020 08:53:17 0.8 C 40 %
Sensor: Nr:Datum:Temp:Feuchte:
Aussen-T/F 1351 01-01-2020 09:03:17 0.8 C 40 %
1352 01-01-2020 09:13:17 1.1 C 38 %
1353 01-01-2020 09:23:17 1.3 C 38 %
1354 01-01-2020 09:33:17 1.4 C 37 %
1355 01-01-2020 09:43:17 1.5 C 37 %
1356 01-01-2020 09:53:17 1.7 C 36 %
1357 01-01-2020 10:03:18 1.9 C 36 %
1358 01-01-2020 10:13:18 2 C 34 %
1359 01-01-2020 10:23:17 2.1 C 33 %
1360 01-01-2020 10:33:17 2.2 C 32 %
1361 01-01-2020 10:43:17 2.3 C 32 %
1362 01-01-2020 10:53:17 2.4 C 32 %
1363 01-01-2020 11:03:17 2.4 C 31 %
1364 01-01-2020 11:13:17 2.7 C 31 %
1365 01-01-2020 11:23:18 2.7 C 30 %
1366 01-01-2020 11:33:17 2.7 C 30 %
1367 01-01-2020 11:43:17 2.8 C 30 %
1368 01-01-2020 11:53:18 2.9 C 30 %
1369 01-01-2020 12:03:17 3.2 C 28 %
1370 01-01-2020 12:13:17 3 C 29 %
1371 01-01-2020 12:23:18 2.7 C 30 %
1372 01-01-2020 12:33:17 2.7 C 30 %
1373 01-01-2020 12:43:17 2.5 C 30 %
1374 01-01-2020 12:53:18 2.1 C 32 %
1375 01-01-2020 13:03:17 1.6 C 36 %
Sensor: Nr:Datum:Temp:Feuchte:
Aussen-T/F 1376 01-01-2020 13:13:17 1.6 C 37 %
1377 01-01-2020 13:23:18 1.4 C 37 %
1378 01-01-2020 13:33:17 1.5 C 38 %
1379 01-01-2020 13:43:17 1.5 C 38 %
1380 01-01-2020 13:53:17 1.6 C 39 %
1381 01-01-2020 14:03:17 1.6 C 39 %
1382 01-01-2020 14:13:17 1.6 C 39 %
1383 01-01-2020 14:23:17 1.6 C 40 %
1384 01-01-2020 14:33:17 1.4 C 40 %
1385 01-01-2020 14:43:17 1.3 C 41 %
1386 01-01-2020 14:53:17 1.2 C 41 %
1387 01-01-2020 15:03:17 1.3 C 41 %
1388 01-01-2020 15:13:17 1.2 C 41 %
1389 01-01-2020 15:23:17 1.6 C 41 %
1390 01-01-2020 15:33:17 1.7 C 38 %
1391 01-01-2020 15:43:17 1.1 C 38 %
1392 01-01-2020 15:53:17 0.7 C 40 %
1393 01-01-2020 16:03:17 0.5 C 43 %
1394 01-01-2020 16:13:17 -0.1 C 43 %
1395 01-01-2020 16:23:17 -0.3 C 44 %
1396 01-01-2020 16:33:18 -0.7 C 44 %
1397 01-01-2020 16:43:18 -0.7 C 45 %
1398 01-01-2020 16:53:17 -0.8 C 45 %
1399 01-01-2020 17:03:17 -1 C 45 %
1400 01-01-2020 17:13:17 -1.3 C 45 %
Sensor: Nr:Datum:Temp:Feuchte:
Aussen-T/F 1401 01-01-2020 17:23:18 -1.5 C 45 %
1402 01-01-2020 17:33:17 -1.8 C 45 %
1403 01-01-2020 17:43:17 -1.9 C 45 %
1404 01-01-2020 17:53:18 -1.8 C 45 %
1405 01-01-2020 18:03:17 -1.9 C 45 %
1406 01-01-2020 18:13:17 -1.9 C 45 %
1407 01-01-2020 18:23:17 -2.1 C 45 %
1408 01-01-2020 18:33:17 -2.1 C 45 %
1409 01-01-2020 18:43:18 -2.1 C 45 %
1410 01-01-2020 18:53:17 -2.2 C 45 %
1411 01-01-2020 19:03:17 -2.4 C 45 %
1412 01-01-2020 19:13:18 -2.5 C 45 %
1413 01-01-2020 19:23:17 -2.4 C 45 %
1414 01-01-2020 19:33:17 -2.3 C 45 %
1415 01-01-2020 19:43:17 -2.2 C 45 %
1416 01-01-2020 19:53:17 -2.4 C 45 %
1417 01-01-2020 20:03:17 -2.2 C 45 %
1418 01-01-2020 20:13:17 -2.1 C 45 %
1419 01-01-2020 20:23:18 -2.3 C 45 %
1420 01-01-2020 20:33:17 -2.1 C 45 %
1421 01-01-2020 20:43:17 -2.6 C 43 %
1422 01-01-2020 20:53:17 -2.8 C 43 %
1423 01-01-2020 21:03:17 -2.8 C 43 %
1424 01-01-2020 21:13:17 -3 C 43 %
1425 01-01-2020 21:23:18 -3.1 C 43 %
Sensor: Nr:Datum:Temp:Feuchte:
Aussen-T/F 1426 01-01-2020 21:33:17 -3.1 C 43 %
1427 01-01-2020 21:43:17 -3.2 C 42 %
1428 01-01-2020 21:53:17 -2.8 C 43 %
1429 01-01-2020 22:03:17 -3.1 C 42 %
1430 01-01-2020 22:13:17 -3.2 C 42 %
1431 01-01-2020 22:23:17 -3 C 43 %
1432 01-01-2020 22:33:17 -2.8 C 43 %
1433 01-01-2020 22:43:17 -2.8 C 43 %
1434 01-01-2020 22:53:17 -3.2 C 42 %
1435 01-01-2020 23:03:17 -3.2 C 42 %
1436 01-01-2020 23:13:17 -2.7 C 44 %
1437 01-01-2020 23:23:17 -2.3 C 45 %
1438 01-01-2020 23:33:17 -2.4 C 44 %
1439 01-01-2020 23:43:17 -2.2 C 45 %
1440 01-01-2020 23:53:17 -2.2 C 45 %
1441 02-01-2020 00:03:17 -2.3 C 44 %
1442 02-01-2020 00:13:17 -2.4 C 44 %
1443 02-01-2020 00:23:17 -2.6 C 43 %
1444 02-01-2020 00:33:17 -2.4 C 43 %
1445 02-01-2020 00:43:17 -2.4 C 44 %
1446 02-01-2020 00:53:17 -2.6 C 43 %
1447 02-01-2020 01:03:17 -2.3 C 44 %
1448 02-01-2020 01:13:17 -2.1 C 45 %
1449 02-01-2020 01:23:17 -1.9 C 45 %
1450 02-01-2020 01:33:17 -1.9 C 45 %
Sensor: Nr:Datum:Temp:Feuchte:
Aussen-T/F 1451 02-01-2020 01:43:17 -1.8 C 45 %
1452 02-01-2020 01:53:17 -1.7 C 45 %
1453 02-01-2020 02:03:17 -1.6 C 45 %
1454 02-01-2020 02:13:17 -1.5 C 45 %
1455 02-01-2020 02:23:17 -1.4 C 45 %
1456 02-01-2020 02:33:17 -1.3 C 45 %
1457 02-01-2020 02:43:17 -1.3 C 45 %
1458 02-01-2020 02:53:17 -1.3 C 45 %
1459 02-01-2020 03:03:17 -1.2 C 45 %
1460 02-01-2020 03:13:18 -1.1 C 45 %
1461 02-01-2020 03:23:17 -1.1 C 45 %
1462 02-01-2020 03:33:18 -1 C 45 %
1463 02-01-2020 03:43:18 -0.9 C 45 %
1464 02-01-2020 03:53:17 -0.9 C 45 %
1465 02-01-2020 04:03:18 -0.8 C 45 %
1466 02-01-2020 04:13:18 -0.7 C 45 %
1467 02-01-2020 04:23:17 -0.7 C 45 %
1468 02-01-2020 04:33:17 -0.7 C 45 %
1469 02-01-2020 04:43:17 -0.7 C 45 %
1470 02-01-2020 04:53:17 -0.8 C 45 %
1471 02-01-2020 05:03:17 -0.9 C 45 %
1472 02-01-2020 05:13:17 -0.9 C 45 %
1473 02-01-2020 05:23:18 -0.9 C 45 %
1474 02-01-2020 05:33:17 -0.9 C 45 %
1475 02-01-2020 05:43:17 -0.8 C 44 %
Sensor: Nr:Datum:Temp:Feuchte:
Aussen-T/F 1476 02-01-2020 05:53:18 -0.8 C 44 %
1477 02-01-2020 06:03:17 -0.9 C 44 %
1478 02-01-2020 06:13:17 -0.9 C 43 %
1479 02-01-2020 06:23:17 -0.9 C 43 %
1480 02-01-2020 06:33:18 -0.7 C 42 %
1481 02-01-2020 06:43:18 -0.7 C 41 %
1482 02-01-2020 06:53:17 -0.7 C 40 %
1483 02-01-2020 07:03:18 -0.7 C 40 %
1484 02-01-2020 07:13:18 -0.7 C 40 %
1485 02-01-2020 07:23:17 -0.7 C 39 %
1486 02-01-2020 07:33:17 -0.7 C 39 %
1487 02-01-2020 07:43:17 -0.7 C 40 %
1488 02-01-2020 07:53:17 -0.6 C 41 %
1489 02-01-2020 08:03:18 -0.6 C 41 %
1490 02-01-2020 08:13:18 -0.5 C 41 %
1491 02-01-2020 08:23:17 -0.4 C 41 %
1492 02-01-2020 08:33:17 -0.3 C 40 %
1493 02-01-2020 08:43:17 -0.3 C 41 %
1494 02-01-2020 08:53:17 -0.2 C 42 %
1495 02-01-2020 09:03:17 -0.1 C 42 %
1496 02-01-2020 09:13:17 0.1 C 42 %
1497 02-01-2020 09:23:17 0.1 C 40 %
1498 02-01-2020 09:33:18 0.4 C 38 %
1499 02-01-2020 09:43:18 0.5 C 37 %
1500 02-01-2020 09:53:17 0.4 C 39 %
Sensor: Nr:Datum:Temp:Feuchte:
Aussen-T/F 1501 02-01-2020 10:03:17 0.4 C 40 %
1502 02-01-2020 10:13:18 0.7 C 41 %
1503 02-01-2020 10:23:17 1.1 C 42 %
1504 02-01-2020 10:33:18 1.1 C 39 %
1505 02-01-2020 10:43:18 1.3 C 39 %
1506 02-01-2020 10:53:17 1.5 C 38 %
1507 02-01-2020 11:03:18 1.7 C 38 %
1508 02-01-2020 11:13:18 1.6 C 35 %
1509 02-01-2020 11:23:17 1.9 C 37 %
1510 02-01-2020 11:33:17 2.1 C 36 %
1511 02-01-2020 11:43:17 2.1 C 35 %
1512 02-01-2020 11:53:17 2.1 C 34 %
1513 02-01-2020 12:03:17 2.2 C 34 %
1514 02-01-2020 12:13:17 2.3 C 35 %
1515 02-01-2020 12:23:17 2.3 C 35 %
1516 02-01-2020 12:33:17 2.6 C 34 %
1517 02-01-2020 12:43:17 3 C 35 %
1518 02-01-2020 12:53:17 2.8 C 32 %
1519 02-01-2020 13:03:17 2.9 C 31 %
1520 02-01-2020 13:13:17 3.1 C 30 %
1521 02-01-2020 13:23:17 3.3 C 29 %
1522 02-01-2020 13:33:17 3.6 C 29 %
1523 02-01-2020 13:43:17 3.3 C 29 %
1524 02-01-2020 13:53:18 3.1 C 30 %
1525 02-01-2020 14:03:17 3.4 C 30 %
Sensor: Nr:Datum:Temp:Feuchte:
Aussen-T/F 1526 02-01-2020 14:13:17 3.4 C 30 %
1527 02-01-2020 14:23:18 3.5 C 30 %
1528 02-01-2020 14:33:17 3.4 C 30 %
1529 02-01-2020 14:43:17 3.7 C 30 %
1530 02-01-2020 14:53:17 3.4 C 30 %
1531 02-01-2020 15:03:17 3.1 C 31 %
1532 02-01-2020 15:13:17 3 C 31 %
1533 02-01-2020 15:23:18 2.7 C 32 %
1534 02-01-2020 15:33:17 2.5 C 33 %
1535 02-01-2020 15:43:17 2.5 C 34 %
1536 02-01-2020 15:53:17 2.4 C 35 %
1537 02-01-2020 16:03:17 2.4 C 35 %
1538 02-01-2020 16:13:17 2.3 C 35 %
1539 02-01-2020 16:23:18 2.2 C 36 %
1540 02-01-2020 16:33:17 2.2 C 37 %
1541 02-01-2020 16:43:17 2.3 C 37 %
1542 02-01-2020 16:53:17 2.2 C 37 %
1543 02-01-2020 17:03:17 2.1 C 38 %
1544 02-01-2020 17:13:17 2 C 38 %
1545 02-01-2020 17:23:18 2.1 C 40 %
1546 02-01-2020 17:33:17 2.1 C 40 %
1547 02-01-2020 17:43:17 2.1 C 40 %
1548 02-01-2020 17:53:17 2.1 C 40 %
1549 02-01-2020 18:03:17 2.1 C 40 %
1550 02-01-2020 18:13:17 2.1 C 40 %
Sensor: Nr:Datum:Temp:Feuchte:
Aussen-T/F 1551 02-01-2020 18:23:17 2.1 C 40 %
1552 02-01-2020 18:33:17 2.1 C 40 %
1553 02-01-2020 18:43:18 2.2 C 39 %
1554 02-01-2020 18:53:17 2.3 C 40 %
1555 02-01-2020 19:03:17 2.2 C 40 %
1556 02-01-2020 19:13:18 2.2 C 40 %
1557 02-01-2020 19:23:17 2.3 C 40 %
1558 02-01-2020 19:33:17 2.3 C 40 %
1559 02-01-2020 19:43:18 2.3 C 40 %
1560 02-01-2020 19:53:17 2.3 C 40 %
1561 02-01-2020 20:03:18 2.3 C 40 %
1562 02-01-2020 20:13:18 2.4 C 40 %
1563 02-01-2020 20:23:17 2.5 C 40 %
1564 02-01-2020 20:33:17 2.6 C 40 %
1565 02-01-2020 20:43:17 2.6 C 40 %
1566 02-01-2020 20:53:17 2.5 C 39 %
1567 02-01-2020 21:03:18 2.5 C 40 %
1568 02-01-2020 21:13:18 2.5 C 40 %
1569 02-01-2020 21:23:17 2.5 C 40 %
1570 02-01-2020 21:33:18 2.5 C 40 %
1571 02-01-2020 21:43:18 2.3 C 40 %
1572 02-01-2020 21:53:17 1.9 C 42 %
1573 02-01-2020 22:03:17 2.3 C 43 %
1574 02-01-2020 22:13:17 2.4 C 43 %
1575 02-01-2020 22:23:17 2.5 C 43 %
Sensor: Nr:Datum:Temp:Feuchte:
Aussen-T/F 1576 02-01-2020 22:33:17 2.6 C 43 %
1577 02-01-2020 22:43:18 2.7 C 43 %
1578 02-01-2020 22:53:17 2.7 C 42 %
1579 02-01-2020 23:03:17 2.8 C 42 %
1580 02-01-2020 23:13:17 2.8 C 42 %
1581 02-01-2020 23:23:17 2.8 C 41 %
1582 02-01-2020 23:33:18 2.8 C 42 %
1583 02-01-2020 23:43:18 2.9 C 42 %
1584 02-01-2020 23:53:17 2.8 C 41 %
1585 03-01-2020 00:03:18 2.9 C 42 %
1586 03-01-2020 00:13:18 3 C 41 %
1587 03-01-2020 00:23:17 3.1 C 41 %
1588 03-01-2020 00:33:17 3.2 C 41 %
1589 03-01-2020 00:43:17 3.2 C 41 %
1590 03-01-2020 00:53:17 3.4 C 42 %
1591 03-01-2020 01:03:17 3.4 C 42 %
1592 03-01-2020 01:13:17 3.5 C 42 %
1593 03-01-2020 01:23:18 3.5 C 42 %
1594 03-01-2020 01:33:17 3.5 C 42 %
1595 03-01-2020 01:43:17 3.6 C 42 %
1596 03-01-2020 01:53:18 3.6 C 42 %
1597 03-01-2020 02:03:17 3.7 C 42 %
1598 03-01-2020 02:13:17 3.7 C 42 %
1599 03-01-2020 02:23:17 3.9 C 42 %
1600 03-01-2020 02:33:17 3.7 C 42 %
Sensor: Nr:Datum:Temp:Feuchte:
Aussen-T/F 1601 03-01-2020 02:43:18 3.7 C 43 %
1602 03-01-2020 02:53:17 3.9 C 44 %
1603 03-01-2020 03:03:17 3.8 C 44 %
1604 03-01-2020 03:13:17 3.8 C 44 %
1605 03-01-2020 03:23:17 3.8 C 44 %
1606 03-01-2020 03:33:17 3.9 C 44 %
1607 03-01-2020 03:43:17 3.9 C 44 %
1608 03-01-2020 03:53:18 3.9 C 44 %
1609 03-01-2020 04:03:17 4 C 43 %
1610 03-01-2020 04:13:17 4 C 43 %
1611 03-01-2020 04:23:18 4 C 42 %
1612 03-01-2020 04:33:17 4.1 C 42 %
1613 03-01-2020 04:43:17 4.1 C 42 %
1614 03-01-2020 04:53:17 4.2 C 42 %
1615 03-01-2020 05:03:17 4.2 C 41 %
1616 03-01-2020 05:13:17 4.3 C 40 %
1617 03-01-2020 05:23:17 4.3 C 40 %
1618 03-01-2020 05:33:17 4.4 C 40 %
1619 03-01-2020 05:43:17 4.4 C 40 %
1620 03-01-2020 05:53:17 4.4 C 40 %
1621 03-01-2020 06:03:17 4.4 C 40 %
1622 03-01-2020 06:13:17 4.4 C 40 %
1623 03-01-2020 06:23:18 4.4 C 40 %
1624 03-01-2020 06:33:17 4.7 C 40 %
1625 03-01-2020 06:43:17 5.3 C 40 %
Sensor: Nr:Datum:Temp:Feuchte:
Aussen-T/F 1626 03-01-2020 06:53:18 6.7 C 34 %
1627 03-01-2020 07:03:18 7.1 C 31 %
1628 03-01-2020 07:13:18 7.7 C 30 %
1629 03-01-2020 07:23:17 8 C 29 %
1630 03-01-2020 07:33:17 7.9 C 30 %
1631 03-01-2020 07:43:17 7.8 C 30 %
1632 03-01-2020 07:53:17 7.9 C 29 %
1633 03-01-2020 08:03:18 7.9 C 30 %
1634 03-01-2020 08:13:18 8 C 29 %
1635 03-01-2020 08:23:17 7.9 C 29 %
1636 03-01-2020 08:33:18 7.8 C 29 %
1637 03-01-2020 08:43:18 7.9 C 29 %
1638 03-01-2020 08:53:17 8 C 29 %
1639 03-01-2020 09:03:17 8.2 C 28 %
1640 03-01-2020 09:13:17 8.2 C 28 %
1641 03-01-2020 09:23:17 8.2 C 28 %
1642 03-01-2020 09:33:17 8.4 C 28 %
1643 03-01-2020 09:43:17 8.4 C 27 %
1644 03-01-2020 09:53:17 8.4 C 27 %
1645 03-01-2020 10:03:17 8.6 C 27 %
1646 03-01-2020 10:13:17 8.6 C 27 %
1647 03-01-2020 10:23:17 8.6 C 27 %
1648 03-01-2020 10:33:17 8.6 C 27 %
1649 03-01-2020 10:43:18 8.6 C 27 %
1650 03-01-2020 10:53:17 8.6 C 27 %
Sensor: Nr:Datum:Temp:Feuchte:
Aussen-T/F 1651 03-01-2020 11:03:18 8.3 C 27 %
1652 03-01-2020 11:13:18 8.5 C 27 %
1653 03-01-2020 11:23:18 8.6 C 27 %
1654 03-01-2020 11:33:17 8.9 C 27 %
1655 03-01-2020 11:43:17 8.9 C 27 %
1656 03-01-2020 11:53:17 8.7 C 27 %
1657 03-01-2020 12:03:17 8.6 C 27 %
1658 03-01-2020 12:13:17 8.4 C 27 %
1659 03-01-2020 12:23:17 8.6 C 27 %
1660 03-01-2020 12:33:17 8.7 C 27 %
1661 03-01-2020 12:43:17 8.5 C 27 %
1662 03-01-2020 12:53:17 8.6 C 27 %
1663 03-01-2020 13:03:17 8.5 C 27 %
1664 03-01-2020 13:13:18 8.5 C 28 %
1665 03-01-2020 13:23:17 8.6 C 28 %
1666 03-01-2020 13:33:17 8.8 C 27 %
1667 03-01-2020 13:43:18 8.8 C 28 %
1668 03-01-2020 13:53:17 8.7 C 28 %
1669 03-01-2020 14:03:17 8.7 C 28 %
1670 03-01-2020 14:13:17 8.5 C 28 %
1671 03-01-2020 14:23:18 8.5 C 29 %
1672 03-01-2020 14:33:17 8.5 C 29 %
1673 03-01-2020 14:43:17 8.5 C 29 %
1674 03-01-2020 14:53:17 8.5 C 30 %
1675 03-01-2020 15:03:17 9 C 28 %
Sensor: Nr:Datum:Temp:Feuchte:
Aussen-T/F 1676 03-01-2020 15:13:17 9 C 28 %
1677 03-01-2020 15:23:17 9 C 28 %
1678 03-01-2020 15:33:17 9.1 C 28 %
1679 03-01-2020 15:43:18 9.2 C 28 %
1680 03-01-2020 15:53:17 9 C 28 %
1681 03-01-2020 16:03:17 9 C 28 %
1682 03-01-2020 16:13:17 9 C 29 %
1683 03-01-2020 16:23:17 8.9 C 30 %
1684 03-01-2020 16:33:17 9 C 29 %
1685 03-01-2020 16:43:17 9 C 29 %
1686 03-01-2020 16:53:17 9 C 29 %
1687 03-01-2020 17:03:17 8.6 C 31 %
1688 03-01-2020 17:13:17 8.6 C 31 %
1689 03-01-2020 17:23:17 8.9 C 31 %
1690 03-01-2020 17:33:17 8.8 C 30 %
1691 03-01-2020 17:43:17 8.9 C 30 %
1692 03-01-2020 17:53:17 9 C 30 %
1693 03-01-2020 18:03:17 9 C 30 %
1694 03-01-2020 18:13:18 9.1 C 30 %
1695 03-01-2020 18:23:18 9.3 C 30 %
1696 03-01-2020 18:33:18 9.3 C 30 %
1697 03-01-2020 18:43:18 9.2 C 30 %
1698 03-01-2020 18:53:17 9.3 C 30 %
1699 03-01-2020 19:03:18 9.2 C 30 %
1700 03-01-2020 19:13:18 8.9 C 32 %
Sensor: Nr:Datum:Temp:Feuchte:
Aussen-T/F 1701 03-01-2020 19:23:17 8.9 C 32 %
1702 03-01-2020 19:33:17 9.2 C 31 %
1703 03-01-2020 19:43:17 9.3 C 31 %
1704 03-01-2020 19:53:17 9.2 C 31 %
1705 03-01-2020 20:03:18 9 C 31 %
1706 03-01-2020 20:13:18 8.9 C 35 %
1707 03-01-2020 20:23:17 8.9 C 35 %
1708 03-01-2020 20:33:17 8.8 C 35 %
1709 03-01-2020 20:43:17 8.7 C 36 %
1710 03-01-2020 20:53:18 8.6 C 39 %
1711 03-01-2020 21:03:17 8.2 C 37 %
1712 03-01-2020 21:13:17 7.8 C 35 %
1713 03-01-2020 21:23:17 7.5 C 35 %
1714 03-01-2020 21:33:18 7.4 C 36 %
1715 03-01-2020 21:43:18 7.2 C 35 %
1716 03-01-2020 21:53:17 6.8 C 35 %
1717 03-01-2020 22:03:18 6.8 C 34 %
1718 03-01-2020 22:13:18 6.7 C 35 %
1719 03-01-2020 22:23:17 6.5 C 33 %
1720 03-01-2020 22:33:17 6.4 C 34 %
1721 03-01-2020 22:43:17 6 C 33 %
1722 03-01-2020 22:53:17 6 C 34 %
1723 03-01-2020 23:03:17 5.7 C 35 %
1724 03-01-2020 23:13:17 5.9 C 34 %
1725 03-01-2020 23:23:17 5.8 C 35 %
Sensor: Nr:Datum:Temp:Feuchte:
Aussen-T/F 1726 03-01-2020 23:33:17 5.8 C 33 %
1727 03-01-2020 23:43:17 5.7 C 35 %
1728 03-01-2020 23:53:17 5.8 C 35 %
1729 04-01-2020 00:03:18 5.7 C 35 %
1730 04-01-2020 00:13:18 5.6 C 35 %
1731 04-01-2020 00:23:17 5.4 C 35 %
1732 04-01-2020 00:33:17 5.6 C 33 %
1733 04-01-2020 00:43:17 5.6 C 33 %
1734 04-01-2020 00:53:17 5.4 C 34 %
1735 04-01-2020 01:03:17 5.3 C 34 %
1736 04-01-2020 01:13:17 4.6 C 36 %
1737 04-01-2020 01:23:17 4.6 C 36 %
1738 04-01-2020 01:33:17 4.6 C 36 %
1739 04-01-2020 01:43:17 3.6 C 37 %
1740 04-01-2020 01:53:18 3.6 C 41 %
1741 04-01-2020 02:03:17 3.5 C 41 %
1742 04-01-2020 02:13:17 3.9 C 37 %
1743 04-01-2020 02:23:17 3.8 C 35 %
1744 04-01-2020 02:33:17 3.5 C 37 %
1745 04-01-2020 02:43:17 3.4 C 40 %
1746 04-01-2020 02:53:17 3.8 C 39 %
1747 04-01-2020 03:03:18 3.7 C 39 %
1748 04-01-2020 03:13:18 3.9 C 40 %
1749 04-01-2020 03:23:17 3.3 C 39 %
1750 04-01-2020 03:33:17 3 C 41 %
Sensor: Nr:Datum:Temp:Feuchte:
Aussen-T/F 1751 04-01-2020 03:43:17 3.4 C 42 %
1752 04-01-2020 03:53:17 3.7 C 36 %
1753 04-01-2020 04:03:17 3.7 C 35 %
1754 04-01-2020 04:13:17 3.4 C 35 %
1755 04-01-2020 04:23:17 3.3 C 36 %
1756 04-01-2020 04:33:17 3.1 C 37 %
1757 04-01-2020 04:43:17 2.8 C 38 %
1758 04-01-2020 04:53:17 2.6 C 39 %
1759 04-01-2020 05:03:17 2.9 C 40 %
1760 04-01-2020 05:13:17 2.4 C 38 %
1761 04-01-2020 05:23:17 2.5 C 40 %
1762 04-01-2020 05:33:17 1.8 C 40 %
1763 04-01-2020 05:43:18 2 C 41 %
1764 04-01-2020 05:53:17 2.3 C 40 %
1765 04-01-2020 06:03:17 2.2 C 39 %
1766 04-01-2020 06:13:17 2.8 C 36 %
1767 04-01-2020 06:23:17 2.6 C 35 %
1768 04-01-2020 06:33:17 2.4 C 37 %
1769 04-01-2020 06:43:17 2.7 C 37 %
1770 04-01-2020 06:53:17 2.7 C 34 %
1771 04-01-2020 07:03:17 2.7 C 34 %
1772 04-01-2020 07:13:17 2.5 C 34 %
1773 04-01-2020 07:23:17 2.5 C 34 %
1774 04-01-2020 07:33:17 2 C 36 %
1775 04-01-2020 07:43:17 2 C 36 %
Sensor: Nr:Datum:Temp:Feuchte:
Aussen-T/F 1776 04-01-2020 07:53:17 2.1 C 37 %
1777 04-01-2020 08:03:17 1.7 C 39 %
1778 04-01-2020 08:13:17 1.6 C 41 %
1779 04-01-2020 08:23:17 1.3 C 41 %
1780 04-01-2020 08:33:17 1.2 C 43 %
1781 04-01-2020 08:43:17 1.3 C 42 %
1782 04-01-2020 08:53:17 1.2 C 41 %
1783 04-01-2020 09:03:17 1 C 41 %
1784 04-01-2020 09:13:17 0.8 C 44 %
1785 04-01-2020 09:23:17 1 C 44 %
1786 04-01-2020 09:33:18 1.4 C 45 %
1787 04-01-2020 09:43:18 1.7 C 44 %
1788 04-01-2020 09:53:17 1.9 C 41 %
1789 04-01-2020 10:03:18 2.1 C 39 %
1790 04-01-2020 10:13:18 2.3 C 38 %
1791 04-01-2020 10:23:17 3.1 C 35 %
1792 04-01-2020 10:33:17 3.6 C 33 %
1793 04-01-2020 10:43:17 5.1 C 27 %
1794 04-01-2020 10:53:17 5.1 C 27 %
1795 04-01-2020 11:03:17 5.4 C 27 %
1796 04-01-2020 11:13:17 5.4 C 27 %
1797 04-01-2020 11:23:17 5.6 C 27 %
1798 04-01-2020 11:33:17 5.6 C 27 %
1799 04-01-2020 11:43:17 5.6 C 26 %
1800 04-01-2020 11:53:17 5.8 C 26 %
Sensor: Nr:Datum:Temp:Feuchte:
Aussen-T/F 1801 04-01-2020 12:03:17 5.9 C 26 %
1802 04-01-2020 12:13:18 6 C 26 %
1803 04-01-2020 12:23:17 6.2 C 26 %
1804 04-01-2020 12:33:17 6.2 C 26 %
1805 04-01-2020 12:43:17 6.3 C 26 %
1806 04-01-2020 12:53:17 6.5 C 26 %
1807 04-01-2020 13:03:17 6.7 C 26 %
1808 04-01-2020 13:13:17 6.7 C 26 %
1809 04-01-2020 13:23:17 6.7 C 26 %
1810 04-01-2020 13:33:17 6.8 C 25 %
1811 04-01-2020 13:43:17 7 C 25 %
1812 04-01-2020 13:53:18 7 C 25 %
1813 04-01-2020 14:03:18 7 C 25 %
1814 04-01-2020 14:13:18 7 C 25 %
1815 04-01-2020 14:23:18 7.1 C 25 %
1816 04-01-2020 14:33:17 7.1 C 25 %
1817 04-01-2020 14:43:18 7 C 25 %
1818 04-01-2020 14:53:17 7 C 25 %
1819 04-01-2020 15:03:17 7.1 C 25 %
1820 04-01-2020 15:13:17 7 C 25 %
1821 04-01-2020 15:23:17 7 C 25 %
1822 04-01-2020 15:33:18 7 C 25 %
1823 04-01-2020 15:43:18 7 C 25 %
1824 04-01-2020 15:53:18 6.9 C 25 %
1825 04-01-2020 16:03:17 6.9 C 25 %
Sensor: Nr:Datum:Temp:Feuchte:
Aussen-T/F 1826 04-01-2020 16:13:18 6.9 C 25 %
1827 04-01-2020 16:23:17 6.9 C 25 %
1828 04-01-2020 16:33:17 6.8 C 25 %
1829 04-01-2020 16:43:17 6.8 C 25 %
1830 04-01-2020 16:53:17 6.8 C 25 %
1831 04-01-2020 17:03:17 6.8 C 25 %
1832 04-01-2020 17:13:17 6.8 C 25 %
1833 04-01-2020 17:23:17 6.7 C 25 %
1834 04-01-2020 17:33:18 6.7 C 25 %
1835 04-01-2020 17:43:18 6.6 C 25 %
1836 04-01-2020 17:53:17 6.6 C 25 %
1837 04-01-2020 18:03:17 6.7 C 25 %
1838 04-01-2020 18:13:17 6.6 C 25 %
1839 04-01-2020 18:23:17 6.8 C 25 %
1840 04-01-2020 18:33:17 6.7 C 25 %
1841 04-01-2020 18:43:17 6.6 C 25 %
1842 04-01-2020 18:53:17 6.5 C 25 %
1843 04-01-2020 19:03:17 6.6 C 25 %
1844 04-01-2020 19:13:17 6.7 C 25 %
1845 04-01-2020 19:23:17 6.5 C 26 %
1846 04-01-2020 19:33:17 6 C 27 %
1847 04-01-2020 19:43:17 5.8 C 30 %
1848 04-01-2020 19:53:17 5.6 C 30 %
1849 04-01-2020 20:03:17 5.5 C 31 %
1850 04-01-2020 20:13:17 5.6 C 31 %
Sensor: Nr:Datum:Temp:Feuchte:
Aussen-T/F 1851 04-01-2020 20:23:18 5.7 C 30 %
1852 04-01-2020 20:33:18 5.8 C 30 %
1853 04-01-2020 20:43:18 6 C 29 %
1854 04-01-2020 20:53:17 6.1 C 29 %
1855 04-01-2020 21:03:17 5.8 C 30 %
1856 04-01-2020 21:13:17 5.5 C 33 %
1857 04-01-2020 21:23:17 5.3 C 35 %
1858 04-01-2020 21:33:17 5.3 C 38 %
1859 04-01-2020 21:43:17 5.2 C 37 %
1860 04-01-2020 21:53:18 5.3 C 40 %
1861 04-01-2020 22:03:17 5.3 C 40 %
1862 04-01-2020 22:13:17 5.3 C 39 %
1863 04-01-2020 22:23:17 5.3 C 37 %
1864 04-01-2020 22:33:17 5.4 C 37 %
1865 04-01-2020 22:43:17 5.4 C 37 %
1866 04-01-2020 22:53:17 5.4 C 36 %
1867 04-01-2020 23:03:17 5.5 C 35 %
1868 04-01-2020 23:13:17 5.6 C 35 %
1869 04-01-2020 23:23:17 5.6 C 34 %
1870 04-01-2020 23:33:18 5.6 C 35 %
1871 04-01-2020 23:43:18 5.7 C 34 %
1872 04-01-2020 23:53:17 5.6 C 35 %
1873 05-01-2020 00:03:17 5.6 C 33 %
1874 05-01-2020 00:13:17 5.5 C 35 %
1875 05-01-2020 00:23:17 5.4 C 35 %
Sensor: Nr:Datum:Temp:Feuchte:
Aussen-T/F 1876 05-01-2020 00:33:18 5.4 C 35 %
1877 05-01-2020 00:43:18 5.3 C 36 %
1878 05-01-2020 00:53:17 5.3 C 36 %
1879 05-01-2020 01:03:17 5.1 C 37 %
1880 05-01-2020 01:13:17 5 C 40 %
1881 05-01-2020 01:23:17 4.9 C 42 %
1882 05-01-2020 01:33:17 4.8 C 41 %
1883 05-01-2020 01:43:18 4.8 C 42 %
1884 05-01-2020 01:53:17 4.7 C 42 %
1885 05-01-2020 02:03:18 4.8 C 41 %
1886 05-01-2020 02:13:18 4.7 C 41 %
1887 05-01-2020 02:23:17 4.6 C 43 %
1888 05-01-2020 02:33:17 4.5 C 44 %
1889 05-01-2020 02:43:17 4.6 C 44 %
1890 05-01-2020 02:53:17 4.6 C 42 %
1891 05-01-2020 03:03:17 4.6 C 42 %
1892 05-01-2020 03:13:17 4.6 C 41 %
1893 05-01-2020 03:23:17 4.3 C 42 %
1894 05-01-2020 03:33:17 4.3 C 43 %
1895 05-01-2020 03:43:17 4.4 C 44 %
1896 05-01-2020 03:53:17 4.5 C 44 %
1897 05-01-2020 04:03:17 4.4 C 43 %
1898 05-01-2020 04:13:17 4.4 C 43 %
1899 05-01-2020 04:23:17 4.3 C 42 %
1900 05-01-2020 04:33:17 4.3 C 43 %
Sensor: Nr:Datum:Temp:Feuchte:
Aussen-T/F 1901 05-01-2020 04:43:17 4.4 C 43 %
1902 05-01-2020 04:53:17 4.4 C 42 %
1903 05-01-2020 05:03:17 4.4 C 42 %
1904 05-01-2020 05:13:17 4.4 C 42 %
1905 05-01-2020 05:23:17 4.4 C 42 %
1906 05-01-2020 05:33:18 4.5 C 43 %
1907 05-01-2020 05:43:18 4.6 C 43 %
1908 05-01-2020 05:53:17 4.5 C 43 %
1909 05-01-2020 06:03:17 4.6 C 43 %
1910 05-01-2020 06:13:17 4.6 C 43 %
1911 05-01-2020 06:23:17 4.6 C 42 %
1912 05-01-2020 06:33:17 4.7 C 41 %
1913 05-01-2020 06:43:17 4.7 C 40 %
1914 05-01-2020 06:53:17 4.6 C 41 %
1915 05-01-2020 07:03:17 4.6 C 41 %
1916 05-01-2020 07:13:17 4.6 C 42 %
1917 05-01-2020 07:23:17 4.5 C 42 %
1918 05-01-2020 07:33:17 4.5 C 41 %
1919 05-01-2020 07:43:17 4.4 C 41 %
1920 05-01-2020 07:53:17 4.4 C 41 %
1921 05-01-2020 08:03:18 4.3 C 42 %
1922 05-01-2020 08:13:18 4.3 C 42 %
1923 05-01-2020 08:23:17 4.3 C 41 %
1924 05-01-2020 08:33:17 4.4 C 42 %
1925 05-01-2020 08:43:17 4.4 C 41 %
Sensor: Nr:Datum:Temp:Feuchte:
Aussen-T/F 1926 05-01-2020 08:53:17 4.6 C 40 %
1927 05-01-2020 09:03:18 4.6 C 39 %
1928 05-01-2020 09:13:18 4.6 C 40 %
1929 05-01-2020 09:23:17 4.7 C 38 %
1930 05-01-2020 09:33:18 4.8 C 38 %
1931 05-01-2020 09:43:18 5 C 36 %
1932 05-01-2020 09:53:17 5.1 C 35 %
1933 05-01-2020 10:03:17 5.3 C 35 %
1934 05-01-2020 10:13:18 5.4 C 34 %
1935 05-01-2020 10:23:18 5.4 C 34 %
1936 05-01-2020 10:33:18 5.5 C 33 %
1937 05-01-2020 10:43:18 5.5 C 33 %
1938 05-01-2020 10:53:17 5.5 C 34 %
1939 05-01-2020 11:03:17 5.7 C 34 %
1940 05-01-2020 11:13:17 5.7 C 33 %
1941 05-01-2020 11:23:17 5.7 C 33 %
1942 05-01-2020 11:33:17 5.9 C 32 %
1943 05-01-2020 11:43:17 5.9 C 32 %
1944 05-01-2020 11:53:17 6 C 32 %
1945 05-01-2020 12:03:17 6 C 31 %
1946 05-01-2020 12:13:17 6 C 31 %
1947 05-01-2020 12:23:17 6.1 C 31 %
1948 05-01-2020 12:33:17 6.2 C 31 %
1949 05-01-2020 12:43:17 6.2 C 31 %
1950 05-01-2020 12:53:17 6.2 C 31 %
Sensor: Nr:Datum:Temp:Feuchte:
Aussen-T/F 1951 05-01-2020 13:03:17 6.3 C 31 %
1952 05-01-2020 13:13:17 6.5 C 30 %
1953 05-01-2020 13:23:17 6.5 C 30 %
1954 05-01-2020 13:33:18 6.5 C 30 %
1955 05-01-2020 13:43:18 6.6 C 30 %
1956 05-01-2020 13:53:18 6.6 C 30 %
1957 05-01-2020 14:03:18 6.7 C 30 %
1958 05-01-2020 14:13:18 6.6 C 30 %
1959 05-01-2020 14:23:18 6.7 C 30 %
1960 05-01-2020 14:33:18 6.7 C 30 %
1961 05-01-2020 14:43:18 6.7 C 30 %
1962 05-01-2020 14:53:17 6.7 C 30 %
1963 05-01-2020 15:03:18 6.6 C 30 %
1964 05-01-2020 15:13:18 6.6 C 30 %
1965 05-01-2020 15:23:18 6.5 C 31 %
1966 05-01-2020 15:33:18 6.3 C 33 %
1967 05-01-2020 15:43:18 6.1 C 34 %
1968 05-01-2020 15:53:18 6 C 35 %
1969 05-01-2020 16:03:18 6 C 35 %
1970 05-01-2020 16:13:18 5.9 C 36 %
1971 05-01-2020 16:23:17 5.8 C 36 %
1972 05-01-2020 16:33:17 5.7 C 36 %
1973 05-01-2020 16:43:17 5.7 C 35 %
1974 05-01-2020 16:53:18 5.6 C 36 %
1975 05-01-2020 17:03:18 5.6 C 35 %
Sensor: Nr:Datum:Temp:Feuchte:
Aussen-T/F 1976 05-01-2020 17:13:18 5.6 C 34 %
1977 05-01-2020 17:23:18 5.7 C 31 %
1978 05-01-2020 17:33:18 5.6 C 31 %
1979 05-01-2020 17:43:18 5.6 C 31 %
1980 05-01-2020 17:53:17 5.7 C 31 %
1981 05-01-2020 18:03:17 5.6 C 31 %
1982 05-01-2020 18:13:17 5.5 C 31 %
1983 05-01-2020 18:23:17 5.6 C 30 %
1984 05-01-2020 18:33:17 5.7 C 29 %
1985 05-01-2020 18:43:17 5.5 C 30 %
1986 05-01-2020 18:53:17 5.6 C 30 %
1987 05-01-2020 19:03:17 5.5 C 30 %
1988 05-01-2020 19:13:17 5.6 C 30 %
1989 05-01-2020 19:23:17 5.4 C 31 %
1990 05-01-2020 19:33:17 5.3 C 31 %
1991 05-01-2020 19:43:17 5.4 C 31 %
1992 05-01-2020 19:53:18 5.3 C 31 %
1993 05-01-2020 20:03:18 5.2 C 32 %
1994 05-01-2020 20:13:18 5.5 C 29 %
1995 05-01-2020 20:23:18 5.3 C 30 %
1996 05-01-2020 20:33:18 5.3 C 30 %
1997 05-01-2020 20:43:18 5.2 C 31 %
1998 05-01-2020 20:53:18 5.2 C 31 %
1999 05-01-2020 21:03:18 5 C 32 %
2000 05-01-2020 21:13:18 5.1 C 32 %
Sensor: Nr:Datum:Temp:Feuchte:
Aussen-T/F 2001 05-01-2020 21:23:18 5 C 32 %
2002 05-01-2020 21:33:17 4.9 C 34 %
2003 05-01-2020 21:43:17 4.8 C 35 %
2004 05-01-2020 21:53:17 4.8 C 35 %
2005 05-01-2020 22:03:17 4.8 C 35 %
2006 05-01-2020 22:13:17 4.8 C 35 %
2007 05-01-2020 22:23:17 4.7 C 35 %
2008 05-01-2020 22:33:17 4.7 C 35 %
2009 05-01-2020 22:43:17 4.7 C 35 %
2010 05-01-2020 22:53:17 4.6 C 36 %
2011 05-01-2020 23:03:17 4.5 C 36 %
2012 05-01-2020 23:13:17 4.4 C 37 %
2013 05-01-2020 23:23:17 4.4 C 36 %
2014 05-01-2020 23:33:17 4.5 C 36 %
2015 05-01-2020 23:43:17 4.4 C 35 %
2016 05-01-2020 23:53:17 4.5 C 33 %
Sensor: Nr:Datum:Temp:Feuchte:
G-T/H 1 23-12-2019 00:02:17 10.4 C 75 %
2 23-12-2019 00:12:17 10.4 C 75 %
3 23-12-2019 00:22:17 10.4 C 75 %
4 23-12-2019 00:32:17 10.4 C 75 %
5 23-12-2019 00:42:17 10.4 C 75 %
6 23-12-2019 00:52:17 10.4 C 75 %
7 23-12-2019 01:02:17 10.4 C 75 %
8 23-12-2019 01:12:17 10.4 C 75 %
9 23-12-2019 01:22:17 10.4 C 75 %
10 23-12-2019 01:32:17 10.4 C 75 %
11 23-12-2019 01:42:17 10.4 C 75 %
12 23-12-2019 01:52:17 10.4 C 75 %
13 23-12-2019 02:02:17 10.3 C 75 %
14 23-12-2019 02:12:17 10.3 C 75 %
15 23-12-2019 02:22:17 10.4 C 75 %
16 23-12-2019 02:32:17 10.3 C 75 %
17 23-12-2019 02:42:17 10.4 C 75 %
18 23-12-2019 02:52:17 10.3 C 75 %
19 23-12-2019 03:02:17 10.3 C 75 %
20 23-12-2019 03:12:17 10.3 C 75 %
21 23-12-2019 03:22:17 10.3 C 75 %
22 23-12-2019 03:32:17 10.3 C 75 %
23 23-12-2019 03:42:17 10.3 C 75 %
24 23-12-2019 03:52:17 10.3 C 75 %
25 23-12-2019 04:02:17 10.3 C 75 %
Sensor: Nr:Datum:Temp:Feuchte:
G-T/H 26 23-12-2019 04:12:17 10.3 C 75 %
27 23-12-2019 04:22:17 10.3 C 75 %
28 23-12-2019 04:32:17 10.3 C 75 %
29 23-12-2019 04:42:17 10.3 C 75 %
30 23-12-2019 04:52:17 10.3 C 75 %
31 23-12-2019 05:02:17 10.3 C 75 %
32 23-12-2019 05:12:17 10.3 C 75 %
33 23-12-2019 05:22:17 10.2 C 75 %
34 23-12-2019 05:32:17 10.3 C 75 %
35 23-12-2019 05:42:17 10.2 C 75 %
36 23-12-2019 05:52:17 10.2 C 75 %
37 23-12-2019 06:02:18 10.2 C 75 %
38 23-12-2019 06:12:18 10.2 C 75 %
39 23-12-2019 06:22:17 10.2 C 75 %
40 23-12-2019 06:32:18 10.2 C 75 %
41 23-12-2019 06:42:18 10.2 C 75 %
42 23-12-2019 06:52:17 10.2 C 75 %
43 23-12-2019 07:02:17 10.2 C 75 %
44 23-12-2019 07:12:17 10.2 C 75 %
45 23-12-2019 07:22:17 10.2 C 75 %
46 23-12-2019 07:32:17 10.2 C 75 %
47 23-12-2019 07:42:17 10.2 C 75 %
48 23-12-2019 07:52:17 10.2 C 75 %
49 23-12-2019 08:02:17 10.2 C 75 %
50 23-12-2019 08:12:17 10.2 C 75 %
Sensor: Nr:Datum:Temp:Feuchte:
G-T/H 51 23-12-2019 08:22:17 10.2 C 75 %
52 23-12-2019 08:32:18 10.2 C 75 %
53 23-12-2019 08:42:18 10.2 C 75 %
54 23-12-2019 08:52:17 10.2 C 75 %
55 23-12-2019 09:02:17 10.2 C 75 %
56 23-12-2019 09:12:18 10.2 C 75 %
57 23-12-2019 09:22:17 10.2 C 75 %
58 23-12-2019 09:32:18 10.2 C 75 %
59 23-12-2019 09:42:18 10.2 C 75 %
60 23-12-2019 09:52:18 10.2 C 75 %
61 23-12-2019 10:02:17 10.2 C 75 %
62 23-12-2019 10:12:18 10.2 C 75 %
63 23-12-2019 10:22:17 10.2 C 75 %
64 23-12-2019 10:32:18 10.2 C 75 %
65 23-12-2019 10:42:18 10.2 C 75 %
66 23-12-2019 10:52:17 10.2 C 75 %
67 23-12-2019 11:02:18 10.2 C 75 %
68 23-12-2019 11:12:18 10.2 C 75 %
69 23-12-2019 11:22:17 10.2 C 75 %
70 23-12-2019 11:32:18 10.2 C 75 %
71 23-12-2019 11:42:18 10.2 C 75 %
72 23-12-2019 11:52:17 10.2 C 75 %
73 23-12-2019 12:02:18 10.2 C 75 %
74 23-12-2019 12:12:18 10.2 C 75 %
75 23-12-2019 12:22:17 10.2 C 75 %
Sensor: Nr:Datum:Temp:Feuchte:
G-T/H 76 23-12-2019 12:32:17 10.3 C 75 %
77 23-12-2019 12:42:17 10.3 C 75 %
78 23-12-2019 12:52:17 10.2 C 75 %
79 23-12-2019 13:02:17 10.3 C 75 %
80 23-12-2019 13:12:17 10.3 C 76 %
81 23-12-2019 13:22:17 10.3 C 75 %
82 23-12-2019 13:32:18 10.3 C 76 %
83 23-12-2019 13:42:18 10.3 C 76 %
84 23-12-2019 13:52:17 10.3 C 76 %
85 23-12-2019 14:02:17 10.3 C 76 %
86 23-12-2019 14:12:17 10.3 C 76 %
87 23-12-2019 14:22:18 10.3 C 76 %
88 23-12-2019 14:32:17 10.3 C 76 %
89 23-12-2019 14:42:17 10.3 C 76 %
90 23-12-2019 14:52:17 10.3 C 76 %
91 23-12-2019 15:02:18 10.3 C 76 %
92 23-12-2019 15:12:18 10.3 C 76 %
93 23-12-2019 15:22:17 10.3 C 76 %
94 23-12-2019 15:32:17 10.3 C 76 %
95 23-12-2019 15:42:17 10.3 C 76 %
96 23-12-2019 15:52:17 10.3 C 76 %
97 23-12-2019 16:02:17 10.3 C 75 %
98 23-12-2019 16:12:17 10.3 C 75 %
99 23-12-2019 16:22:18 10.3 C 76 %
100 23-12-2019 16:32:17 10.4 C 76 %
Sensor: Nr:Datum:Temp:Feuchte:
G-T/H 101 23-12-2019 16:42:17 10.3 C 76 %
102 23-12-2019 16:52:18 10.4 C 76 %
103 23-12-2019 17:02:17 10.4 C 76 %
104 23-12-2019 17:12:17 10.4 C 76 %
105 23-12-2019 17:22:17 10.4 C 76 %
106 23-12-2019 17:32:17 10.4 C 76 %
107 23-12-2019 17:42:18 10.4 C 76 %
108 23-12-2019 17:52:17 10.4 C 76 %
109 23-12-2019 18:02:17 10.4 C 76 %
110 23-12-2019 18:12:17 10.4 C 76 %
111 23-12-2019 18:22:17 10.4 C 76 %
112 23-12-2019 18:32:17 10.4 C 76 %
113 23-12-2019 18:42:17 10.4 C 76 %
114 23-12-2019 18:52:17 10.4 C 76 %
115 23-12-2019 19:02:17 10.4 C 76 %
116 23-12-2019 19:12:17 10.4 C 76 %
117 23-12-2019 19:22:17 10.4 C 76 %
118 23-12-2019 19:32:17 10.4 C 76 %
119 23-12-2019 19:42:17 10.4 C 76 %
120 23-12-2019 19:52:17 10.4 C 76 %
121 23-12-2019 20:02:17 10.4 C 76 %
122 23-12-2019 20:12:17 10.4 C 76 %
123 23-12-2019 20:22:17 10.4 C 76 %
124 23-12-2019 20:32:18 10.4 C 76 %
125 23-12-2019 20:42:18 10.4 C 76 %
Sensor: Nr:Datum:Temp:Feuchte:
G-T/H 126 23-12-2019 20:52:17 10.4 C 76 %
127 23-12-2019 21:02:18 10.4 C 76 %
128 23-12-2019 21:12:18 10.4 C 76 %
129 23-12-2019 21:22:17 10.4 C 76 %
130 23-12-2019 21:32:17 10.4 C 76 %
131 23-12-2019 21:42:17 10.4 C 76 %
132 23-12-2019 21:52:17 10.4 C 76 %
133 23-12-2019 22:02:18 10.4 C 76 %
134 23-12-2019 22:12:18 10.4 C 76 %
135 23-12-2019 22:22:17 10.3 C 76 %
136 23-12-2019 22:32:17 10.3 C 75 %
137 23-12-2019 22:42:17 10.3 C 75 %
138 23-12-2019 22:52:17 10.3 C 75 %
139 23-12-2019 23:02:17 10.3 C 75 %
140 23-12-2019 23:12:17 10.4 C 75 %
141 23-12-2019 23:22:18 10.3 C 75 %
142 23-12-2019 23:32:17 10.3 C 75 %
143 23-12-2019 23:42:17 10.3 C 75 %
144 23-12-2019 23:52:17 10.3 C 75 %
145 24-12-2019 00:02:17 10.3 C 75 %
146 24-12-2019 00:12:17 10.3 C 75 %
147 24-12-2019 00:22:17 10.3 C 75 %
148 24-12-2019 00:32:18 10.3 C 75 %
149 24-12-2019 00:42:18 10.3 C 75 %
150 24-12-2019 00:52:17 10.3 C 75 %
Sensor: Nr:Datum:Temp:Feuchte:
G-T/H 151 24-12-2019 01:02:17 10.3 C 75 %
152 24-12-2019 01:12:17 10.3 C 75 %
153 24-12-2019 01:22:17 10.3 C 75 %
154 24-12-2019 01:32:17 10.3 C 75 %
155 24-12-2019 01:42:17 10.2 C 75 %
156 24-12-2019 01:52:17 10.2 C 75 %
157 24-12-2019 02:02:17 10.2 C 75 %
158 24-12-2019 02:12:17 10.2 C 75 %
159 24-12-2019 02:22:17 10.2 C 75 %
160 24-12-2019 02:32:18 10.2 C 75 %
161 24-12-2019 02:42:18 10.2 C 75 %
162 24-12-2019 02:52:17 10.2 C 75 %
163 24-12-2019 03:02:18 10.2 C 75 %
164 24-12-2019 03:12:18 10.2 C 75 %
165 24-12-2019 03:22:17 10.2 C 75 %
166 24-12-2019 03:32:17 10.2 C 75 %
167 24-12-2019 03:42:17 10.2 C 75 %
168 24-12-2019 03:52:17 10.2 C 75 %
169 24-12-2019 04:02:17 10.2 C 75 %
170 24-12-2019 04:12:17 10.2 C 75 %
171 24-12-2019 04:22:17 10.2 C 75 %
172 24-12-2019 04:32:17 10.2 C 75 %
173 24-12-2019 04:42:17 10.1 C 75 %
174 24-12-2019 04:52:17 10.2 C 75 %
175 24-12-2019 05:02:18 10.2 C 75 %
Sensor: Nr:Datum:Temp:Feuchte:
G-T/H 176 24-12-2019 05:12:18 10.1 C 75 %
177 24-12-2019 05:22:17 10.1 C 75 %
178 24-12-2019 05:32:18 10.1 C 75 %
179 24-12-2019 05:42:18 10.1 C 75 %
180 24-12-2019 05:52:17 10.1 C 75 %
181 24-12-2019 06:02:18 10.1 C 75 %
182 24-12-2019 06:12:18 10.1 C 75 %
183 24-12-2019 06:22:17 10.1 C 75 %
184 24-12-2019 06:32:17 10.1 C 75 %
185 24-12-2019 06:42:17 10.1 C 74 %
186 24-12-2019 06:52:17 10 C 74 %
187 24-12-2019 07:02:17 10.1 C 74 %
188 24-12-2019 07:12:17 10.1 C 74 %
189 24-12-2019 07:22:17 10.1 C 74 %
190 24-12-2019 07:32:17 10.1 C 74 %
191 24-12-2019 07:42:17 10.1 C 74 %
192 24-12-2019 07:52:17 10.1 C 74 %
193 24-12-2019 08:02:17 10.1 C 74 %
194 24-12-2019 08:12:17 10.1 C 74 %
195 24-12-2019 08:22:17 10 C 74 %
196 24-12-2019 08:32:17 10 C 74 %
197 24-12-2019 08:42:17 10 C 74 %
198 24-12-2019 08:52:18 10 C 74 %
199 24-12-2019 09:02:17 10 C 74 %
200 24-12-2019 09:12:17 10 C 74 %
Sensor: Nr:Datum:Temp:Feuchte:
G-T/H 201 24-12-2019 09:22:17 10 C 75 %
202 24-12-2019 09:32:17 10 C 74 %
203 24-12-2019 09:42:17 10 C 75 %
204 24-12-2019 09:52:17 10 C 75 %
205 24-12-2019 10:02:17 10 C 75 %
206 24-12-2019 10:12:17 10 C 75 %
207 24-12-2019 10:22:17 10 C 75 %
208 24-12-2019 10:32:17 10 C 75 %
209 24-12-2019 10:42:17 10 C 75 %
210 24-12-2019 10:52:17 10 C 75 %
211 24-12-2019 11:02:17 10 C 75 %
212 24-12-2019 11:12:17 10 C 75 %
213 24-12-2019 11:22:17 10 C 75 %
214 24-12-2019 11:32:17 10 C 75 %
215 24-12-2019 11:42:17 10 C 75 %
216 24-12-2019 11:52:18 10 C 75 %
217 24-12-2019 12:02:17 10 C 75 %
218 24-12-2019 12:12:17 10 C 75 %
219 24-12-2019 12:22:17 10 C 75 %
220 24-12-2019 12:32:17 10 C 75 %
221 24-12-2019 12:42:17 10 C 75 %
222 24-12-2019 12:52:18 10 C 75 %
223 24-12-2019 13:02:17 10 C 75 %
224 24-12-2019 13:12:17 10 C 75 %
225 24-12-2019 13:22:17 10 C 75 %
Sensor: Nr:Datum:Temp:Feuchte:
G-T/H 226 24-12-2019 13:32:17 10.1 C 75 %
227 24-12-2019 13:42:17 10.1 C 75 %
228 24-12-2019 13:52:17 10 C 75 %
229 24-12-2019 14:02:18 10 C 75 %
230 24-12-2019 14:12:18 10.1 C 75 %
231 24-12-2019 14:22:17 10 C 75 %
232 24-12-2019 14:32:18 10.1 C 75 %
233 24-12-2019 14:42:18 10.1 C 75 %
234 24-12-2019 14:52:17 10.1 C 75 %
235 24-12-2019 15:02:18 10 C 75 %
236 24-12-2019 15:12:18 10.1 C 75 %
237 24-12-2019 15:22:17 10.1 C 75 %
238 24-12-2019 15:32:17 10.1 C 75 %
239 24-12-2019 15:42:17 10.1 C 75 %
240 24-12-2019 15:52:17 10.1 C 75 %
241 24-12-2019 16:02:17 10.1 C 75 %
242 24-12-2019 16:12:17 10.1 C 75 %
243 24-12-2019 16:22:17 10.1 C 75 %
244 24-12-2019 16:32:17 10.1 C 75 %
245 24-12-2019 16:42:17 10.1 C 75 %
246 24-12-2019 16:52:17 10.1 C 75 %
247 24-12-2019 17:02:17 10.1 C 75 %
248 24-12-2019 17:12:17 10.1 C 75 %
249 24-12-2019 17:22:18 10.1 C 75 %
250 24-12-2019 17:32:17 10.1 C 75 %
Sensor: Nr:Datum:Temp:Feuchte:
G-T/H 251 24-12-2019 17:42:17 10.1 C 75 %
252 24-12-2019 17:52:17 10.2 C 75 %
253 24-12-2019 18:02:17 10.2 C 75 %
254 24-12-2019 18:12:17 10.2 C 75 %
255 24-12-2019 18:22:17 10.2 C 75 %
256 24-12-2019 18:32:17 10.2 C 75 %
257 24-12-2019 18:42:17 10.2 C 75 %
258 24-12-2019 18:52:17 10.2 C 75 %
259 24-12-2019 19:02:17 10.2 C 75 %
260 24-12-2019 19:12:17 10.2 C 75 %
261 24-12-2019 19:22:17 10.2 C 75 %
262 24-12-2019 19:32:17 10.2 C 75 %
263 24-12-2019 19:42:17 10.2 C 75 %
264 24-12-2019 19:52:17 10.2 C 76 %
265 24-12-2019 20:02:17 10.2 C 75 %
266 24-12-2019 20:12:17 10.2 C 75 %
267 24-12-2019 20:22:17 10.1 C 75 %
268 24-12-2019 20:32:18 10.1 C 75 %
269 24-12-2019 20:42:18 10.2 C 75 %
270 24-12-2019 20:52:17 10.2 C 75 %
271 24-12-2019 21:02:17 10.2 C 75 %
272 24-12-2019 21:12:17 10.2 C 75 %
273 24-12-2019 21:22:17 10.2 C 75 %
274 24-12-2019 21:32:17 10.2 C 75 %
275 24-12-2019 21:42:17 10.2 C 75 %
Sensor: Nr:Datum:Temp:Feuchte:
G-T/H 276 24-12-2019 21:52:17 10.2 C 75 %
277 24-12-2019 22:02:17 10.2 C 75 %
278 24-12-2019 22:12:17 10.2 C 75 %
279 24-12-2019 22:22:17 10.1 C 75 %
280 24-12-2019 22:32:17 10.2 C 75 %
281 24-12-2019 22:42:17 10.2 C 75 %
282 24-12-2019 22:52:17 10.2 C 76 %
283 24-12-2019 23:02:17 10.2 C 76 %
284 24-12-2019 23:12:17 10.2 C 76 %
285 24-12-2019 23:22:17 10.2 C 76 %
286 24-12-2019 23:32:17 10.2 C 76 %
287 24-12-2019 23:42:17 10.2 C 76 %
288 24-12-2019 23:52:17 10.2 C 76 %
289 25-12-2019 00:02:17 10.2 C 76 %
290 25-12-2019 00:12:17 10.2 C 76 %
291 25-12-2019 00:22:17 10.2 C 76 %
292 25-12-2019 00:32:17 10.2 C 76 %
293 25-12-2019 00:42:18 10.2 C 76 %
294 25-12-2019 00:52:17 10.2 C 76 %
295 25-12-2019 01:02:17 10.2 C 76 %
296 25-12-2019 01:12:17 10.2 C 76 %
297 25-12-2019 01:22:17 10.2 C 76 %
298 25-12-2019 01:32:18 10.2 C 76 %
299 25-12-2019 01:42:18 10.2 C 76 %
300 25-12-2019 01:52:17 10.2 C 76 %
Sensor: Nr:Datum:Temp:Feuchte:
G-T/H 301 25-12-2019 02:02:17 10.2 C 76 %
302 25-12-2019 02:12:17 10.2 C 76 %
303 25-12-2019 02:22:17 10.2 C 76 %
304 25-12-2019 02:32:18 10.2 C 76 %
305 25-12-2019 02:42:18 10.2 C 76 %
306 25-12-2019 02:52:17 10.2 C 76 %
307 25-12-2019 03:02:17 10.2 C 76 %
308 25-12-2019 03:12:17 10.2 C 76 %
309 25-12-2019 03:22:17 10.2 C 76 %
310 25-12-2019 03:32:17 10.2 C 76 %
311 25-12-2019 03:42:17 10.2 C 76 %
312 25-12-2019 03:52:18 10.2 C 76 %
313 25-12-2019 04:02:17 10.2 C 76 %
314 25-12-2019 04:12:17 10.2 C 76 %
315 25-12-2019 04:22:18 10.2 C 76 %
316 25-12-2019 04:32:17 10.2 C 76 %
317 25-12-2019 04:42:17 10.2 C 76 %
318 25-12-2019 04:52:17 10.2 C 76 %
319 25-12-2019 05:02:17 10.2 C 76 %
320 25-12-2019 05:12:17 10.2 C 76 %
321 25-12-2019 05:22:18 10.2 C 76 %
322 25-12-2019 05:32:17 10.2 C 76 %
323 25-12-2019 05:42:17 10.2 C 76 %
324 25-12-2019 05:52:17 10.2 C 76 %
325 25-12-2019 06:02:18 10.2 C 76 %
Sensor: Nr:Datum:Temp:Feuchte:
G-T/H 326 25-12-2019 06:12:18 10.2 C 76 %
327 25-12-2019 06:22:17 10.2 C 76 %
328 25-12-2019 06:32:18 10.2 C 76 %
329 25-12-2019 06:42:18 10.2 C 76 %
330 25-12-2019 06:52:17 10.2 C 76 %
331 25-12-2019 07:02:18 10.2 C 76 %
332 25-12-2019 07:12:18 10.2 C 76 %
333 25-12-2019 07:22:17 10.2 C 76 %
334 25-12-2019 07:32:18 10.2 C 76 %
335 25-12-2019 07:42:18 10.2 C 76 %
336 25-12-2019 07:52:17 10.2 C 76 %
337 25-12-2019 08:02:18 10.2 C 76 %
338 25-12-2019 08:12:18 10.2 C 76 %
339 25-12-2019 08:22:17 10.2 C 76 %
340 25-12-2019 08:32:17 10.2 C 76 %
341 25-12-2019 08:42:17 10.2 C 76 %
342 25-12-2019 08:52:17 10.2 C 76 %
343 25-12-2019 09:02:17 10.2 C 76 %
344 25-12-2019 09:12:17 10.2 C 76 %
345 25-12-2019 09:22:18 10.2 C 76 %
346 25-12-2019 09:32:17 10.2 C 76 %
347 25-12-2019 09:42:17 10.2 C 76 %
348 25-12-2019 09:52:17 10.2 C 76 %
349 25-12-2019 10:02:17 10.2 C 76 %
350 25-12-2019 10:12:17 10.2 C 76 %
Sensor: Nr:Datum:Temp:Feuchte:
G-T/H 351 25-12-2019 10:22:18 10.2 C 76 %
352 25-12-2019 10:32:17 10.2 C 76 %
353 25-12-2019 10:42:17 10.2 C 76 %
354 25-12-2019 10:52:17 10.3 C 76 %
355 25-12-2019 11:02:17 10.3 C 76 %
356 25-12-2019 11:12:17 10.3 C 76 %
357 25-12-2019 11:22:17 10.2 C 76 %
358 25-12-2019 11:32:17 10.3 C 76 %
359 25-12-2019 11:42:17 10.2 C 76 %
360 25-12-2019 11:52:18 10.3 C 76 %
361 25-12-2019 12:02:17 10.2 C 76 %
362 25-12-2019 12:12:17 10.2 C 76 %
363 25-12-2019 12:22:17 10.3 C 76 %
364 25-12-2019 12:32:17 10.3 C 76 %
365 25-12-2019 12:42:17 10.3 C 76 %
366 25-12-2019 12:52:18 10.3 C 76 %
367 25-12-2019 13:02:17 10.3 C 76 %
368 25-12-2019 13:12:17 10.2 C 76 %
369 25-12-2019 13:22:18 10.3 C 76 %
370 25-12-2019 13:32:17 10.3 C 76 %
371 25-12-2019 13:42:17 10.2 C 76 %
372 25-12-2019 13:52:17 10.2 C 76 %
373 25-12-2019 14:02:17 10.3 C 76 %
374 25-12-2019 14:12:17 10.3 C 76 %
375 25-12-2019 14:22:18 10.3 C 76 %
Sensor: Nr:Datum:Temp:Feuchte:
G-T/H 376 25-12-2019 14:32:17 10.3 C 76 %
377 25-12-2019 14:42:17 10.3 C 76 %
378 25-12-2019 14:52:17 10.3 C 76 %
379 25-12-2019 15:02:17 10.2 C 76 %
380 25-12-2019 15:12:17 10.3 C 76 %
381 25-12-2019 15:22:18 10.3 C 76 %
382 25-12-2019 15:32:17 10.3 C 76 %
383 25-12-2019 15:42:17 10.3 C 76 %
384 25-12-2019 15:52:17 10.3 C 76 %
385 25-12-2019 16:02:17 10.3 C 76 %
386 25-12-2019 16:12:17 10.3 C 76 %
387 25-12-2019 16:22:17 10.3 C 76 %
388 25-12-2019 16:32:17 10.3 C 76 %
389 25-12-2019 16:42:17 10.3 C 76 %
390 25-12-2019 16:52:17 10.3 C 76 %
391 25-12-2019 17:02:17 10.3 C 76 %
392 25-12-2019 17:12:17 10.3 C 76 %
393 25-12-2019 17:22:18 10.3 C 76 %
394 25-12-2019 17:32:17 10.3 C 76 %
395 25-12-2019 17:42:17 10.3 C 76 %
396 25-12-2019 17:52:18 10.3 C 76 %
397 25-12-2019 18:02:17 10.3 C 76 %
398 25-12-2019 18:12:17 10.3 C 76 %
399 25-12-2019 18:22:17 10.3 C 76 %
400 25-12-2019 18:32:17 10.3 C 76 %
Sensor: Nr:Datum:Temp:Feuchte:
G-T/H 401 25-12-2019 18:42:17 10.3 C 76 %
402 25-12-2019 18:52:17 10.3 C 76 %
403 25-12-2019 19:02:17 10.3 C 76 %
404 25-12-2019 19:12:17 10.3 C 76 %
405 25-12-2019 19:22:17 10.3 C 76 %
406 25-12-2019 19:32:18 10.3 C 76 %
407 25-12-2019 19:42:18 10.3 C 76 %
408 25-12-2019 19:52:17 10.3 C 76 %
409 25-12-2019 20:02:17 10.3 C 76 %
410 25-12-2019 20:12:17 10.3 C 76 %
411 25-12-2019 20:22:18 10.3 C 76 %
412 25-12-2019 20:32:17 10.3 C 76 %
413 25-12-2019 20:42:17 10.3 C 76 %
414 25-12-2019 20:52:17 10.3 C 76 %
415 25-12-2019 21:02:18 10.3 C 76 %
416 25-12-2019 21:12:18 10.3 C 76 %
417 25-12-2019 21:22:17 10.3 C 76 %
418 25-12-2019 21:32:17 10.3 C 76 %
419 25-12-2019 21:42:17 10.3 C 76 %
420 25-12-2019 21:52:17 10.2 C 76 %
421 25-12-2019 22:02:18 10.3 C 76 %
422 25-12-2019 22:12:18 10.3 C 76 %
423 25-12-2019 22:22:17 10.3 C 76 %
424 25-12-2019 22:32:18 10.3 C 76 %
425 25-12-2019 22:42:18 10.3 C 76 %
Sensor: Nr:Datum:Temp:Feuchte:
G-T/H 426 25-12-2019 22:52:17 10.2 C 76 %
427 25-12-2019 23:02:18 10.2 C 76 %
428 25-12-2019 23:12:18 10.3 C 75 %
429 25-12-2019 23:22:17 10.2 C 75 %
430 25-12-2019 23:32:17 10.2 C 75 %
431 25-12-2019 23:42:17 10.2 C 75 %
432 25-12-2019 23:52:17 10.2 C 75 %
433 26-12-2019 00:02:17 10.2 C 75 %
434 26-12-2019 00:12:18 10.2 C 75 %
435 26-12-2019 00:22:17 10.2 C 75 %
436 26-12-2019 00:32:18 10.2 C 75 %
437 26-12-2019 00:42:18 10.2 C 75 %
438 26-12-2019 00:52:17 10.2 C 75 %
439 26-12-2019 01:02:18 10.2 C 75 %
440 26-12-2019 01:12:18 10.2 C 75 %
441 26-12-2019 01:22:17 10.2 C 75 %
442 26-12-2019 01:32:17 10.2 C 75 %
443 26-12-2019 01:42:17 10.2 C 75 %
444 26-12-2019 01:52:17 10.2 C 75 %
445 26-12-2019 02:02:18 10.2 C 75 %
446 26-12-2019 02:12:18 10.1 C 75 %
447 26-12-2019 02:22:17 10.1 C 75 %
448 26-12-2019 02:32:17 10.2 C 75 %
449 26-12-2019 02:42:17 10.2 C 75 %
450 26-12-2019 02:52:17 10.1 C 75 %
Sensor: Nr:Datum:Temp:Feuchte:
G-T/H 451 26-12-2019 03:02:18 10.1 C 75 %
452 26-12-2019 03:12:18 10.2 C 75 %
453 26-12-2019 03:22:17 10.2 C 75 %
454 26-12-2019 03:32:17 10.2 C 75 %
455 26-12-2019 03:42:17 10.1 C 75 %
456 26-12-2019 03:52:17 10.1 C 75 %
457 26-12-2019 04:02:17 10.1 C 75 %
458 26-12-2019 04:12:17 10.1 C 75 %
459 26-12-2019 04:22:18 10.1 C 75 %
460 26-12-2019 04:32:17 10.1 C 75 %
461 26-12-2019 04:42:17 10.1 C 75 %
462 26-12-2019 04:52:17 10 C 75 %
463 26-12-2019 05:02:17 10 C 75 %
464 26-12-2019 05:12:17 10.1 C 74 %
465 26-12-2019 05:22:17 10 C 74 %
466 26-12-2019 05:32:18 10 C 74 %
467 26-12-2019 05:42:18 10 C 74 %
468 26-12-2019 05:52:17 10 C 74 %
469 26-12-2019 06:02:17 10 C 74 %
470 26-12-2019 06:12:18 10 C 74 %
471 26-12-2019 06:22:17 10 C 74 %
472 26-12-2019 06:32:18 10 C 74 %
473 26-12-2019 06:42:18 10 C 74 %
474 26-12-2019 06:52:17 10 C 74 %
475 26-12-2019 07:02:18 10 C 74 %
Sensor: Nr:Datum:Temp:Feuchte:
G-T/H 476 26-12-2019 07:12:18 10 C 74 %
477 26-12-2019 07:22:17 10 C 74 %
478 26-12-2019 07:32:17 10 C 74 %
479 26-12-2019 07:42:17 10 C 74 %
480 26-12-2019 07:52:17 10 C 74 %
481 26-12-2019 08:02:18 9.9 C 75 %
482 26-12-2019 08:12:18 9.9 C 75 %
483 26-12-2019 08:22:17 9.9 C 75 %
484 26-12-2019 08:32:17 9.9 C 75 %
485 26-12-2019 08:42:17 9.9 C 75 %
486 26-12-2019 08:52:17 9.9 C 75 %
487 26-12-2019 09:02:17 9.9 C 75 %
488 26-12-2019 09:12:17 9.9 C 75 %
489 26-12-2019 09:22:17 9.9 C 75 %
490 26-12-2019 09:32:17 9.9 C 75 %
491 26-12-2019 09:42:17 9.9 C 75 %
492 26-12-2019 09:52:18 9.9 C 75 %
493 26-12-2019 10:02:17 9.9 C 75 %
494 26-12-2019 10:12:17 9.9 C 75 %
495 26-12-2019 10:22:18 9.9 C 75 %
496 26-12-2019 10:32:17 9.9 C 75 %
497 26-12-2019 10:42:17 9.9 C 75 %
498 26-12-2019 10:52:18 9.9 C 75 %
499 26-12-2019 11:02:17 9.9 C 75 %
500 26-12-2019 11:12:17 9.9 C 75 %
Sensor: Nr:Datum:Temp:Feuchte:
G-T/H 501 26-12-2019 11:22:17 9.9 C 75 %
502 26-12-2019 11:32:17 9.9 C 75 %
503 26-12-2019 11:42:17 9.9 C 75 %
504 26-12-2019 11:52:17 9.9 C 75 %
505 26-12-2019 12:02:17 9.9 C 75 %
506 26-12-2019 12:12:17 9.9 C 75 %
507 26-12-2019 12:22:17 9.9 C 75 %
508 26-12-2019 12:32:18 9.9 C 75 %
509 26-12-2019 12:42:18 9.9 C 76 %
510 26-12-2019 12:52:17 9.9 C 76 %
511 26-12-2019 13:02:18 9.9 C 76 %
512 26-12-2019 13:12:18 9.9 C 76 %
513 26-12-2019 13:22:17 9.9 C 76 %
514 26-12-2019 13:32:18 9.8 C 76 %
515 26-12-2019 13:42:18 9.9 C 76 %
516 26-12-2019 13:52:17 9.8 C 76 %
517 26-12-2019 14:02:18 9.9 C 76 %
518 26-12-2019 14:12:18 9.8 C 76 %
519 26-12-2019 14:22:17 9.8 C 76 %
520 26-12-2019 14:32:17 9.9 C 76 %
521 26-12-2019 14:42:17 9.9 C 76 %
522 26-12-2019 14:52:17 9.9 C 76 %
523 26-12-2019 15:02:17 9.9 C 76 %
524 26-12-2019 15:12:17 9.9 C 76 %
525 26-12-2019 15:22:17 9.9 C 76 %
Sensor: Nr:Datum:Temp:Feuchte:
G-T/H 526 26-12-2019 15:32:17 9.8 C 76 %
527 26-12-2019 15:42:17 9.8 C 76 %
528 26-12-2019 15:52:18 9.8 C 76 %
529 26-12-2019 16:02:17 9.8 C 76 %
530 26-12-2019 16:12:17 9.9 C 76 %
531 26-12-2019 16:22:17 9.8 C 76 %
532 26-12-2019 16:32:17 9.8 C 76 %
533 26-12-2019 16:42:18 9.8 C 76 %
534 26-12-2019 16:53:17 9.8 C 76 %
535 26-12-2019 17:02:17 9.8 C 76 %
536 26-12-2019 17:12:17 9.8 C 76 %
537 26-12-2019 17:22:17 9.8 C 76 %
538 26-12-2019 17:32:17 9.8 C 76 %
539 26-12-2019 17:42:17 9.8 C 76 %
540 26-12-2019 17:52:17 9.8 C 76 %
541 26-12-2019 18:02:17 9.8 C 76 %
542 26-12-2019 18:12:17 9.8 C 76 %
543 26-12-2019 18:22:17 9.8 C 76 %
544 26-12-2019 18:32:17 9.8 C 76 %
545 26-12-2019 18:42:18 9.8 C 76 %
546 26-12-2019 18:53:17 9.8 C 76 %
547 26-12-2019 19:02:17 9.8 C 76 %
548 26-12-2019 19:12:17 9.8 C 76 %
549 26-12-2019 19:23:17 9.8 C 76 %
550 26-12-2019 19:32:17 9.8 C 76 %
Sensor: Nr:Datum:Temp:Feuchte:
G-T/H 551 26-12-2019 19:42:17 9.8 C 76 %
552 26-12-2019 19:53:17 9.8 C 76 %
553 26-12-2019 20:02:17 9.8 C 76 %
554 26-12-2019 20:12:17 9.8 C 76 %
555 26-12-2019 20:23:17 9.8 C 76 %
556 26-12-2019 20:32:17 9.8 C 76 %
557 26-12-2019 20:42:17 9.8 C 76 %
558 26-12-2019 20:53:17 9.8 C 76 %
559 26-12-2019 21:02:17 9.8 C 76 %
560 26-12-2019 21:12:17 9.8 C 76 %
561 26-12-2019 21:23:17 9.8 C 76 %
562 26-12-2019 21:32:18 9.8 C 76 %
563 26-12-2019 21:42:18 9.8 C 75 %
564 26-12-2019 21:52:17 9.8 C 75 %
565 26-12-2019 22:02:18 9.8 C 75 %
566 26-12-2019 22:12:18 9.8 C 75 %
567 26-12-2019 22:22:17 9.8 C 75 %
568 26-12-2019 22:33:17 9.8 C 75 %
569 26-12-2019 22:43:17 9.8 C 75 %
570 26-12-2019 22:52:17 9.8 C 75 %
571 26-12-2019 23:03:17 9.8 C 75 %
572 26-12-2019 23:13:17 9.8 C 75 %
573 26-12-2019 23:23:17 9.8 C 75 %
574 26-12-2019 23:32:17 9.7 C 75 %
575 26-12-2019 23:42:17 9.7 C 75 %
Sensor: Nr:Datum:Temp:Feuchte:
G-T/H 576 26-12-2019 23:53:17 9.7 C 75 %
577 27-12-2019 00:02:17 9.7 C 75 %
578 27-12-2019 00:12:17 9.7 C 75 %
579 27-12-2019 00:23:17 9.7 C 75 %
580 27-12-2019 00:32:17 9.7 C 75 %
581 27-12-2019 00:42:18 9.7 C 75 %
582 27-12-2019 00:53:17 9.7 C 75 %
583 27-12-2019 01:03:18 9.7 C 75 %
584 27-12-2019 01:13:18 9.7 C 75 %
585 27-12-2019 01:23:17 9.7 C 75 %
586 27-12-2019 01:33:17 9.7 C 75 %
587 27-12-2019 01:43:17 9.7 C 75 %
588 27-12-2019 01:53:18 9.7 C 75 %
589 27-12-2019 02:03:17 9.7 C 75 %
590 27-12-2019 02:13:17 9.7 C 75 %
591 27-12-2019 02:23:17 9.7 C 75 %
592 27-12-2019 02:33:18 9.8 C 75 %
593 27-12-2019 02:43:19 9.7 C 75 %
594 27-12-2019 02:53:17 9.7 C 75 %
595 27-12-2019 03:03:17 9.7 C 75 %
596 27-12-2019 03:13:17 9.7 C 75 %
597 27-12-2019 03:23:17 9.7 C 75 %
598 27-12-2019 03:33:17 9.7 C 75 %
599 27-12-2019 03:43:18 9.7 C 75 %
600 27-12-2019 03:53:17 9.7 C 75 %
Sensor: Nr:Datum:Temp:Feuchte:
G-T/H 601 27-12-2019 04:03:17 9.7 C 75 %
602 27-12-2019 04:13:17 9.7 C 75 %
603 27-12-2019 04:23:17 9.7 C 75 %
604 27-12-2019 04:33:17 9.7 C 75 %
605 27-12-2019 04:43:17 9.7 C 75 %
606 27-12-2019 04:53:18 9.7 C 75 %
607 27-12-2019 05:03:17 9.7 C 75 %
608 27-12-2019 05:13:17 9.7 C 75 %
609 27-12-2019 05:23:17 9.7 C 75 %
610 27-12-2019 05:33:17 9.7 C 75 %
611 27-12-2019 05:43:17 9.7 C 75 %
612 27-12-2019 05:53:17 9.7 C 75 %
613 27-12-2019 06:03:17 9.7 C 75 %
614 27-12-2019 06:13:17 9.7 C 75 %
615 27-12-2019 06:23:17 9.7 C 75 %
616 27-12-2019 06:33:17 9.7 C 76 %
617 27-12-2019 06:43:17 9.7 C 76 %
618 27-12-2019 06:53:17 9.7 C 76 %
619 27-12-2019 07:03:17 9.7 C 76 %
620 27-12-2019 07:13:17 9.7 C 76 %
621 27-12-2019 07:23:18 9.7 C 76 %
622 27-12-2019 07:33:17 9.7 C 76 %
623 27-12-2019 07:43:17 9.7 C 76 %
624 27-12-2019 07:53:17 9.7 C 76 %
625 27-12-2019 08:03:17 9.7 C 76 %
Sensor: Nr:Datum:Temp:Feuchte:
G-T/H 626 27-12-2019 08:13:17 9.7 C 76 %
627 27-12-2019 08:23:17 9.7 C 76 %
628 27-12-2019 08:33:17 9.7 C 76 %
629 27-12-2019 08:43:17 9.7 C 76 %
630 27-12-2019 08:53:18 9.7 C 76 %
631 27-12-2019 09:03:17 9.7 C 76 %
632 27-12-2019 09:13:17 9.7 C 76 %
633 27-12-2019 09:23:17 9.7 C 76 %
634 27-12-2019 09:33:17 9.7 C 76 %
635 27-12-2019 09:43:17 9.7 C 76 %
636 27-12-2019 09:53:17 9.7 C 76 %
637 27-12-2019 10:03:17 9.7 C 76 %
638 27-12-2019 10:13:17 9.6 C 76 %
639 27-12-2019 10:23:17 9.7 C 76 %
640 27-12-2019 10:33:18 9.7 C 76 %
641 27-12-2019 10:43:18 9.7 C 76 %
642 27-12-2019 10:53:17 9.7 C 76 %
643 27-12-2019 11:03:18 9.7 C 76 %
644 27-12-2019 11:13:18 9.7 C 76 %
645 27-12-2019 11:23:17 9.7 C 76 %
646 27-12-2019 11:33:17 9.7 C 76 %
647 27-12-2019 11:43:17 9.6 C 76 %
648 27-12-2019 11:53:17 9.7 C 76 %
649 27-12-2019 12:03:17 9.7 C 76 %
650 27-12-2019 12:13:17 9.7 C 76 %
Sensor: Nr:Datum:Temp:Feuchte:
G-T/H 651 27-12-2019 12:23:17 9.7 C 76 %
652 27-12-2019 12:33:17 9.7 C 76 %
653 27-12-2019 12:43:17 9.7 C 76 %
654 27-12-2019 12:53:17 9.7 C 76 %
655 27-12-2019 13:03:17 9.7 C 76 %
656 27-12-2019 13:13:17 9.6 C 76 %
657 27-12-2019 13:23:17 9.7 C 76 %
658 27-12-2019 13:33:17 9.7 C 76 %
659 27-12-2019 13:43:17 9.7 C 76 %
660 27-12-2019 13:53:17 9.7 C 76 %
661 27-12-2019 14:03:18 9.7 C 76 %
662 27-12-2019 14:13:18 9.7 C 76 %
663 27-12-2019 14:23:18 9.7 C 76 %
664 27-12-2019 14:33:17 9.7 C 76 %
665 27-12-2019 14:43:17 9.7 C 76 %
666 27-12-2019 14:53:18 9.7 C 76 %
667 27-12-2019 15:03:17 9.7 C 76 %
668 27-12-2019 15:13:17 9.7 C 76 %
669 27-12-2019 15:23:18 9.7 C 76 %
670 27-12-2019 15:33:17 9.7 C 76 %
671 27-12-2019 15:43:17 9.7 C 76 %
672 27-12-2019 15:53:17 9.7 C 76 %
673 27-12-2019 16:03:17 9.7 C 76 %
674 27-12-2019 16:13:17 9.7 C 76 %
675 27-12-2019 16:23:17 9.7 C 76 %
Sensor: Nr:Datum:Temp:Feuchte:
G-T/H 676 27-12-2019 16:33:17 9.7 C 76 %
677 27-12-2019 16:43:17 9.7 C 76 %
678 27-12-2019 16:53:17 9.7 C 76 %
679 27-12-2019 17:03:17 9.7 C 76 %
680 27-12-2019 17:13:17 9.7 C 76 %
681 27-12-2019 17:23:17 9.7 C 76 %
682 27-12-2019 17:33:18 9.7 C 76 %
683 27-12-2019 17:43:18 9.7 C 76 %
684 27-12-2019 17:53:17 9.7 C 76 %
685 27-12-2019 18:03:18 9.7 C 76 %
686 27-12-2019 18:13:18 9.7 C 76 %
687 27-12-2019 18:23:17 9.7 C 76 %
688 27-12-2019 18:33:18 9.7 C 76 %
689 27-12-2019 18:43:18 9.7 C 76 %
690 27-12-2019 18:53:17 9.7 C 76 %
691 27-12-2019 19:03:17 9.7 C 76 %
692 27-12-2019 19:13:17 9.7 C 76 %
693 27-12-2019 19:23:17 9.7 C 76 %
694 27-12-2019 19:33:17 9.7 C 76 %
695 27-12-2019 19:43:17 9.7 C 76 %
696 27-12-2019 19:53:18 9.7 C 76 %
697 27-12-2019 20:03:17 9.7 C 76 %
698 27-12-2019 20:13:17 9.7 C 76 %
699 27-12-2019 20:23:17 9.7 C 76 %
700 27-12-2019 20:33:18 9.7 C 76 %
Sensor: Nr:Datum:Temp:Feuchte:
G-T/H 701 27-12-2019 20:43:18 9.7 C 75 %
702 27-12-2019 20:53:17 9.7 C 75 %
703 27-12-2019 21:03:18 9.7 C 75 %
704 27-12-2019 21:13:18 9.7 C 75 %
705 27-12-2019 21:23:17 9.7 C 75 %
706 27-12-2019 21:33:18 9.7 C 75 %
707 27-12-2019 21:43:18 9.7 C 75 %
708 27-12-2019 21:53:17 9.7 C 75 %
709 27-12-2019 22:03:17 9.7 C 75 %
710 27-12-2019 22:13:17 9.7 C 75 %
711 27-12-2019 22:23:17 9.7 C 75 %
712 27-12-2019 22:33:17 9.7 C 75 %
713 27-12-2019 22:43:17 9.7 C 75 %
714 27-12-2019 22:53:17 9.7 C 75 %
715 27-12-2019 23:03:18 9.6 C 75 %
716 27-12-2019 23:13:18 9.6 C 75 %
717 27-12-2019 23:23:17 9.6 C 75 %
718 27-12-2019 23:33:17 9.6 C 75 %
719 27-12-2019 23:43:17 9.6 C 75 %
720 27-12-2019 23:53:17 9.6 C 74 %
721 28-12-2019 00:03:17 9.6 C 74 %
722 28-12-2019 00:13:17 9.6 C 74 %
723 28-12-2019 00:23:18 9.6 C 74 %
724 28-12-2019 00:33:17 9.6 C 74 %
725 28-12-2019 00:43:17 9.6 C 74 %
Sensor: Nr:Datum:Temp:Feuchte:
G-T/H 726 28-12-2019 00:53:17 9.5 C 74 %
727 28-12-2019 01:03:17 9.6 C 74 %
728 28-12-2019 01:13:17 9.5 C 74 %
729 28-12-2019 01:23:17 9.5 C 74 %
730 28-12-2019 01:33:17 9.5 C 74 %
731 28-12-2019 01:43:17 9.5 C 74 %
732 28-12-2019 01:53:17 9.5 C 74 %
733 28-12-2019 02:03:17 9.4 C 73 %
734 28-12-2019 02:13:17 9.4 C 73 %
735 28-12-2019 02:23:17 9.5 C 73 %
736 28-12-2019 02:33:18 9.3 C 73 %
737 28-12-2019 02:43:18 9.4 C 73 %
738 28-12-2019 02:53:17 9.3 C 73 %
739 28-12-2019 03:03:17 9.3 C 73 %
740 28-12-2019 03:13:18 9.3 C 73 %
741 28-12-2019 03:23:17 9.3 C 73 %
742 28-12-2019 03:33:17 9.2 C 73 %
743 28-12-2019 03:43:17 9.3 C 73 %
744 28-12-2019 03:53:18 9.3 C 73 %
745 28-12-2019 04:03:17 9.2 C 73 %
746 28-12-2019 04:13:17 9.2 C 72 %
747 28-12-2019 04:23:17 9.2 C 72 %
748 28-12-2019 04:33:17 9.2 C 72 %
749 28-12-2019 04:43:18 9.2 C 72 %
750 28-12-2019 04:53:17 9.1 C 72 %
Sensor: Nr:Datum:Temp:Feuchte:
G-T/H 751 28-12-2019 05:03:18 9.1 C 72 %
752 28-12-2019 05:13:18 9.1 C 72 %
753 28-12-2019 05:23:17 9 C 72 %
754 28-12-2019 05:33:18 9.1 C 72 %
755 28-12-2019 05:43:18 9 C 72 %
756 28-12-2019 05:53:17 9.1 C 72 %
757 28-12-2019 06:03:17 9 C 72 %
758 28-12-2019 06:13:18 9 C 72 %
759 28-12-2019 06:23:17 9 C 72 %
760 28-12-2019 06:33:17 9 C 72 %
761 28-12-2019 06:43:18 9 C 71 %
762 28-12-2019 06:53:17 8.9 C 72 %
763 28-12-2019 07:03:18 8.8 C 72 %
764 28-12-2019 07:13:18 8.9 C 72 %
765 28-12-2019 07:23:17 8.9 C 72 %
766 28-12-2019 07:33:17 8.9 C 72 %
767 28-12-2019 07:43:17 8.8 C 72 %
768 28-12-2019 07:53:17 8.8 C 72 %
769 28-12-2019 08:03:17 8.8 C 72 %
770 28-12-2019 08:13:17 8.8 C 72 %
771 28-12-2019 08:23:18 8.7 C 72 %
772 28-12-2019 08:33:17 8.7 C 72 %
773 28-12-2019 08:43:17 8.7 C 72 %
774 28-12-2019 08:53:17 8.7 C 72 %
775 28-12-2019 09:03:18 8.7 C 72 %
Sensor: Nr:Datum:Temp:Feuchte:
G-T/H 776 28-12-2019 09:13:18 8.7 C 72 %
777 28-12-2019 09:23:17 8.6 C 72 %
778 28-12-2019 09:33:17 8.6 C 72 %
779 28-12-2019 09:43:17 6.6 C 62 %
780 28-12-2019 09:53:17 5.6 C 61 %
781 28-12-2019 10:03:17 5.2 C 61 %
782 28-12-2019 10:13:17 5.1 C 61 %
783 28-12-2019 10:23:17 5.4 C 61 %
784 28-12-2019 10:33:18 7.2 C 62 %
785 28-12-2019 10:43:18 8 C 62 %
786 28-12-2019 10:53:17 8.2 C 63 %
787 28-12-2019 11:03:18 8.2 C 64 %
788 28-12-2019 11:13:18 8.2 C 64 %
789 28-12-2019 11:23:17 8.2 C 65 %
790 28-12-2019 11:33:17 8.2 C 65 %
791 28-12-2019 11:43:18 8.2 C 66 %
792 28-12-2019 11:53:17 8.3 C 67 %
793 28-12-2019 12:03:17 8.4 C 67 %
794 28-12-2019 12:13:17 8.4 C 67 %
795 28-12-2019 12:23:17 8.3 C 68 %
796 28-12-2019 12:33:17 8.3 C 68 %
797 28-12-2019 12:43:18 8.2 C 68 %
798 28-12-2019 12:53:17 8.2 C 68 %
799 28-12-2019 13:03:18 8.2 C 69 %
800 28-12-2019 13:13:18 8.2 C 69 %
Sensor: Nr:Datum:Temp:Feuchte:
G-T/H 801 28-12-2019 13:23:17 8.2 C 69 %
802 28-12-2019 13:33:17 8.2 C 69 %
803 28-12-2019 13:43:17 8.2 C 69 %
804 28-12-2019 13:53:17 8.2 C 69 %
805 28-12-2019 14:03:17 8.2 C 69 %
806 28-12-2019 14:13:17 8.1 C 70 %
807 28-12-2019 14:23:17 8.2 C 70 %
808 28-12-2019 14:33:17 8.2 C 70 %
809 28-12-2019 14:43:17 8.2 C 70 %
810 28-12-2019 14:53:17 8.1 C 70 %
811 28-12-2019 15:03:17 8.1 C 70 %
812 28-12-2019 15:13:18 8.1 C 70 %
813 28-12-2019 15:23:17 8.1 C 70 %
814 28-12-2019 15:33:17 8.1 C 70 %
815 28-12-2019 15:43:17 8 C 70 %
816 28-12-2019 15:53:18 8.1 C 70 %
817 28-12-2019 16:03:17 7.8 C 69 %
818 28-12-2019 16:13:17 7.9 C 69 %
819 28-12-2019 16:23:17 8 C 68 %
820 28-12-2019 16:33:17 8 C 69 %
821 28-12-2019 16:43:17 8 C 69 %
822 28-12-2019 16:53:17 8 C 69 %
823 28-12-2019 17:03:17 8 C 69 %
824 28-12-2019 17:13:17 8 C 69 %
825 28-12-2019 17:23:17 8 C 69 %
Sensor: Nr:Datum:Temp:Feuchte:
G-T/H 826 28-12-2019 17:33:18 8 C 69 %
827 28-12-2019 17:43:18 8 C 69 %
828 28-12-2019 17:53:17 8 C 69 %
829 28-12-2019 18:03:17 7.9 C 70 %
830 28-12-2019 18:13:17 8 C 69 %
831 28-12-2019 18:23:17 8 C 69 %
832 28-12-2019 18:33:17 7.9 C 70 %
833 28-12-2019 18:43:17 8 C 70 %
834 28-12-2019 18:53:17 8 C 70 %
835 28-12-2019 19:03:17 8 C 70 %
836 28-12-2019 19:13:18 7.9 C 71 %
837 28-12-2019 19:23:17 7.9 C 71 %
838 28-12-2019 19:33:18 7.9 C 71 %
839 28-12-2019 19:43:18 7.9 C 71 %
840 28-12-2019 19:53:17 7.9 C 71 %
841 28-12-2019 20:03:17 7.9 C 71 %
842 28-12-2019 20:13:17 7.9 C 71 %
843 28-12-2019 20:23:17 7.9 C 71 %
844 28-12-2019 20:33:18 7.9 C 71 %
845 28-12-2019 20:43:18 7.9 C 71 %
846 28-12-2019 20:53:18 7.9 C 71 %
847 28-12-2019 21:03:17 7.9 C 71 %
848 28-12-2019 21:13:17 7.9 C 71 %
849 28-12-2019 21:23:17 7.9 C 71 %
850 28-12-2019 21:33:17 7.9 C 71 %
Sensor: Nr:Datum:Temp:Feuchte:
G-T/H 851 28-12-2019 21:43:18 7.8 C 71 %
852 28-12-2019 21:53:17 7.8 C 71 %
853 28-12-2019 22:03:18 7.8 C 71 %
854 28-12-2019 22:13:18 7.8 C 71 %
855 28-12-2019 22:23:17 7.8 C 71 %
856 28-12-2019 22:33:17 7.8 C 71 %
857 28-12-2019 22:43:17 7.8 C 71 %
858 28-12-2019 22:53:17 7.8 C 71 %
859 28-12-2019 23:03:17 7.8 C 71 %
860 28-12-2019 23:13:17 7.8 C 71 %
861 28-12-2019 23:23:17 7.8 C 71 %
862 28-12-2019 23:33:17 7.8 C 70 %
863 28-12-2019 23:43:17 7.7 C 70 %
864 28-12-2019 23:53:17 7.7 C 70 %
865 29-12-2019 00:03:18 7.7 C 70 %
866 29-12-2019 00:13:18 7.7 C 70 %
867 29-12-2019 00:23:17 7.7 C 70 %
868 29-12-2019 00:33:17 7.7 C 70 %
869 29-12-2019 00:43:17 7.7 C 70 %
870 29-12-2019 00:53:17 7.7 C 70 %
871 29-12-2019 01:03:17 7.6 C 70 %
872 29-12-2019 01:13:17 7.6 C 70 %
873 29-12-2019 01:23:17 7.6 C 70 %
874 29-12-2019 01:33:17 7.6 C 70 %
875 29-12-2019 01:43:17 7.6 C 70 %
Sensor: Nr:Datum:Temp:Feuchte:
G-T/H 876 29-12-2019 01:53:17 7.6 C 70 %
877 29-12-2019 02:03:17 7.6 C 70 %
878 29-12-2019 02:13:17 7.5 C 70 %
879 29-12-2019 02:23:17 7.5 C 70 %
880 29-12-2019 02:33:17 7.5 C 70 %
881 29-12-2019 02:43:17 7.5 C 70 %
882 29-12-2019 02:53:18 7.5 C 70 %
883 29-12-2019 03:03:17 7.5 C 70 %
884 29-12-2019 03:13:17 7.5 C 70 %
885 29-12-2019 03:23:17 7.5 C 70 %
886 29-12-2019 03:33:17 7.5 C 70 %
887 29-12-2019 03:43:17 7.5 C 70 %
888 29-12-2019 03:53:18 7.5 C 70 %
889 29-12-2019 04:03:17 7.5 C 70 %
890 29-12-2019 04:13:17 7.4 C 70 %
891 29-12-2019 04:23:17 7.4 C 70 %
892 29-12-2019 04:33:17 7.4 C 70 %
893 29-12-2019 04:43:17 7.4 C 70 %
894 29-12-2019 04:53:17 7.4 C 69 %
895 29-12-2019 05:03:17 7.4 C 69 %
896 29-12-2019 05:13:17 7.4 C 69 %
897 29-12-2019 05:23:17 7.4 C 69 %
898 29-12-2019 05:33:18 7.4 C 69 %
899 29-12-2019 05:43:18 7.3 C 69 %
900 29-12-2019 05:53:17 7.3 C 69 %
Sensor: Nr:Datum:Temp:Feuchte:
G-T/H 901 29-12-2019 06:03:17 7.3 C 69 %
902 29-12-2019 06:13:17 7.3 C 69 %
903 29-12-2019 06:23:17 7.3 C 69 %
904 29-12-2019 06:33:17 7.3 C 69 %
905 29-12-2019 06:43:17 7.3 C 69 %
906 29-12-2019 06:53:17 7.3 C 69 %
907 29-12-2019 07:03:17 7.3 C 69 %
908 29-12-2019 07:13:17 7.3 C 69 %
909 29-12-2019 07:23:17 7.2 C 69 %
910 29-12-2019 07:33:17 7.2 C 69 %
911 29-12-2019 07:43:17 7.2 C 69 %
912 29-12-2019 07:53:17 7.2 C 69 %
913 29-12-2019 08:03:17 7.2 C 69 %
914 29-12-2019 08:13:17 7.2 C 69 %
915 29-12-2019 08:23:18 7.1 C 69 %
916 29-12-2019 08:33:17 7.2 C 69 %
917 29-12-2019 08:43:17 7.1 C 69 %
918 29-12-2019 08:53:17 7.1 C 69 %
919 29-12-2019 09:03:17 7.1 C 69 %
920 29-12-2019 09:13:17 7.1 C 69 %
921 29-12-2019 09:23:18 7.1 C 69 %
922 29-12-2019 09:33:17 7.1 C 69 %
923 29-12-2019 09:43:17 7.3 C 69 %
924 29-12-2019 09:53:17 7.4 C 69 %
925 29-12-2019 10:03:18 7.4 C 69 %
Sensor: Nr:Datum:Temp:Feuchte:
G-T/H 926 29-12-2019 10:13:18 7.4 C 69 %
927 29-12-2019 10:23:17 7.4 C 69 %
928 29-12-2019 10:33:17 7.3 C 69 %
929 29-12-2019 10:43:17 7.3 C 69 %
930 29-12-2019 10:53:17 7.3 C 69 %
931 29-12-2019 11:03:17 7.3 C 69 %
932 29-12-2019 11:13:17 7.3 C 69 %
933 29-12-2019 11:23:17 7.2 C 69 %
934 29-12-2019 11:33:17 7.2 C 69 %
935 29-12-2019 11:43:18 7.2 C 69 %
936 29-12-2019 11:53:17 7.2 C 69 %
937 29-12-2019 12:03:18 7.2 C 69 %
938 29-12-2019 12:13:18 7.2 C 69 %
939 29-12-2019 12:23:17 7.2 C 69 %
940 29-12-2019 12:33:17 7.2 C 69 %
941 29-12-2019 12:43:17 7.2 C 69 %
942 29-12-2019 12:53:17 7.2 C 70 %
943 29-12-2019 13:03:17 7.1 C 70 %
944 29-12-2019 13:13:17 7.1 C 70 %
945 29-12-2019 13:23:17 7.1 C 70 %
946 29-12-2019 13:33:18 7.1 C 70 %
947 29-12-2019 13:43:18 7.1 C 70 %
948 29-12-2019 13:53:17 7.1 C 70 %
949 29-12-2019 14:03:17 7.1 C 70 %
950 29-12-2019 14:13:17 7.1 C 70 %
Sensor: Nr:Datum:Temp:Feuchte:
G-T/H 951 29-12-2019 14:23:17 7.1 C 70 %
952 29-12-2019 14:33:18 7.1 C 70 %
953 29-12-2019 14:43:18 7.1 C 70 %
954 29-12-2019 14:53:17 7.1 C 70 %
955 29-12-2019 15:03:17 7.1 C 70 %
956 29-12-2019 15:13:18 7.1 C 70 %
957 29-12-2019 15:23:17 7.1 C 70 %
958 29-12-2019 15:33:17 7.1 C 70 %
959 29-12-2019 15:43:17 7.1 C 70 %
960 29-12-2019 15:53:18 7.1 C 70 %
961 29-12-2019 16:03:17 7.1 C 70 %
962 29-12-2019 16:13:17 7.1 C 70 %
963 29-12-2019 16:23:17 7.1 C 70 %
964 29-12-2019 16:33:18 7.1 C 70 %
965 29-12-2019 16:43:18 7.1 C 70 %
966 29-12-2019 16:53:17 7.1 C 70 %
967 29-12-2019 17:03:17 7.1 C 70 %
968 29-12-2019 17:13:17 7 C 70 %
969 29-12-2019 17:23:17 7 C 70 %
970 29-12-2019 17:33:17 7 C 70 %
971 29-12-2019 17:43:17 7 C 70 %
972 29-12-2019 17:53:17 7 C 70 %
973 29-12-2019 18:03:17 7 C 70 %
974 29-12-2019 18:13:17 7 C 70 %
975 29-12-2019 18:23:17 7.1 C 70 %
Sensor: Nr:Datum:Temp:Feuchte:
G-T/H 976 29-12-2019 18:33:17 7 C 70 %
977 29-12-2019 18:43:17 7 C 70 %
978 29-12-2019 18:53:17 7 C 70 %
979 29-12-2019 19:03:17 7 C 70 %
980 29-12-2019 19:13:17 7 C 70 %
981 29-12-2019 19:23:18 7 C 70 %
982 29-12-2019 19:33:18 7 C 70 %
983 29-12-2019 19:43:18 7 C 70 %
984 29-12-2019 19:53:17 7 C 70 %
985 29-12-2019 20:03:18 7 C 70 %
986 29-12-2019 20:13:18 7 C 70 %
987 29-12-2019 20:23:17 7 C 70 %
988 29-12-2019 20:33:17 7 C 70 %
989 29-12-2019 20:43:17 7 C 70 %
990 29-12-2019 20:53:17 7 C 70 %
991 29-12-2019 21:03:17 7 C 70 %
992 29-12-2019 21:13:17 7 C 70 %
993 29-12-2019 21:23:17 7 C 70 %
994 29-12-2019 21:33:18 7 C 70 %
995 29-12-2019 21:43:18 7 C 70 %
996 29-12-2019 21:53:17 7 C 70 %
997 29-12-2019 22:03:17 6.8 C 71 %
998 29-12-2019 22:13:17 7 C 70 %
999 29-12-2019 22:23:17 7 C 70 %
1000 29-12-2019 22:33:17 7 C 70 %
Sensor: Nr:Datum:Temp:Feuchte:
G-T/H 1001 29-12-2019 22:43:18 7 C 70 %
1002 29-12-2019 22:53:17 7 C 70 %
1003 29-12-2019 23:03:17 6.9 C 71 %
1004 29-12-2019 23:13:17 6.9 C 71 %
1005 29-12-2019 23:23:17 7 C 70 %
1006 29-12-2019 23:33:18 7.1 C 70 %
1007 29-12-2019 23:43:18 7.1 C 70 %
1008 29-12-2019 23:53:17 7.1 C 70 %
1009 30-12-2019 00:03:17 7.1 C 70 %
1010 30-12-2019 00:13:17 7.1 C 70 %
1011 30-12-2019 00:23:17 7.1 C 70 %
1012 30-12-2019 00:33:17 7.1 C 70 %
1013 30-12-2019 00:43:17 7 C 70 %
1014 30-12-2019 00:53:17 7 C 70 %
1015 30-12-2019 01:03:17 7 C 70 %
1016 30-12-2019 01:13:18 7 C 70 %
1017 30-12-2019 01:23:17 7 C 70 %
1018 30-12-2019 01:33:18 7 C 70 %
1019 30-12-2019 01:43:18 7 C 70 %
1020 30-12-2019 01:53:17 7 C 70 %
1021 30-12-2019 02:03:17 7 C 70 %
1022 30-12-2019 02:13:17 7 C 70 %
1023 30-12-2019 02:23:17 7 C 70 %
1024 30-12-2019 02:33:18 6.9 C 71 %
1025 30-12-2019 02:43:18 6.9 C 71 %
Sensor: Nr:Datum:Temp:Feuchte:
G-T/H 1026 30-12-2019 02:53:17 7 C 70 %
1027 30-12-2019 03:03:17 7.1 C 70 %
1028 30-12-2019 03:13:17 7.1 C 70 %
1029 30-12-2019 03:23:17 7.1 C 69 %
1030 30-12-2019 03:33:18 7.1 C 69 %
1031 30-12-2019 03:43:18 7 C 69 %
1032 30-12-2019 03:53:17 7 C 69 %
1033 30-12-2019 04:03:17 7 C 69 %
1034 30-12-2019 04:13:17 7 C 69 %
1035 30-12-2019 04:23:17 7 C 69 %
1036 30-12-2019 04:33:17 6.9 C 70 %
1037 30-12-2019 04:43:17 7 C 69 %
1038 30-12-2019 04:53:17 6.9 C 70 %
1039 30-12-2019 05:03:17 6.9 C 70 %
1040 30-12-2019 05:13:17 6.9 C 70 %
1041 30-12-2019 05:23:17 6.9 C 70 %
1042 30-12-2019 05:33:17 6.9 C 70 %
1043 30-12-2019 05:43:17 7 C 69 %
1044 30-12-2019 05:53:18 7.2 C 69 %
1045 30-12-2019 06:03:17 7.2 C 69 %
1046 30-12-2019 06:13:17 7.2 C 69 %
1047 30-12-2019 06:23:17 7.1 C 69 %
1048 30-12-2019 06:33:17 7.1 C 69 %
1049 30-12-2019 06:43:17 7 C 69 %
1050 30-12-2019 06:53:17 7 C 69 %
Sensor: Nr:Datum:Temp:Feuchte:
G-T/H 1051 30-12-2019 07:03:17 7 C 69 %
1052 30-12-2019 07:13:17 6.9 C 70 %
1053 30-12-2019 07:23:17 6.9 C 70 %
1054 30-12-2019 07:33:18 6.9 C 70 %
1055 30-12-2019 07:43:18 6.9 C 70 %
1056 30-12-2019 07:53:17 6.9 C 70 %
1057 30-12-2019 08:03:17 6.9 C 70 %
1058 30-12-2019 08:13:17 6.9 C 70 %
1059 30-12-2019 08:23:17 6.9 C 70 %
1060 30-12-2019 08:33:17 6.8 C 70 %
1061 30-12-2019 08:43:17 6.8 C 70 %
1062 30-12-2019 08:53:17 6.8 C 70 %
1063 30-12-2019 09:03:18 6.9 C 70 %
1064 30-12-2019 09:13:18 7.2 C 69 %
1065 30-12-2019 09:23:17 7.2 C 68 %
1066 30-12-2019 09:33:17 7.2 C 68 %
1067 30-12-2019 09:43:17 7.1 C 68 %
1068 30-12-2019 09:53:17 7.1 C 68 %
1069 30-12-2019 10:03:17 7 C 68 %
1070 30-12-2019 10:13:17 7 C 68 %
1071 30-12-2019 10:23:17 7 C 68 %
1072 30-12-2019 10:33:17 6.9 C 69 %
1073 30-12-2019 10:43:17 6.9 C 69 %
1074 30-12-2019 10:53:17 6.9 C 69 %
1075 30-12-2019 11:03:17 6.8 C 69 %
Sensor: Nr:Datum:Temp:Feuchte:
G-T/H 1076 30-12-2019 11:13:17 6.9 C 69 %
1077 30-12-2019 11:23:17 6.8 C 69 %
1078 30-12-2019 11:33:17 6.9 C 69 %
1079 30-12-2019 11:43:17 6.8 C 69 %
1080 30-12-2019 11:53:18 6.8 C 69 %
1081 30-12-2019 12:03:17 6.8 C 69 %
1082 30-12-2019 12:13:17 7 C 69 %
1083 30-12-2019 12:23:17 7.2 C 69 %
1084 30-12-2019 12:33:17 7.2 C 69 %
1085 30-12-2019 12:43:17 7.2 C 68 %
1086 30-12-2019 12:53:17 7 C 68 %
1087 30-12-2019 13:03:17 7 C 68 %
1088 30-12-2019 13:13:17 7 C 68 %
1089 30-12-2019 13:23:17 7 C 68 %
1090 30-12-2019 13:33:17 7 C 68 %
1091 30-12-2019 13:43:17 7 C 68 %
1092 30-12-2019 13:53:17 6.9 C 69 %
1093 30-12-2019 14:03:17 6.9 C 69 %
1094 30-12-2019 14:13:17 6.9 C 69 %
1095 30-12-2019 14:23:17 6.8 C 69 %
1096 30-12-2019 14:33:17 6.8 C 69 %
1097 30-12-2019 14:43:17 6.9 C 70 %
1098 30-12-2019 14:53:17 6.9 C 70 %
1099 30-12-2019 15:03:17 6.9 C 70 %
1100 30-12-2019 15:13:17 6.8 C 70 %
Sensor: Nr:Datum:Temp:Feuchte:
G-T/H 1101 30-12-2019 15:23:17 6.8 C 70 %
1102 30-12-2019 15:33:18 6.8 C 70 %
1103 30-12-2019 15:43:18 6.9 C 70 %
1104 30-12-2019 15:53:17 7.2 C 69 %
1105 30-12-2019 16:03:18 7.2 C 69 %
1106 30-12-2019 16:13:18 7.1 C 69 %
1107 30-12-2019 16:23:18 7.3 C 69 %
1108 30-12-2019 16:33:17 7.6 C 69 %
1109 30-12-2019 16:43:17 7.7 C 69 %
1110 30-12-2019 16:53:17 7.8 C 69 %
1111 30-12-2019 17:03:17 7.8 C 69 %
1112 30-12-2019 17:13:17 7.9 C 69 %
1113 30-12-2019 17:23:18 7.8 C 69 %
1114 30-12-2019 17:33:17 7.9 C 69 %
1115 30-12-2019 17:43:17 7.9 C 69 %
1116 30-12-2019 17:53:17 7.9 C 69 %
1117 30-12-2019 18:03:17 7.9 C 69 %
1118 30-12-2019 18:13:17 7.9 C 69 %
1119 30-12-2019 18:23:18 7.9 C 69 %
1120 30-12-2019 18:33:18 7.9 C 69 %
1121 30-12-2019 18:43:18 7.9 C 69 %
1122 30-12-2019 18:53:17 7.9 C 69 %
1123 30-12-2019 19:03:17 7.9 C 69 %
1124 30-12-2019 19:13:17 7.9 C 69 %
1125 30-12-2019 19:23:18 7.8 C 69 %
Sensor: Nr:Datum:Temp:Feuchte:
G-T/H 1126 30-12-2019 19:33:17 7.8 C 68 %
1127 30-12-2019 19:43:17 7.7 C 68 %
1128 30-12-2019 19:53:18 7.7 C 68 %
1129 30-12-2019 20:03:17 7.7 C 68 %
1130 30-12-2019 20:13:17 7.6 C 68 %
1131 30-12-2019 20:23:17 7.5 C 68 %
1132 30-12-2019 20:33:17 7.5 C 68 %
1133 30-12-2019 20:43:17 7.5 C 68 %
1134 30-12-2019 20:53:17 7.4 C 68 %
1135 30-12-2019 21:03:17 7.4 C 68 %
1136 30-12-2019 21:13:17 7.4 C 68 %
1137 30-12-2019 21:23:17 7.4 C 68 %
1138 30-12-2019 21:33:17 7.4 C 68 %
1139 30-12-2019 21:43:17 7.3 C 68 %
1140 30-12-2019 21:53:17 7.4 C 68 %
1141 30-12-2019 22:03:17 7.3 C 68 %
1142 30-12-2019 22:13:17 7.3 C 68 %
1143 30-12-2019 22:23:17 7.3 C 68 %
1144 30-12-2019 22:33:17 7.3 C 68 %
1145 30-12-2019 22:43:17 7.3 C 68 %
1146 30-12-2019 22:53:17 7.3 C 68 %
1147 30-12-2019 23:03:17 7.3 C 68 %
1148 30-12-2019 23:13:17 7.2 C 68 %
1149 30-12-2019 23:23:17 7.2 C 68 %
1150 30-12-2019 23:33:17 7.2 C 68 %
Sensor: Nr:Datum:Temp:Feuchte:
G-T/H 1151 30-12-2019 23:43:17 7.2 C 68 %
1152 30-12-2019 23:53:17 7.2 C 69 %
1153 31-12-2019 00:03:17 7.2 C 69 %
1154 31-12-2019 00:13:18 7.1 C 69 %
1155 31-12-2019 00:23:17 7.1 C 69 %
1156 31-12-2019 00:33:18 7.1 C 69 %
1157 31-12-2019 00:43:18 7.1 C 69 %
1158 31-12-2019 00:53:17 7.1 C 69 %
1159 31-12-2019 01:03:17 7.1 C 69 %
1160 31-12-2019 01:13:17 7.1 C 69 %
1161 31-12-2019 01:23:18 7 C 69 %
1162 31-12-2019 01:33:17 7 C 69 %
1163 31-12-2019 01:43:17 7 C 69 %
1164 31-12-2019 01:53:17 7 C 69 %
1165 31-12-2019 02:03:17 7 C 69 %
1166 31-12-2019 02:13:17 7 C 69 %
1167 31-12-2019 02:23:18 7 C 69 %
1168 31-12-2019 02:33:17 6.9 C 70 %
1169 31-12-2019 02:43:17 6.9 C 70 %
1170 31-12-2019 02:53:17 6.9 C 70 %
1171 31-12-2019 03:03:17 6.9 C 70 %
1172 31-12-2019 03:13:18 6.9 C 70 %
1173 31-12-2019 03:23:17 6.9 C 70 %
1174 31-12-2019 03:33:18 6.9 C 70 %
1175 31-12-2019 03:43:18 6.8 C 70 %
Sensor: Nr:Datum:Temp:Feuchte:
G-T/H 1176 31-12-2019 03:53:17 6.8 C 70 %
1177 31-12-2019 04:03:17 6.8 C 70 %
1178 31-12-2019 04:13:17 6.9 C 70 %
1179 31-12-2019 04:23:17 7 C 69 %
1180 31-12-2019 04:33:17 7 C 69 %
1181 31-12-2019 04:43:18 7 C 69 %
1182 31-12-2019 04:53:17 7 C 69 %
1183 31-12-2019 05:03:17 7 C 69 %
1184 31-12-2019 05:13:17 6.9 C 69 %
1185 31-12-2019 05:23:17 6.9 C 69 %
1186 31-12-2019 05:33:17 6.9 C 69 %
1187 31-12-2019 05:43:17 6.8 C 69 %
1188 31-12-2019 05:53:17 6.8 C 70 %
1189 31-12-2019 06:03:17 6.8 C 70 %
1190 31-12-2019 06:13:17 6.8 C 70 %
1191 31-12-2019 06:23:17 6.8 C 70 %
1192 31-12-2019 06:33:17 6.8 C 70 %
1193 31-12-2019 06:43:17 6.8 C 70 %
1194 31-12-2019 06:53:18 6.8 C 70 %
1195 31-12-2019 07:03:17 6.7 C 70 %
1196 31-12-2019 07:13:17 6.7 C 70 %
1197 31-12-2019 07:23:17 6.7 C 70 %
1198 31-12-2019 07:33:17 6.7 C 70 %
1199 31-12-2019 07:43:17 6.7 C 70 %
1200 31-12-2019 07:53:18 6.7 C 70 %
Sensor: Nr:Datum:Temp:Feuchte:
G-T/H 1201 31-12-2019 08:03:17 6.7 C 70 %
1202 31-12-2019 08:13:17 6.7 C 70 %
1203 31-12-2019 08:23:17 6.7 C 70 %
1204 31-12-2019 08:33:17 6.7 C 70 %
1205 31-12-2019 08:43:17 6.6 C 70 %
1206 31-12-2019 08:53:17 6.9 C 70 %
1207 31-12-2019 09:03:17 7.2 C 69 %
1208 31-12-2019 09:13:17 7.3 C 69 %
1209 31-12-2019 09:23:17 7.3 C 69 %
1210 31-12-2019 09:33:17 7.3 C 68 %
1211 31-12-2019 09:43:17 7.3 C 68 %
1212 31-12-2019 09:53:17 7.2 C 68 %
1213 31-12-2019 10:03:17 7.2 C 68 %
1214 31-12-2019 10:13:17 7.1 C 68 %
1215 31-12-2019 10:23:17 7.1 C 69 %
1216 31-12-2019 10:33:17 7.1 C 69 %
1217 31-12-2019 10:43:17 6.9 C 69 %
1218 31-12-2019 10:53:18 6.9 C 69 %
1219 31-12-2019 11:03:17 6.9 C 69 %
1220 31-12-2019 11:13:17 6.9 C 69 %
1221 31-12-2019 11:23:17 6.9 C 69 %
1222 31-12-2019 11:33:17 6.9 C 70 %
1223 31-12-2019 11:43:17 6.9 C 70 %
1224 31-12-2019 11:53:17 6.9 C 70 %
1225 31-12-2019 12:03:18 6.9 C 70 %
Sensor: Nr:Datum:Temp:Feuchte:
G-T/H 1226 31-12-2019 12:13:18 6.9 C 70 %
1227 31-12-2019 12:23:17 6.9 C 70 %
1228 31-12-2019 12:33:18 6.9 C 70 %
1229 31-12-2019 12:43:18 6.9 C 70 %
1230 31-12-2019 12:53:17 6.9 C 70 %
1231 31-12-2019 13:03:18 6.9 C 70 %
1232 31-12-2019 13:13:18 6.8 C 70 %
1233 31-12-2019 13:23:17 6.8 C 71 %
1234 31-12-2019 13:33:17 6.9 C 71 %
1235 31-12-2019 13:43:17 6.9 C 71 %
1236 31-12-2019 13:53:17 6.9 C 71 %
1237 31-12-2019 14:03:18 6.9 C 71 %
1238 31-12-2019 14:13:18 6.9 C 71 %
1239 31-12-2019 14:23:17 6.8 C 71 %
1240 31-12-2019 14:33:17 6.8 C 71 %
1241 31-12-2019 14:43:17 6.8 C 71 %
1242 31-12-2019 14:53:17 6.8 C 71 %
1243 31-12-2019 15:03:17 6.9 C 71 %
1244 31-12-2019 15:13:17 6.8 C 71 %
1245 31-12-2019 15:23:18 6.9 C 71 %
1246 31-12-2019 15:33:17 6.9 C 71 %
1247 31-12-2019 15:43:17 6.9 C 71 %
1248 31-12-2019 15:53:17 6.9 C 71 %
1249 31-12-2019 16:03:17 6.9 C 71 %
1250 31-12-2019 16:13:17 6.9 C 71 %
Sensor: Nr:Datum:Temp:Feuchte:
G-T/H 1251 31-12-2019 16:23:18 6.8 C 71 %
1252 31-12-2019 16:33:17 6.9 C 71 %
1253 31-12-2019 16:43:17 6.9 C 71 %
1254 31-12-2019 16:53:18 6.9 C 71 %
1255 31-12-2019 17:03:17 6.9 C 71 %
1256 31-12-2019 17:13:17 6.9 C 71 %
1257 31-12-2019 17:23:17 6.8 C 71 %
1258 31-12-2019 17:33:17 6.9 C 71 %
1259 31-12-2019 17:43:17 6.8 C 71 %
1260 31-12-2019 17:53:18 6.8 C 71 %
1261 31-12-2019 18:03:17 6.7 C 71 %
1262 31-12-2019 18:13:17 6.4 C 69 %
1263 31-12-2019 18:23:17 6.7 C 69 %
1264 31-12-2019 18:33:17 7.1 C 69 %
1265 31-12-2019 18:43:17 7.2 C 69 %
1266 31-12-2019 18:53:18 7.2 C 69 %
1267 31-12-2019 19:03:17 7.2 C 69 %
1268 31-12-2019 19:13:17 7.2 C 69 %
1269 31-12-2019 19:23:18 7.1 C 69 %
1270 31-12-2019 19:33:17 7.1 C 69 %
1271 31-12-2019 19:43:17 7.1 C 69 %
1272 31-12-2019 19:53:17 7.1 C 70 %
1273 31-12-2019 20:03:18 7.1 C 70 %
1274 31-12-2019 20:13:18 7 C 70 %
1275 31-12-2019 20:23:17 7 C 70 %
Sensor: Nr:Datum:Temp:Feuchte:
G-T/H 1276 31-12-2019 20:33:17 7 C 70 %
1277 31-12-2019 20:43:17 7 C 70 %
1278 31-12-2019 20:53:17 7 C 70 %
1279 31-12-2019 21:03:17 7 C 70 %
1280 31-12-2019 21:13:17 7 C 70 %
1281 31-12-2019 21:23:18 7 C 70 %
1282 31-12-2019 21:33:17 7 C 70 %
1283 31-12-2019 21:43:17 7 C 71 %
1284 31-12-2019 21:53:17 7 C 71 %
1285 31-12-2019 22:03:17 7 C 71 %
1286 31-12-2019 22:13:17 7 C 71 %
1287 31-12-2019 22:23:18 7 C 71 %
1288 31-12-2019 22:33:17 7 C 71 %
1289 31-12-2019 22:43:17 7 C 71 %
1290 31-12-2019 22:53:17 6.9 C 72 %
1291 31-12-2019 23:03:17 6.9 C 72 %
1292 31-12-2019 23:13:17 6.9 C 72 %
1293 31-12-2019 23:23:18 6.9 C 72 %
1294 31-12-2019 23:33:17 6.9 C 72 %
1295 31-12-2019 23:43:17 6.9 C 72 %
1296 31-12-2019 23:53:18 6.9 C 72 %
1297 01-01-2020 00:03:17 6.9 C 72 %
1298 01-01-2020 00:13:17 6.9 C 72 %
1299 01-01-2020 00:23:17 6.9 C 72 %
1300 01-01-2020 00:33:17 6.9 C 72 %
Sensor: Nr:Datum:Temp:Feuchte:
G-T/H 1301 01-01-2020 00:43:17 6.9 C 72 %
1302 01-01-2020 00:53:18 6.9 C 72 %
1303 01-01-2020 01:03:17 6.9 C 72 %
1304 01-01-2020 01:13:17 6.9 C 72 %
1305 01-01-2020 01:23:17 6.9 C 72 %
1306 01-01-2020 01:33:17 6.9 C 72 %
1307 01-01-2020 01:43:17 6.9 C 72 %
1308 01-01-2020 01:53:18 6.9 C 72 %
1309 01-01-2020 02:03:17 6.9 C 72 %
1310 01-01-2020 02:13:17 6.9 C 72 %
1311 01-01-2020 02:23:17 6.9 C 72 %
1312 01-01-2020 02:33:18 6.9 C 72 %
1313 01-01-2020 02:43:18 6.9 C 72 %
1314 01-01-2020 02:53:17 6.9 C 72 %
1315 01-01-2020 03:03:17 6.9 C 72 %
1316 01-01-2020 03:13:18 6.9 C 72 %
1317 01-01-2020 03:23:17 6.9 C 72 %
1318 01-01-2020 03:33:18 6.9 C 72 %
1319 01-01-2020 03:43:18 6.9 C 72 %
1320 01-01-2020 03:53:17 6.9 C 72 %
1321 01-01-2020 04:03:18 6.9 C 72 %
1322 01-01-2020 04:13:18 6.9 C 72 %
1323 01-01-2020 04:23:17 6.9 C 72 %
1324 01-01-2020 04:33:18 6.9 C 72 %
1325 01-01-2020 04:43:18 6.9 C 72 %
Sensor: Nr:Datum:Temp:Feuchte:
G-T/H 1326 01-01-2020 04:53:17 6.9 C 72 %
1327 01-01-2020 05:03:18 6.9 C 72 %
1328 01-01-2020 05:13:18 6.9 C 72 %
1329 01-01-2020 05:23:17 6.9 C 72 %
1330 01-01-2020 05:33:18 6.9 C 72 %
1331 01-01-2020 05:43:18 6.9 C 72 %
1332 01-01-2020 05:53:17 6.9 C 72 %
1333 01-01-2020 06:03:17 6.9 C 72 %
1334 01-01-2020 06:13:17 6.9 C 72 %
1335 01-01-2020 06:23:17 6.9 C 72 %
1336 01-01-2020 06:33:17 6.9 C 72 %
1337 01-01-2020 06:43:17 6.9 C 72 %
1338 01-01-2020 06:53:17 6.9 C 72 %
1339 01-01-2020 07:03:18 6.9 C 72 %
1340 01-01-2020 07:13:18 6.9 C 72 %
1341 01-01-2020 07:23:17 6.9 C 72 %
1342 01-01-2020 07:33:17 6.9 C 72 %
1343 01-01-2020 07:43:17 6.9 C 72 %
1344 01-01-2020 07:53:17 6.9 C 72 %
1345 01-01-2020 08:03:17 6.9 C 72 %
1346 01-01-2020 08:13:17 6.9 C 72 %
1347 01-01-2020 08:23:18 6.9 C 72 %
1348 01-01-2020 08:33:17 6.9 C 72 %
1349 01-01-2020 08:43:17 6.9 C 72 %
1350 01-01-2020 08:53:17 6.9 C 72 %
Sensor: Nr:Datum:Temp:Feuchte:
G-T/H 1351 01-01-2020 09:03:17 6.9 C 72 %
1352 01-01-2020 09:13:17 6.9 C 72 %
1353 01-01-2020 09:23:17 6.9 C 72 %
1354 01-01-2020 09:33:17 6.9 C 73 %
1355 01-01-2020 09:43:17 6.9 C 73 %
1356 01-01-2020 09:53:17 7 C 72 %
1357 01-01-2020 10:03:18 7 C 72 %
1358 01-01-2020 10:13:18 7 C 72 %
1359 01-01-2020 10:23:17 7 C 72 %
1360 01-01-2020 10:33:17 7 C 72 %
1361 01-01-2020 10:43:17 6.9 C 73 %
1362 01-01-2020 10:53:17 6.9 C 73 %
1363 01-01-2020 11:03:17 7 C 72 %
1364 01-01-2020 11:13:17 7 C 72 %
1365 01-01-2020 11:23:18 7 C 72 %
1366 01-01-2020 11:33:17 7 C 72 %
1367 01-01-2020 11:43:17 7 C 72 %
1368 01-01-2020 11:53:18 7 C 72 %
1369 01-01-2020 12:03:17 7 C 72 %
1370 01-01-2020 12:13:17 7 C 72 %
1371 01-01-2020 12:23:18 7 C 72 %
1372 01-01-2020 12:33:17 7 C 72 %
1373 01-01-2020 12:43:17 7 C 72 %
1374 01-01-2020 12:53:18 7 C 72 %
1375 01-01-2020 13:03:17 7.1 C 72 %
Sensor: Nr:Datum:Temp:Feuchte:
G-T/H 1376 01-01-2020 13:13:17 7 C 72 %
1377 01-01-2020 13:23:18 6.9 C 72 %
1378 01-01-2020 13:33:17 7 C 71 %
1379 01-01-2020 13:43:17 7 C 71 %
1380 01-01-2020 13:53:17 7 C 71 %
1381 01-01-2020 14:03:17 7 C 71 %
1382 01-01-2020 14:13:17 7 C 71 %
1383 01-01-2020 14:23:17 7 C 72 %
1384 01-01-2020 14:33:17 7.1 C 72 %
1385 01-01-2020 14:43:17 7.1 C 72 %
1386 01-01-2020 14:53:17 7.1 C 72 %
1387 01-01-2020 15:03:17 7.1 C 72 %
1388 01-01-2020 15:13:17 6.6 C 71 %
1389 01-01-2020 15:23:17 6 C 68 %
1390 01-01-2020 15:33:17 6.2 C 68 %
1391 01-01-2020 15:43:17 7.5 C 69 %
1392 01-01-2020 15:53:17 8.1 C 68 %
1393 01-01-2020 16:03:17 8.2 C 68 %
1394 01-01-2020 16:13:17 8.3 C 68 %
1395 01-01-2020 16:23:17 8.3 C 69 %
1396 01-01-2020 16:33:18 8.2 C 69 %
1397 01-01-2020 16:43:18 8.2 C 69 %
1398 01-01-2020 16:53:17 8.2 C 69 %
1399 01-01-2020 17:03:17 8.2 C 69 %
1400 01-01-2020 17:13:17 8.2 C 69 %
Sensor: Nr:Datum:Temp:Feuchte:
G-T/H 1401 01-01-2020 17:23:18 8.2 C 69 %
1402 01-01-2020 17:33:17 8.1 C 69 %
1403 01-01-2020 17:43:17 8.1 C 69 %
1404 01-01-2020 17:53:18 8.1 C 69 %
1405 01-01-2020 18:03:17 8 C 69 %
1406 01-01-2020 18:13:17 8.1 C 69 %
1407 01-01-2020 18:23:17 8 C 69 %
1408 01-01-2020 18:33:17 8 C 69 %
1409 01-01-2020 18:43:18 8 C 69 %
1410 01-01-2020 18:53:17 8 C 68 %
1411 01-01-2020 19:03:17 8 C 68 %
1412 01-01-2020 19:13:18 8 C 68 %
1413 01-01-2020 19:23:17 8 C 68 %
1414 01-01-2020 19:33:17 7.9 C 69 %
1415 01-01-2020 19:43:17 7.9 C 69 %
1416 01-01-2020 19:53:17 7.9 C 69 %
1417 01-01-2020 20:03:17 7.8 C 69 %
1418 01-01-2020 20:13:17 7.8 C 69 %
1419 01-01-2020 20:23:18 7.7 C 69 %
1420 01-01-2020 20:33:17 7.7 C 69 %
1421 01-01-2020 20:43:17 7.7 C 69 %
1422 01-01-2020 20:53:17 7.7 C 69 %
1423 01-01-2020 21:03:17 7.6 C 69 %
1424 01-01-2020 21:13:17 7.6 C 69 %
1425 01-01-2020 21:23:18 7.6 C 69 %
Sensor: Nr:Datum:Temp:Feuchte:
G-T/H 1426 01-01-2020 21:33:17 7.6 C 69 %
1427 01-01-2020 21:43:17 7.6 C 69 %
1428 01-01-2020 21:53:17 7.6 C 69 %
1429 01-01-2020 22:03:17 7.5 C 69 %
1430 01-01-2020 22:13:17 7.5 C 69 %
1431 01-01-2020 22:23:17 7.5 C 69 %
1432 01-01-2020 22:33:17 7.5 C 69 %
1433 01-01-2020 22:43:17 7.5 C 69 %
1434 01-01-2020 22:53:17 7.5 C 69 %
1435 01-01-2020 23:03:17 7.5 C 69 %
1436 01-01-2020 23:13:17 7.4 C 69 %
1437 01-01-2020 23:23:17 7.4 C 69 %
1438 01-01-2020 23:33:17 7.4 C 69 %
1439 01-01-2020 23:43:17 7.4 C 69 %
1440 01-01-2020 23:53:17 7.4 C 69 %
1441 02-01-2020 00:03:17 7.4 C 69 %
1442 02-01-2020 00:13:17 7.4 C 69 %
1443 02-01-2020 00:23:17 7.3 C 69 %
1444 02-01-2020 00:33:17 7.3 C 69 %
1445 02-01-2020 00:43:17 7.3 C 69 %
1446 02-01-2020 00:53:17 7.3 C 69 %
1447 02-01-2020 01:03:17 7.3 C 69 %
1448 02-01-2020 01:13:17 7.3 C 69 %
1449 02-01-2020 01:23:17 7.2 C 69 %
1450 02-01-2020 01:33:17 7.2 C 69 %
Sensor: Nr:Datum:Temp:Feuchte:
G-T/H 1451 02-01-2020 01:43:17 7.2 C 69 %
1452 02-01-2020 01:53:17 7.2 C 69 %
1453 02-01-2020 02:03:17 7.2 C 69 %
1454 02-01-2020 02:13:17 7.2 C 69 %
1455 02-01-2020 02:23:17 7.2 C 69 %
1456 02-01-2020 02:33:17 7.2 C 69 %
1457 02-01-2020 02:43:17 7.1 C 69 %
1458 02-01-2020 02:53:17 7.1 C 69 %
1459 02-01-2020 03:03:17 7.1 C 69 %
1460 02-01-2020 03:13:18 7.2 C 69 %
1461 02-01-2020 03:23:17 7.1 C 69 %
1462 02-01-2020 03:33:18 7.1 C 70 %
1463 02-01-2020 03:43:18 7.1 C 70 %
1464 02-01-2020 03:53:17 7.1 C 70 %
1465 02-01-2020 04:03:18 7.1 C 70 %
1466 02-01-2020 04:13:18 7.1 C 70 %
1467 02-01-2020 04:23:17 7.1 C 70 %
1468 02-01-2020 04:33:17 7.1 C 70 %
1469 02-01-2020 04:43:17 7.1 C 70 %
1470 02-01-2020 04:53:17 7.1 C 70 %
1471 02-01-2020 05:03:17 7.1 C 70 %
1472 02-01-2020 05:13:17 7 C 70 %
1473 02-01-2020 05:23:18 7 C 70 %
1474 02-01-2020 05:33:17 7 C 70 %
1475 02-01-2020 05:43:17 7 C 70 %
Sensor: Nr:Datum:Temp:Feuchte:
G-T/H 1476 02-01-2020 05:53:18 7 C 70 %
1477 02-01-2020 06:03:17 7 C 70 %
1478 02-01-2020 06:13:17 7 C 70 %
1479 02-01-2020 06:23:17 7 C 70 %
1480 02-01-2020 06:33:18 7 C 70 %
1481 02-01-2020 06:43:18 7 C 70 %
1482 02-01-2020 06:53:17 7 C 70 %
1483 02-01-2020 07:03:18 7 C 70 %
1484 02-01-2020 07:13:18 7 C 70 %
1485 02-01-2020 07:23:17 6.9 C 71 %
1486 02-01-2020 07:33:17 7 C 70 %
1487 02-01-2020 07:43:17 6.7 C 69 %
1488 02-01-2020 07:53:17 6.8 C 69 %
1489 02-01-2020 08:03:18 6.9 C 69 %
1490 02-01-2020 08:13:18 6.9 C 70 %
1491 02-01-2020 08:23:17 6.9 C 70 %
1492 02-01-2020 08:33:17 6.9 C 70 %
1493 02-01-2020 08:43:17 6.9 C 70 %
1494 02-01-2020 08:53:17 6.9 C 70 %
1495 02-01-2020 09:03:17 6.9 C 70 %
1496 02-01-2020 09:13:17 6.9 C 70 %
1497 02-01-2020 09:23:17 6.9 C 71 %
1498 02-01-2020 09:33:18 7 C 70 %
1499 02-01-2020 09:43:18 6.9 C 71 %
1500 02-01-2020 09:53:17 6.9 C 71 %
Sensor: Nr:Datum:Temp:Feuchte:
G-T/H 1501 02-01-2020 10:03:17 6.9 C 71 %
1502 02-01-2020 10:13:18 6.9 C 71 %
1503 02-01-2020 10:23:17 6.9 C 71 %
1504 02-01-2020 10:33:18 6.9 C 71 %
1505 02-01-2020 10:43:18 6.9 C 71 %
1506 02-01-2020 10:53:17 7 C 70 %
1507 02-01-2020 11:03:18 7 C 70 %
1508 02-01-2020 11:13:18 7 C 70 %
1509 02-01-2020 11:23:17 6.9 C 71 %
1510 02-01-2020 11:33:17 7 C 70 %
1511 02-01-2020 11:43:17 7 C 70 %
1512 02-01-2020 11:53:17 7 C 70 %
1513 02-01-2020 12:03:17 7 C 71 %
1514 02-01-2020 12:13:17 7 C 71 %
1515 02-01-2020 12:23:17 7 C 71 %
1516 02-01-2020 12:33:17 7 C 71 %
1517 02-01-2020 12:43:17 7 C 71 %
1518 02-01-2020 12:53:17 7 C 71 %
1519 02-01-2020 13:03:17 7 C 71 %
1520 02-01-2020 13:13:17 7 C 71 %
1521 02-01-2020 13:23:17 7 C 71 %
1522 02-01-2020 13:33:17 7.1 C 71 %
1523 02-01-2020 13:43:17 7.1 C 71 %
1524 02-01-2020 13:53:18 7.1 C 71 %
1525 02-01-2020 14:03:17 7 C 71 %
Sensor: Nr:Datum:Temp:Feuchte:
G-T/H 1526 02-01-2020 14:13:17 7 C 71 %
1527 02-01-2020 14:23:18 7.1 C 71 %
1528 02-01-2020 14:33:17 7.1 C 71 %
1529 02-01-2020 14:43:17 7.1 C 71 %
1530 02-01-2020 14:53:17 7.1 C 71 %
1531 02-01-2020 15:03:17 7.1 C 71 %
1532 02-01-2020 15:13:17 7.1 C 72 %
1533 02-01-2020 15:23:18 7.1 C 72 %
1534 02-01-2020 15:33:17 7.1 C 72 %
1535 02-01-2020 15:43:17 7.1 C 72 %
1536 02-01-2020 15:53:17 7.2 C 72 %
1537 02-01-2020 16:03:17 7.2 C 72 %
1538 02-01-2020 16:13:17 7.2 C 72 %
1539 02-01-2020 16:23:18 7.1 C 72 %
1540 02-01-2020 16:33:17 7.2 C 72 %
1541 02-01-2020 16:43:17 7.2 C 72 %
1542 02-01-2020 16:53:17 7.2 C 72 %
1543 02-01-2020 17:03:17 7.2 C 72 %
1544 02-01-2020 17:13:17 7.1 C 72 %
1545 02-01-2020 17:23:18 7.2 C 72 %
1546 02-01-2020 17:33:17 7.1 C 71 %
1547 02-01-2020 17:43:17 7.4 C 72 %
1548 02-01-2020 17:53:17 7.5 C 72 %
1549 02-01-2020 18:03:17 7.6 C 72 %
1550 02-01-2020 18:13:17 7.6 C 72 %
Sensor: Nr:Datum:Temp:Feuchte:
G-T/H 1551 02-01-2020 18:23:17 7.7 C 72 %
1552 02-01-2020 18:33:17 7.8 C 72 %
1553 02-01-2020 18:43:18 7.8 C 72 %
1554 02-01-2020 18:53:17 7.8 C 72 %
1555 02-01-2020 19:03:17 7.9 C 72 %
1556 02-01-2020 19:13:18 7.9 C 72 %
1557 02-01-2020 19:23:17 7.9 C 72 %
1558 02-01-2020 19:33:17 7.9 C 72 %
1559 02-01-2020 19:43:18 8 C 71 %
1560 02-01-2020 19:53:17 8 C 71 %
1561 02-01-2020 20:03:18 8 C 71 %
1562 02-01-2020 20:13:18 8 C 71 %
1563 02-01-2020 20:23:17 8 C 71 %
1564 02-01-2020 20:33:17 8 C 71 %
1565 02-01-2020 20:43:17 8 C 71 %
1566 02-01-2020 20:53:17 8.1 C 71 %
1567 02-01-2020 21:03:18 8.1 C 71 %
1568 02-01-2020 21:13:18 8.1 C 71 %
1569 02-01-2020 21:23:17 8 C 71 %
1570 02-01-2020 21:33:18 8 C 71 %
1571 02-01-2020 21:43:18 8 C 70 %
1572 02-01-2020 21:53:17 8 C 70 %
1573 02-01-2020 22:03:17 8 C 70 %
1574 02-01-2020 22:13:17 8 C 70 %
1575 02-01-2020 22:23:17 8 C 70 %
Sensor: Nr:Datum:Temp:Feuchte:
G-T/H 1576 02-01-2020 22:33:17 8 C 70 %
1577 02-01-2020 22:43:18 8 C 71 %
1578 02-01-2020 22:53:17 8 C 71 %
1579 02-01-2020 23:03:17 8 C 71 %
1580 02-01-2020 23:13:17 8 C 71 %
1581 02-01-2020 23:23:17 8 C 71 %
1582 02-01-2020 23:33:18 8 C 71 %
1583 02-01-2020 23:43:18 8 C 71 %
1584 02-01-2020 23:53:17 8 C 71 %
1585 03-01-2020 00:03:18 8 C 71 %
1586 03-01-2020 00:13:18 8 C 71 %
1587 03-01-2020 00:23:17 8 C 71 %
1588 03-01-2020 00:33:17 8 C 71 %
1589 03-01-2020 00:43:17 8 C 71 %
1590 03-01-2020 00:53:17 8 C 71 %
1591 03-01-2020 01:03:17 8 C 71 %
1592 03-01-2020 01:13:17 8 C 71 %
1593 03-01-2020 01:23:18 8 C 71 %
1594 03-01-2020 01:33:17 8 C 71 %
1595 03-01-2020 01:43:17 8 C 71 %
1596 03-01-2020 01:53:18 8 C 71 %
1597 03-01-2020 02:03:17 8 C 71 %
1598 03-01-2020 02:13:17 8 C 71 %
1599 03-01-2020 02:23:17 8 C 71 %
1600 03-01-2020 02:33:17 8 C 71 %
Sensor: Nr:Datum:Temp:Feuchte:
G-T/H 1601 03-01-2020 02:43:18 8 C 71 %
1602 03-01-2020 02:53:17 8 C 71 %
1603 03-01-2020 03:03:17 8 C 71 %
1604 03-01-2020 03:13:17 8 C 71 %
1605 03-01-2020 03:23:17 8 C 71 %
1606 03-01-2020 03:33:17 8 C 72 %
1607 03-01-2020 03:43:17 8 C 72 %
1608 03-01-2020 03:53:18 8 C 72 %
1609 03-01-2020 04:03:17 8 C 72 %
1610 03-01-2020 04:13:17 8 C 72 %
1611 03-01-2020 04:23:18 8 C 72 %
1612 03-01-2020 04:33:17 8 C 72 %
1613 03-01-2020 04:43:17 8 C 72 %
1614 03-01-2020 04:53:17 8 C 72 %
1615 03-01-2020 05:03:17 8 C 72 %
1616 03-01-2020 05:13:17 8 C 72 %
1617 03-01-2020 05:23:17 8 C 72 %
1618 03-01-2020 05:33:17 8 C 72 %
1619 03-01-2020 05:43:17 8 C 72 %
1620 03-01-2020 05:53:17 8 C 72 %
1621 03-01-2020 06:03:17 8.1 C 72 %
1622 03-01-2020 06:13:17 8.1 C 72 %
1623 03-01-2020 06:23:18 8 C 72 %
1624 03-01-2020 06:33:17 8.1 C 72 %
1625 03-01-2020 06:43:17 8.1 C 72 %
Sensor: Nr:Datum:Temp:Feuchte:
G-T/H 1626 03-01-2020 06:53:18 8.1 C 72 %
1627 03-01-2020 07:03:18 8.1 C 72 %
1628 03-01-2020 07:13:18 8.1 C 72 %
1629 03-01-2020 07:23:17 8.1 C 72 %
1630 03-01-2020 07:33:17 8.1 C 72 %
1631 03-01-2020 07:43:17 8.1 C 73 %
1632 03-01-2020 07:53:17 8.1 C 73 %
1633 03-01-2020 08:03:18 8.1 C 73 %
1634 03-01-2020 08:13:18 8.1 C 73 %
1635 03-01-2020 08:23:17 8.1 C 73 %
1636 03-01-2020 08:33:18 8.1 C 73 %
1637 03-01-2020 08:43:18 8.1 C 73 %
1638 03-01-2020 08:53:17 8.1 C 73 %
1639 03-01-2020 09:03:17 8.1 C 73 %
1640 03-01-2020 09:13:17 8.1 C 73 %
1641 03-01-2020 09:23:17 8.1 C 73 %
1642 03-01-2020 09:33:17 8.1 C 73 %
1643 03-01-2020 09:43:17 8.1 C 73 %
1644 03-01-2020 09:53:17 8.1 C 73 %
1645 03-01-2020 10:03:17 8.1 C 73 %
1646 03-01-2020 10:13:17 8.2 C 73 %
1647 03-01-2020 10:23:17 8.2 C 73 %
1648 03-01-2020 10:33:17 8.2 C 73 %
1649 03-01-2020 10:43:18 8.2 C 73 %
1650 03-01-2020 10:53:17 8.2 C 73 %
Sensor: Nr:Datum:Temp:Feuchte:
G-T/H 1651 03-01-2020 11:03:18 8.2 C 73 %
1652 03-01-2020 11:13:18 8.2 C 74 %
1653 03-01-2020 11:23:18 8.2 C 74 %
1654 03-01-2020 11:33:17 8.2 C 74 %
1655 03-01-2020 11:43:17 8.3 C 74 %
1656 03-01-2020 11:53:17 8.3 C 74 %
1657 03-01-2020 12:03:17 8.3 C 74 %
1658 03-01-2020 12:13:17 8.3 C 74 %
1659 03-01-2020 12:23:17 8.3 C 74 %
1660 03-01-2020 12:33:17 8.3 C 74 %
1661 03-01-2020 12:43:17 8.3 C 74 %
1662 03-01-2020 12:53:17 8.3 C 74 %
1663 03-01-2020 13:03:17 8.3 C 74 %
1664 03-01-2020 13:13:18 8.4 C 74 %
1665 03-01-2020 13:23:17 8.4 C 74 %
1666 03-01-2020 13:33:17 8.4 C 74 %
1667 03-01-2020 13:43:18 8.4 C 74 %
1668 03-01-2020 13:53:17 8.4 C 74 %
1669 03-01-2020 14:03:17 8.4 C 74 %
1670 03-01-2020 14:13:17 8.5 C 74 %
1671 03-01-2020 14:23:18 8.5 C 74 %
1672 03-01-2020 14:33:17 8.5 C 74 %
1673 03-01-2020 14:43:17 8.5 C 74 %
1674 03-01-2020 14:53:17 8.5 C 74 %
1675 03-01-2020 15:03:17 8.5 C 74 %
Sensor: Nr:Datum:Temp:Feuchte:
G-T/H 1676 03-01-2020 15:13:17 8.5 C 75 %
1677 03-01-2020 15:23:17 8.6 C 75 %
1678 03-01-2020 15:33:17 8.6 C 75 %
1679 03-01-2020 15:43:18 8.6 C 75 %
1680 03-01-2020 15:53:17 8.6 C 75 %
1681 03-01-2020 16:03:17 8.6 C 75 %
1682 03-01-2020 16:13:17 8.6 C 75 %
1683 03-01-2020 16:23:17 8.6 C 75 %
1684 03-01-2020 16:33:17 8.6 C 75 %
1685 03-01-2020 16:43:17 8.7 C 75 %
1686 03-01-2020 16:53:17 8.7 C 75 %
1687 03-01-2020 17:03:17 8.7 C 75 %
1688 03-01-2020 17:13:17 8.7 C 75 %
1689 03-01-2020 17:23:17 8.7 C 75 %
1690 03-01-2020 17:33:17 8.7 C 75 %
1691 03-01-2020 17:43:17 8.8 C 75 %
1692 03-01-2020 17:53:17 8.8 C 75 %
1693 03-01-2020 18:03:17 8.8 C 75 %
1694 03-01-2020 18:13:18 8.8 C 75 %
1695 03-01-2020 18:23:18 8.8 C 75 %
1696 03-01-2020 18:33:18 8.9 C 75 %
1697 03-01-2020 18:43:18 8.9 C 75 %
1698 03-01-2020 18:53:17 8.9 C 75 %
1699 03-01-2020 19:03:18 8.9 C 76 %
1700 03-01-2020 19:13:18 8.9 C 76 %
Sensor: Nr:Datum:Temp:Feuchte:
G-T/H 1701 03-01-2020 19:23:17 8.9 C 76 %
1702 03-01-2020 19:33:17 8.9 C 76 %
1703 03-01-2020 19:43:17 8.9 C 76 %
1704 03-01-2020 19:53:17 9 C 75 %
1705 03-01-2020 20:03:18 8.9 C 76 %
1706 03-01-2020 20:13:18 9 C 75 %
1707 03-01-2020 20:23:17 9 C 75 %
1708 03-01-2020 20:33:17 9 C 75 %
1709 03-01-2020 20:43:17 9 C 75 %
1710 03-01-2020 20:53:18 9 C 75 %
1711 03-01-2020 21:03:17 9 C 75 %
1712 03-01-2020 21:13:17 9.1 C 75 %
1713 03-01-2020 21:23:17 9.1 C 75 %
1714 03-01-2020 21:33:18 9.1 C 75 %
1715 03-01-2020 21:43:18 9.1 C 75 %
1716 03-01-2020 21:53:17 9.1 C 75 %
1717 03-01-2020 22:03:18 9.1 C 75 %
1718 03-01-2020 22:13:18 9.1 C 75 %
1719 03-01-2020 22:23:17 9.1 C 75 %
1720 03-01-2020 22:33:17 9.1 C 75 %
1721 03-01-2020 22:43:17 9.1 C 75 %
1722 03-01-2020 22:53:17 9.1 C 75 %
1723 03-01-2020 23:03:17 9.1 C 75 %
1724 03-01-2020 23:13:17 9.1 C 75 %
1725 03-01-2020 23:23:17 9.1 C 75 %
Sensor: Nr:Datum:Temp:Feuchte:
G-T/H 1726 03-01-2020 23:33:17 9.1 C 75 %
1727 03-01-2020 23:43:17 9.1 C 75 %
1728 03-01-2020 23:53:17 9.1 C 75 %
1729 04-01-2020 00:03:18 9.2 C 75 %
1730 04-01-2020 00:13:18 9.2 C 75 %
1731 04-01-2020 00:23:17 9.2 C 75 %
1732 04-01-2020 00:33:17 9.2 C 75 %
1733 04-01-2020 00:43:17 9.2 C 75 %
1734 04-01-2020 00:53:17 9.2 C 75 %
1735 04-01-2020 01:03:17 9.2 C 75 %
1736 04-01-2020 01:13:17 9.2 C 75 %
1737 04-01-2020 01:23:17 9.2 C 75 %
1738 04-01-2020 01:33:17 9.2 C 75 %
1739 04-01-2020 01:43:17 9.2 C 75 %
1740 04-01-2020 01:53:18 9.2 C 75 %
1741 04-01-2020 02:03:17 9.2 C 75 %
1742 04-01-2020 02:13:17 9.2 C 75 %
1743 04-01-2020 02:23:17 9.2 C 75 %
1744 04-01-2020 02:33:17 9.2 C 75 %
1745 04-01-2020 02:43:17 9.2 C 75 %
1746 04-01-2020 02:53:17 9.2 C 75 %
1747 04-01-2020 03:03:18 9.2 C 75 %
1748 04-01-2020 03:13:18 9.2 C 75 %
1749 04-01-2020 03:23:17 9.2 C 74 %
1750 04-01-2020 03:33:17 9.2 C 74 %
Sensor: Nr:Datum:Temp:Feuchte:
G-T/H 1751 04-01-2020 03:43:17 9.2 C 74 %
1752 04-01-2020 03:53:17 9.2 C 74 %
1753 04-01-2020 04:03:17 9.2 C 74 %
1754 04-01-2020 04:13:17 9.2 C 74 %
1755 04-01-2020 04:23:17 9.2 C 74 %
1756 04-01-2020 04:33:17 9.2 C 74 %
1757 04-01-2020 04:43:17 9.2 C 74 %
1758 04-01-2020 04:53:17 9.1 C 74 %
1759 04-01-2020 05:03:17 9.1 C 74 %
1760 04-01-2020 05:13:17 9.1 C 74 %
1761 04-01-2020 05:23:17 9.2 C 74 %
1762 04-01-2020 05:33:17 9.1 C 74 %
1763 04-01-2020 05:43:18 9.1 C 74 %
1764 04-01-2020 05:53:17 9.1 C 74 %
1765 04-01-2020 06:03:17 9.1 C 74 %
1766 04-01-2020 06:13:17 9.1 C 74 %
1767 04-01-2020 06:23:17 9.1 C 74 %
1768 04-01-2020 06:33:17 9.1 C 74 %
1769 04-01-2020 06:43:17 9.1 C 74 %
1770 04-01-2020 06:53:17 9.1 C 74 %
1771 04-01-2020 07:03:17 9.1 C 74 %
1772 04-01-2020 07:13:17 9.1 C 74 %
1773 04-01-2020 07:23:17 9.1 C 74 %
1774 04-01-2020 07:33:17 9 C 73 %
1775 04-01-2020 07:43:17 9 C 73 %
Sensor: Nr:Datum:Temp:Feuchte:
G-T/H 1776 04-01-2020 07:53:17 9 C 73 %
1777 04-01-2020 08:03:17 9 C 73 %
1778 04-01-2020 08:13:17 9 C 73 %
1779 04-01-2020 08:23:17 9 C 73 %
1780 04-01-2020 08:33:17 9 C 73 %
1781 04-01-2020 08:43:17 8.9 C 74 %
1782 04-01-2020 08:53:17 8.9 C 74 %
1783 04-01-2020 09:03:17 8.9 C 74 %
1784 04-01-2020 09:13:17 8.9 C 74 %
1785 04-01-2020 09:23:17 8.9 C 74 %
1786 04-01-2020 09:33:18 8.9 C 74 %
1787 04-01-2020 09:43:18 8.9 C 74 %
1788 04-01-2020 09:53:17 8.9 C 74 %
1789 04-01-2020 10:03:18 8.9 C 74 %
1790 04-01-2020 10:13:18 8.8 C 74 %
1791 04-01-2020 10:23:17 8.9 C 74 %
1792 04-01-2020 10:33:17 8.9 C 74 %
1793 04-01-2020 10:43:17 8.8 C 74 %
1794 04-01-2020 10:53:17 8.8 C 74 %
1795 04-01-2020 11:03:17 8.8 C 74 %
1796 04-01-2020 11:13:17 8.8 C 74 %
1797 04-01-2020 11:23:17 8.8 C 74 %
1798 04-01-2020 11:33:17 8.8 C 74 %
1799 04-01-2020 11:43:17 8.9 C 74 %
1800 04-01-2020 11:53:17 9 C 73 %
Sensor: Nr:Datum:Temp:Feuchte:
G-T/H 1801 04-01-2020 12:03:17 9.1 C 73 %
1802 04-01-2020 12:13:18 9.1 C 73 %
1803 04-01-2020 12:23:17 9.1 C 73 %
1804 04-01-2020 12:33:17 9.1 C 73 %
1805 04-01-2020 12:43:17 9.1 C 73 %
1806 04-01-2020 12:53:17 9.1 C 73 %
1807 04-01-2020 13:03:17 9.1 C 73 %
1808 04-01-2020 13:13:17 9.1 C 73 %
1809 04-01-2020 13:23:17 9.1 C 73 %
1810 04-01-2020 13:33:17 9.1 C 73 %
1811 04-01-2020 13:43:17 9.1 C 73 %
1812 04-01-2020 13:53:18 9.1 C 73 %
1813 04-01-2020 14:03:18 9.1 C 73 %
1814 04-01-2020 14:13:18 9.1 C 73 %
1815 04-01-2020 14:23:18 9.1 C 73 %
1816 04-01-2020 14:33:17 9.1 C 73 %
1817 04-01-2020 14:43:18 9.1 C 73 %
1818 04-01-2020 14:53:17 9.1 C 73 %
1819 04-01-2020 15:03:17 9.1 C 73 %
1820 04-01-2020 15:13:17 9.1 C 73 %
1821 04-01-2020 15:23:17 9.1 C 73 %
1822 04-01-2020 15:33:18 9.1 C 73 %
1823 04-01-2020 15:43:18 9.1 C 73 %
1824 04-01-2020 15:53:18 9.1 C 73 %
1825 04-01-2020 16:03:17 9.1 C 73 %
Sensor: Nr:Datum:Temp:Feuchte:
G-T/H 1826 04-01-2020 16:13:18 9.1 C 73 %
1827 04-01-2020 16:23:17 9.2 C 73 %
1828 04-01-2020 16:33:17 9.2 C 73 %
1829 04-01-2020 16:43:17 9.2 C 73 %
1830 04-01-2020 16:53:17 9.1 C 73 %
1831 04-01-2020 17:03:17 9.2 C 73 %
1832 04-01-2020 17:13:17 9.2 C 73 %
1833 04-01-2020 17:23:17 9.1 C 73 %
1834 04-01-2020 17:33:18 9.2 C 73 %
1835 04-01-2020 17:43:18 9.2 C 73 %
1836 04-01-2020 17:53:17 9.2 C 73 %
1837 04-01-2020 18:03:17 9.2 C 73 %
1838 04-01-2020 18:13:17 9.2 C 73 %
1839 04-01-2020 18:23:17 9.2 C 73 %
1840 04-01-2020 18:33:17 9.2 C 73 %
1841 04-01-2020 18:43:17 9.2 C 73 %
1842 04-01-2020 18:53:17 9.2 C 73 %
1843 04-01-2020 19:03:17 9.2 C 73 %
1844 04-01-2020 19:13:17 9.2 C 73 %
1845 04-01-2020 19:23:17 9.2 C 73 %
1846 04-01-2020 19:33:17 9.2 C 73 %
1847 04-01-2020 19:43:17 9.2 C 73 %
1848 04-01-2020 19:53:17 9.2 C 73 %
1849 04-01-2020 20:03:17 9.3 C 73 %
1850 04-01-2020 20:13:17 9.2 C 73 %
Sensor: Nr:Datum:Temp:Feuchte:
G-T/H 1851 04-01-2020 20:23:18 9.2 C 73 %
1852 04-01-2020 20:33:18 9.2 C 73 %
1853 04-01-2020 20:43:18 9.2 C 73 %
1854 04-01-2020 20:53:17 9.2 C 73 %
1855 04-01-2020 21:03:17 9.2 C 73 %
1856 04-01-2020 21:13:17 9.2 C 73 %
1857 04-01-2020 21:23:17 9.2 C 73 %
1858 04-01-2020 21:33:17 9.2 C 73 %
1859 04-01-2020 21:43:17 9.3 C 73 %
1860 04-01-2020 21:53:18 9.3 C 73 %
1861 04-01-2020 22:03:17 9.3 C 73 %
1862 04-01-2020 22:13:17 9.2 C 73 %
1863 04-01-2020 22:23:17 9.3 C 73 %
1864 04-01-2020 22:33:17 9.3 C 73 %
1865 04-01-2020 22:43:17 9.3 C 73 %
1866 04-01-2020 22:53:17 9.3 C 73 %
1867 04-01-2020 23:03:17 9.3 C 73 %
1868 04-01-2020 23:13:17 9.3 C 73 %
1869 04-01-2020 23:23:17 9.3 C 73 %
1870 04-01-2020 23:33:18 9.3 C 73 %
1871 04-01-2020 23:43:18 9.3 C 73 %
1872 04-01-2020 23:53:17 9.3 C 73 %
1873 05-01-2020 00:03:17 9.3 C 73 %
1874 05-01-2020 00:13:17 9.3 C 73 %
1875 05-01-2020 00:23:17 9.3 C 73 %
Sensor: Nr:Datum:Temp:Feuchte:
G-T/H 1876 05-01-2020 00:33:18 9.3 C 73 %
1877 05-01-2020 00:43:18 9.3 C 73 %
1878 05-01-2020 00:53:17 9.3 C 73 %
1879 05-01-2020 01:03:17 9.3 C 73 %
1880 05-01-2020 01:13:17 9.3 C 73 %
1881 05-01-2020 01:23:17 9.3 C 73 %
1882 05-01-2020 01:33:17 9.3 C 73 %
1883 05-01-2020 01:43:18 9.3 C 73 %
1884 05-01-2020 01:53:17 9.3 C 73 %
1885 05-01-2020 02:03:18 9.3 C 73 %
1886 05-01-2020 02:13:18 9.3 C 73 %
1887 05-01-2020 02:23:17 9.3 C 73 %
1888 05-01-2020 02:33:17 9.3 C 73 %
1889 05-01-2020 02:43:17 9.3 C 73 %
1890 05-01-2020 02:53:17 9.3 C 73 %
1891 05-01-2020 03:03:17 9.3 C 73 %
1892 05-01-2020 03:13:17 9.3 C 73 %
1893 05-01-2020 03:23:17 9.3 C 73 %
1894 05-01-2020 03:33:17 9.3 C 73 %
1895 05-01-2020 03:43:17 9.3 C 73 %
1896 05-01-2020 03:53:17 9.3 C 73 %
1897 05-01-2020 04:03:17 9.3 C 73 %
1898 05-01-2020 04:13:17 9.3 C 73 %
1899 05-01-2020 04:23:17 9.3 C 73 %
1900 05-01-2020 04:33:17 9.3 C 73 %
Sensor: Nr:Datum:Temp:Feuchte:
G-T/H 1901 05-01-2020 04:43:17 9.3 C 73 %
1902 05-01-2020 04:53:17 9.3 C 73 %
1903 05-01-2020 05:03:17 9.3 C 73 %
1904 05-01-2020 05:13:17 9.3 C 73 %
1905 05-01-2020 05:23:17 9.3 C 73 %
1906 05-01-2020 05:33:18 9.3 C 73 %
1907 05-01-2020 05:43:18 9.3 C 73 %
1908 05-01-2020 05:53:17 9.3 C 73 %
1909 05-01-2020 06:03:17 9.4 C 73 %
1910 05-01-2020 06:13:17 9.3 C 73 %
1911 05-01-2020 06:23:17 9.3 C 73 %
1912 05-01-2020 06:33:17 9.3 C 73 %
1913 05-01-2020 06:43:17 9.3 C 73 %
1914 05-01-2020 06:53:17 9.3 C 73 %
1915 05-01-2020 07:03:17 9.3 C 73 %
1916 05-01-2020 07:13:17 9.4 C 74 %
1917 05-01-2020 07:23:17 9.4 C 73 %
1918 05-01-2020 07:33:17 9.4 C 74 %
1919 05-01-2020 07:43:17 9.4 C 73 %
1920 05-01-2020 07:53:17 9.4 C 73 %
1921 05-01-2020 08:03:18 9.4 C 73 %
1922 05-01-2020 08:13:18 9.4 C 73 %
1923 05-01-2020 08:23:17 9.4 C 73 %
1924 05-01-2020 08:33:17 9.4 C 73 %
1925 05-01-2020 08:43:17 9.4 C 73 %
Sensor: Nr:Datum:Temp:Feuchte:
G-T/H 1926 05-01-2020 08:53:17 9.4 C 73 %
1927 05-01-2020 09:03:18 9.4 C 73 %
1928 05-01-2020 09:13:18 9.4 C 73 %
1929 05-01-2020 09:23:17 9.4 C 73 %
1930 05-01-2020 09:33:18 9.4 C 73 %
1931 05-01-2020 09:43:18 9.4 C 73 %
1932 05-01-2020 09:53:17 9.4 C 73 %
1933 05-01-2020 10:03:17 9.4 C 73 %
1934 05-01-2020 10:13:18 9.4 C 73 %
1935 05-01-2020 10:23:18 9.4 C 73 %
1936 05-01-2020 10:33:18 9.4 C 74 %
1937 05-01-2020 10:43:18 9.4 C 73 %
1938 05-01-2020 10:53:17 9.4 C 74 %
1939 05-01-2020 11:03:17 9.4 C 74 %
1940 05-01-2020 11:13:17 9.4 C 74 %
1941 05-01-2020 11:23:17 9.4 C 74 %
1942 05-01-2020 11:33:17 9.4 C 74 %
1943 05-01-2020 11:43:17 9.4 C 74 %
1944 05-01-2020 11:53:17 9.4 C 74 %
1945 05-01-2020 12:03:17 9.4 C 74 %
1946 05-01-2020 12:13:17 9.4 C 74 %
1947 05-01-2020 12:23:17 9.4 C 74 %
1948 05-01-2020 12:33:17 9.4 C 74 %
1949 05-01-2020 12:43:17 9.4 C 74 %
1950 05-01-2020 12:53:17 9.4 C 74 %
Sensor: Nr:Datum:Temp:Feuchte:
G-T/H 1951 05-01-2020 13:03:17 9.4 C 74 %
1952 05-01-2020 13:13:17 9.4 C 74 %
1953 05-01-2020 13:23:17 9.4 C 74 %
1954 05-01-2020 13:33:18 9.4 C 74 %
1955 05-01-2020 13:43:18 9.4 C 74 %
1956 05-01-2020 13:53:18 9.4 C 74 %
1957 05-01-2020 14:03:18 9.4 C 74 %
1958 05-01-2020 14:13:18 9.4 C 74 %
1959 05-01-2020 14:23:18 9.4 C 74 %
1960 05-01-2020 14:33:18 9.5 C 74 %
1961 05-01-2020 14:43:18 9.4 C 74 %
1962 05-01-2020 14:53:17 9.4 C 74 %
1963 05-01-2020 15:03:18 9.4 C 74 %
1964 05-01-2020 15:13:18 9.4 C 74 %
1965 05-01-2020 15:23:18 9.5 C 74 %
1966 05-01-2020 15:33:18 9.5 C 74 %
1967 05-01-2020 15:43:18 9.5 C 74 %
1968 05-01-2020 15:53:18 9.5 C 74 %
1969 05-01-2020 16:03:18 9.5 C 74 %
1970 05-01-2020 16:13:18 9.5 C 74 %
1971 05-01-2020 16:23:17 9.5 C 74 %
1972 05-01-2020 16:33:17 9.5 C 74 %
1973 05-01-2020 16:43:17 9.5 C 74 %
1974 05-01-2020 16:53:18 9.5 C 74 %
1975 05-01-2020 17:03:18 9.5 C 74 %
Sensor: Nr:Datum:Temp:Feuchte:
G-T/H 1976 05-01-2020 17:13:18 9.5 C 74 %
1977 05-01-2020 17:23:18 9.5 C 74 %
1978 05-01-2020 17:33:18 9.5 C 74 %
1979 05-01-2020 17:43:18 9.5 C 74 %
1980 05-01-2020 17:53:17 9.5 C 74 %
1981 05-01-2020 18:03:17 9.5 C 74 %
1982 05-01-2020 18:13:17 9.5 C 74 %
1983 05-01-2020 18:23:17 9.5 C 74 %
1984 05-01-2020 18:33:17 9.5 C 74 %
1985 05-01-2020 18:43:17 9.6 C 74 %
1986 05-01-2020 18:53:17 9.5 C 74 %
1987 05-01-2020 19:03:17 9.6 C 74 %
1988 05-01-2020 19:13:17 9.6 C 74 %
1989 05-01-2020 19:23:17 9.6 C 74 %
1990 05-01-2020 19:33:17 9.6 C 74 %
1991 05-01-2020 19:43:17 9.6 C 74 %
1992 05-01-2020 19:53:18 9.6 C 74 %
1993 05-01-2020 20:03:18 9.6 C 74 %
1994 05-01-2020 20:13:18 9.6 C 74 %
1995 05-01-2020 20:23:18 9.6 C 74 %
1996 05-01-2020 20:33:18 9.6 C 74 %
1997 05-01-2020 20:43:18 9.6 C 74 %
1998 05-01-2020 20:53:18 9.6 C 74 %
1999 05-01-2020 21:03:18 9.6 C 74 %
2000 05-01-2020 21:13:18 9.6 C 74 %
Sensor: Nr:Datum:Temp:Feuchte:
G-T/H 2001 05-01-2020 21:23:18 9.6 C 74 %
2002 05-01-2020 21:33:17 9.6 C 74 %
2003 05-01-2020 21:43:17 9.6 C 74 %
2004 05-01-2020 21:53:17 9.6 C 74 %
2005 05-01-2020 22:03:17 9.6 C 74 %
2006 05-01-2020 22:13:17 9.6 C 74 %
2007 05-01-2020 22:23:17 9.6 C 74 %
2008 05-01-2020 22:33:17 9.6 C 74 %
2009 05-01-2020 22:43:17 9.6 C 74 %
2010 05-01-2020 22:53:17 9.6 C 74 %
2011 05-01-2020 23:03:17 9.6 C 74 %
2012 05-01-2020 23:13:17 9.6 C 74 %
2013 05-01-2020 23:23:17 9.6 C 74 %
2014 05-01-2020 23:33:17 9.6 C 74 %
2015 05-01-2020 23:43:17 9.6 C 74 %
2016 05-01-2020 23:53:17 9.6 C 74 %

Legende:
   Min
   Max


Maximal/Minimal-Werte vom 23.12.2019 - 05.01.2020

Sensor Min Max Avg
Temp
(Aussen-T/F)
-5 °C
29-12-2019  07:23:17
10.5 °C
24-12-2019  15:52:17
3.02 °C
Feuchte
(Aussen-T/F)
20 %
24-12-2019  15:42:17
46 %
31-12-2019  18:43:17
36.64 %
Temp
(G-T/H)
5.1 °C
28-12-2019  10:13:17
10.4 °C
23-12-2019  00:02:17
8.68 °C
Feuchte
(G-T/H)
61 %
28-12-2019  09:53:17
76 %
23-12-2019  13:12:17
72.73 %

Die Daten stammen von einer Davis Vantage Pro 2 Wetter-Station und werden unter Linux mit der Software wview2wettercgi und aufbereitet. Alle Angaben erfolgen ohne Gewähr für ihre Vollständigkeit oder Richtigkeit.
Kontakt: Rainer Krienke krienke@uni-koblenz.de . Meine Webseiten an der Uni Koblenz oder privat.
Version: $Revision: 0.78 $